<?xml version="1.0" encoding="UTF-8" standalone="no" ?>
<gpx xmlns="http://www.topografix.com/GPX/1/1" xmlns:xsi="http://www.w3.org/2001/XMLSchema-instance" xsi:schemaLocation="http://www.topografix.com/GPX/1/1 http://www.topografix.com/GPX/1/1/gpx.xsd" version="1.1" creator="VisuGPX - https://www.visugpx.com">
  <metadata>
    <name>Saint Julien en Sain Alban Chat gourmand 031119</name>
    <desc><![CDATA[Réalisé le 03112019
]]></desc>
  </metadata>
  <trk>
    <name><![CDATA[2019-11-03 08:52:27]]></name>
    <trkseg>
      <trkpt lat="44.75669" lon="4.70712">
        <ele>127.4</ele>
        <time>2019-11-03T07:59:11.000Z</time>
      </trkpt>
      <trkpt lat="44.75652" lon="4.70717">
        <ele>125</ele>
        <time>2019-11-03T07:59:21.000Z</time>
      </trkpt>
      <trkpt lat="44.75638" lon="4.70723">
        <ele>124.8</ele>
        <time>2019-11-03T07:59:31.000Z</time>
      </trkpt>
      <trkpt lat="44.75637" lon="4.70735">
        <ele>124.6</ele>
        <time>2019-11-03T07:59:41.000Z</time>
      </trkpt>
      <trkpt lat="44.75638" lon="4.70746">
        <ele>124.4</ele>
        <time>2019-11-03T07:59:51.000Z</time>
      </trkpt>
      <trkpt lat="44.75644" lon="4.70763">
        <ele>122.8</ele>
        <time>2019-11-03T08:00:01.000Z</time>
      </trkpt>
      <trkpt lat="44.75649" lon="4.70776">
        <ele>122.7</ele>
        <time>2019-11-03T08:00:11.000Z</time>
      </trkpt>
      <trkpt lat="44.75658" lon="4.70794">
        <ele>122.5</ele>
        <time>2019-11-03T08:00:21.000Z</time>
      </trkpt>
      <trkpt lat="44.75667" lon="4.70813">
        <ele>123.8</ele>
        <time>2019-11-03T08:00:31.000Z</time>
      </trkpt>
      <trkpt lat="44.75672" lon="4.70827">
        <ele>122.9</ele>
        <time>2019-11-03T08:00:41.000Z</time>
      </trkpt>
      <trkpt lat="44.75683" lon="4.70842">
        <ele>122.2</ele>
        <time>2019-11-03T08:00:51.000Z</time>
      </trkpt>
      <trkpt lat="44.75674" lon="4.70854">
        <ele>122.1</ele>
        <time>2019-11-03T08:01:01.000Z</time>
      </trkpt>
      <trkpt lat="44.75662" lon="4.70868">
        <ele>120.8</ele>
        <time>2019-11-03T08:01:11.000Z</time>
      </trkpt>
      <trkpt lat="44.75651" lon="4.70884">
        <ele>120.5</ele>
        <time>2019-11-03T08:01:21.000Z</time>
      </trkpt>
      <trkpt lat="44.75645" lon="4.70895">
        <ele>120.4</ele>
        <time>2019-11-03T08:01:31.000Z</time>
      </trkpt>
      <trkpt lat="44.75628" lon="4.70918">
        <ele>118.6</ele>
        <time>2019-11-03T08:01:41.000Z</time>
      </trkpt>
      <trkpt lat="44.75617" lon="4.70937">
        <ele>118.3</ele>
        <time>2019-11-03T08:01:51.000Z</time>
      </trkpt>
      <trkpt lat="44.75604" lon="4.70953">
        <ele>118</ele>
        <time>2019-11-03T08:02:01.000Z</time>
      </trkpt>
      <trkpt lat="44.75572" lon="4.70998">
        <ele>113.4</ele>
        <time>2019-11-03T08:02:11.000Z</time>
      </trkpt>
      <trkpt lat="44.75566" lon="4.71009">
        <ele>113.06</ele>
        <time>2019-11-03T08:02:21.000Z</time>
      </trkpt>
      <trkpt lat="44.75557" lon="4.71019">
        <ele>112.52</ele>
        <time>2019-11-03T08:02:31.000Z</time>
      </trkpt>
      <trkpt lat="44.75548" lon="4.71031">
        <ele>112</ele>
        <time>2019-11-03T08:02:41.000Z</time>
      </trkpt>
      <trkpt lat="44.7554" lon="4.71044">
        <ele>111.55</ele>
        <time>2019-11-03T08:02:51.000Z</time>
      </trkpt>
      <trkpt lat="44.75532" lon="4.7106">
        <ele>111.1</ele>
        <time>2019-11-03T08:03:01.000Z</time>
      </trkpt>
      <trkpt lat="44.75524" lon="4.71073">
        <ele>110.68</ele>
        <time>2019-11-03T08:03:11.000Z</time>
      </trkpt>
      <trkpt lat="44.75519" lon="4.71086">
        <ele>110.41</ele>
        <time>2019-11-03T08:03:21.000Z</time>
      </trkpt>
      <trkpt lat="44.75511" lon="4.71102">
        <ele>110.09</ele>
        <time>2019-11-03T08:03:31.000Z</time>
      </trkpt>
      <trkpt lat="44.75505" lon="4.71117">
        <ele>109.94</ele>
        <time>2019-11-03T08:03:41.000Z</time>
      </trkpt>
      <trkpt lat="44.755" lon="4.71137">
        <ele>109.93</ele>
        <time>2019-11-03T08:03:51.000Z</time>
      </trkpt>
      <trkpt lat="44.755" lon="4.71158">
        <ele>109.96</ele>
        <time>2019-11-03T08:04:01.000Z</time>
      </trkpt>
      <trkpt lat="44.75506" lon="4.71179">
        <ele>109.92</ele>
        <time>2019-11-03T08:04:11.000Z</time>
      </trkpt>
      <trkpt lat="44.75509" lon="4.71198">
        <ele>109.93</ele>
        <time>2019-11-03T08:04:21.000Z</time>
      </trkpt>
      <trkpt lat="44.75515" lon="4.71217">
        <ele>109.95</ele>
        <time>2019-11-03T08:04:31.000Z</time>
      </trkpt>
      <trkpt lat="44.75521" lon="4.71233">
        <ele>110.02</ele>
        <time>2019-11-03T08:04:41.000Z</time>
      </trkpt>
      <trkpt lat="44.75525" lon="4.71249">
        <ele>110.12</ele>
        <time>2019-11-03T08:04:51.000Z</time>
      </trkpt>
      <trkpt lat="44.75532" lon="4.71263">
        <ele>110.21</ele>
        <time>2019-11-03T08:05:01.000Z</time>
      </trkpt>
      <trkpt lat="44.75541" lon="4.71277">
        <ele>110.25</ele>
        <time>2019-11-03T08:05:11.000Z</time>
      </trkpt>
      <trkpt lat="44.75547" lon="4.71292">
        <ele>110.14</ele>
        <time>2019-11-03T08:05:21.000Z</time>
      </trkpt>
      <trkpt lat="44.75555" lon="4.71306">
        <ele>109.94</ele>
        <time>2019-11-03T08:05:31.000Z</time>
      </trkpt>
      <trkpt lat="44.75563" lon="4.7132">
        <ele>109.61</ele>
        <time>2019-11-03T08:05:41.000Z</time>
      </trkpt>
      <trkpt lat="44.75573" lon="4.71334">
        <ele>109.16</ele>
        <time>2019-11-03T08:05:51.000Z</time>
      </trkpt>
      <trkpt lat="44.75584" lon="4.71347">
        <ele>108.53</ele>
        <time>2019-11-03T08:06:01.000Z</time>
      </trkpt>
      <trkpt lat="44.75595" lon="4.7136">
        <ele>107.92</ele>
        <time>2019-11-03T08:06:11.000Z</time>
      </trkpt>
      <trkpt lat="44.75606" lon="4.71373">
        <ele>107.6</ele>
        <time>2019-11-03T08:06:21.000Z</time>
      </trkpt>
      <trkpt lat="44.75608" lon="4.71388">
        <ele>107.17</ele>
        <time>2019-11-03T08:06:31.000Z</time>
      </trkpt>
      <trkpt lat="44.7561" lon="4.7141">
        <ele>106.87</ele>
        <time>2019-11-03T08:06:41.000Z</time>
      </trkpt>
      <trkpt lat="44.75617" lon="4.7143">
        <ele>107.25</ele>
        <time>2019-11-03T08:06:51.000Z</time>
      </trkpt>
      <trkpt lat="44.75628" lon="4.71441">
        <ele>107.8</ele>
        <time>2019-11-03T08:07:01.000Z</time>
      </trkpt>
      <trkpt lat="44.75638" lon="4.71455">
        <ele>108.22</ele>
        <time>2019-11-03T08:07:11.000Z</time>
      </trkpt>
      <trkpt lat="44.75646" lon="4.71469">
        <ele>108.33</ele>
        <time>2019-11-03T08:07:21.000Z</time>
      </trkpt>
      <trkpt lat="44.75658" lon="4.7148">
        <ele>108.29</ele>
        <time>2019-11-03T08:07:31.000Z</time>
      </trkpt>
      <trkpt lat="44.75669" lon="4.71494">
        <ele>108.04</ele>
        <time>2019-11-03T08:07:41.000Z</time>
      </trkpt>
      <trkpt lat="44.75679" lon="4.71508">
        <ele>107.92</ele>
        <time>2019-11-03T08:07:51.000Z</time>
      </trkpt>
      <trkpt lat="44.75688" lon="4.71519">
        <ele>107.95</ele>
        <time>2019-11-03T08:08:01.000Z</time>
      </trkpt>
      <trkpt lat="44.75699" lon="4.71531">
        <ele>108.06</ele>
        <time>2019-11-03T08:08:11.000Z</time>
      </trkpt>
      <trkpt lat="44.75712" lon="4.71545">
        <ele>108.21</ele>
        <time>2019-11-03T08:08:21.000Z</time>
      </trkpt>
      <trkpt lat="44.75722" lon="4.71561">
        <ele>108.18</ele>
        <time>2019-11-03T08:08:31.000Z</time>
      </trkpt>
      <trkpt lat="44.75732" lon="4.71574">
        <ele>108.09</ele>
        <time>2019-11-03T08:08:41.000Z</time>
      </trkpt>
      <trkpt lat="44.75742" lon="4.71586">
        <ele>107.95</ele>
        <time>2019-11-03T08:08:51.000Z</time>
      </trkpt>
      <trkpt lat="44.75751" lon="4.71598">
        <ele>107.75</ele>
        <time>2019-11-03T08:09:01.000Z</time>
      </trkpt>
      <trkpt lat="44.75755" lon="4.71614">
        <ele>107.5</ele>
        <time>2019-11-03T08:09:11.000Z</time>
      </trkpt>
      <trkpt lat="44.7576" lon="4.71631">
        <ele>107.27</ele>
        <time>2019-11-03T08:09:21.000Z</time>
      </trkpt>
      <trkpt lat="44.75766" lon="4.71648">
        <ele>107.08</ele>
        <time>2019-11-03T08:09:31.000Z</time>
      </trkpt>
      <trkpt lat="44.75773" lon="4.71669">
        <ele>106.89</ele>
        <time>2019-11-03T08:09:41.000Z</time>
      </trkpt>
      <trkpt lat="44.75784" lon="4.71685">
        <ele>106.76</ele>
        <time>2019-11-03T08:09:51.000Z</time>
      </trkpt>
      <trkpt lat="44.75793" lon="4.71699">
        <ele>106.61</ele>
        <time>2019-11-03T08:10:01.000Z</time>
      </trkpt>
      <trkpt lat="44.75801" lon="4.71715">
        <ele>106.35</ele>
        <time>2019-11-03T08:10:11.000Z</time>
      </trkpt>
      <trkpt lat="44.75811" lon="4.71727">
        <ele>106.21</ele>
        <time>2019-11-03T08:10:21.000Z</time>
      </trkpt>
      <trkpt lat="44.75826" lon="4.71727">
        <ele>106.41</ele>
        <time>2019-11-03T08:10:31.000Z</time>
      </trkpt>
      <trkpt lat="44.7584" lon="4.71717">
        <ele>106.88</ele>
        <time>2019-11-03T08:10:41.000Z</time>
      </trkpt>
      <trkpt lat="44.75853" lon="4.71721">
        <ele>107.07</ele>
        <time>2019-11-03T08:10:51.000Z</time>
      </trkpt>
      <trkpt lat="44.75863" lon="4.71733">
        <ele>107.13</ele>
        <time>2019-11-03T08:11:01.000Z</time>
      </trkpt>
      <trkpt lat="44.75869" lon="4.71749">
        <ele>107.14</ele>
        <time>2019-11-03T08:11:11.000Z</time>
      </trkpt>
      <trkpt lat="44.75876" lon="4.71763">
        <ele>107.17</ele>
        <time>2019-11-03T08:11:21.000Z</time>
      </trkpt>
      <trkpt lat="44.75886" lon="4.7178">
        <ele>107.26</ele>
        <time>2019-11-03T08:11:31.000Z</time>
      </trkpt>
      <trkpt lat="44.75897" lon="4.71796">
        <ele>107.36</ele>
        <time>2019-11-03T08:11:41.000Z</time>
      </trkpt>
      <trkpt lat="44.75907" lon="4.71813">
        <ele>107.27</ele>
        <time>2019-11-03T08:11:51.000Z</time>
      </trkpt>
      <trkpt lat="44.75919" lon="4.7183">
        <ele>107.11</ele>
        <time>2019-11-03T08:12:01.000Z</time>
      </trkpt>
      <trkpt lat="44.75929" lon="4.71846">
        <ele>106.8</ele>
        <time>2019-11-03T08:12:11.000Z</time>
      </trkpt>
      <trkpt lat="44.75939" lon="4.71856">
        <ele>106.53</ele>
        <time>2019-11-03T08:14:03.000Z</time>
      </trkpt>
      <trkpt lat="44.75953" lon="4.71866">
        <ele>106.25</ele>
        <time>2019-11-03T08:14:13.000Z</time>
      </trkpt>
      <trkpt lat="44.75965" lon="4.71875">
        <ele>106.11</ele>
        <time>2019-11-03T08:14:23.000Z</time>
      </trkpt>
      <trkpt lat="44.75978" lon="4.71886">
        <ele>106.04</ele>
        <time>2019-11-03T08:14:33.000Z</time>
      </trkpt>
      <trkpt lat="44.75989" lon="4.71899">
        <ele>106.07</ele>
        <time>2019-11-03T08:14:43.000Z</time>
      </trkpt>
      <trkpt lat="44.76002" lon="4.71912">
        <ele>106.25</ele>
        <time>2019-11-03T08:14:53.000Z</time>
      </trkpt>
      <trkpt lat="44.76015" lon="4.71926">
        <ele>106.37</ele>
        <time>2019-11-03T08:15:03.000Z</time>
      </trkpt>
      <trkpt lat="44.76027" lon="4.71938">
        <ele>106.47</ele>
        <time>2019-11-03T08:15:13.000Z</time>
      </trkpt>
      <trkpt lat="44.76041" lon="4.71945">
        <ele>107.02</ele>
        <time>2019-11-03T08:15:23.000Z</time>
      </trkpt>
      <trkpt lat="44.76049" lon="4.71958">
        <ele>107.03</ele>
        <time>2019-11-03T08:15:33.000Z</time>
      </trkpt>
      <trkpt lat="44.76048" lon="4.71975">
        <ele>106.12</ele>
        <time>2019-11-03T08:15:43.000Z</time>
      </trkpt>
      <trkpt lat="44.76051" lon="4.71993">
        <ele>105.7</ele>
        <time>2019-11-03T08:15:53.000Z</time>
      </trkpt>
      <trkpt lat="44.76057" lon="4.72013">
        <ele>105.56</ele>
        <time>2019-11-03T08:16:03.000Z</time>
      </trkpt>
      <trkpt lat="44.76067" lon="4.72028">
        <ele>105.78</ele>
        <time>2019-11-03T08:16:13.000Z</time>
      </trkpt>
      <trkpt lat="44.76071" lon="4.72045">
        <ele>105.51</ele>
        <time>2019-11-03T08:16:23.000Z</time>
      </trkpt>
      <trkpt lat="44.76081" lon="4.72061">
        <ele>105.48</ele>
        <time>2019-11-03T08:16:33.000Z</time>
      </trkpt>
      <trkpt lat="44.76091" lon="4.72077">
        <ele>105.42</ele>
        <time>2019-11-03T08:16:43.000Z</time>
      </trkpt>
      <trkpt lat="44.76095" lon="4.72091">
        <ele>105.29</ele>
        <time>2019-11-03T08:16:53.000Z</time>
      </trkpt>
      <trkpt lat="44.76099" lon="4.72094">
        <ele>105.42</ele>
        <time>2019-11-03T08:17:03.000Z</time>
      </trkpt>
      <trkpt lat="44.76106" lon="4.72092">
        <ele>105.77</ele>
        <time>2019-11-03T08:17:13.000Z</time>
      </trkpt>
      <trkpt lat="44.76118" lon="4.72097">
        <ele>106.33</ele>
        <time>2019-11-03T08:17:23.000Z</time>
      </trkpt>
      <trkpt lat="44.7613" lon="4.72097">
        <ele>107.02</ele>
        <time>2019-11-03T08:17:33.000Z</time>
      </trkpt>
      <trkpt lat="44.76141" lon="4.72095">
        <ele>107.63</ele>
        <time>2019-11-03T08:17:43.000Z</time>
      </trkpt>
      <trkpt lat="44.76153" lon="4.72095">
        <ele>108.23</ele>
        <time>2019-11-03T08:17:53.000Z</time>
      </trkpt>
      <trkpt lat="44.7617" lon="4.72091">
        <ele>108.9</ele>
        <time>2019-11-03T08:18:03.000Z</time>
      </trkpt>
      <trkpt lat="44.76184" lon="4.72087">
        <ele>109.32</ele>
        <time>2019-11-03T08:18:13.000Z</time>
      </trkpt>
      <trkpt lat="44.76198" lon="4.72086">
        <ele>109.56</ele>
        <time>2019-11-03T08:18:23.000Z</time>
      </trkpt>
      <trkpt lat="44.7621" lon="4.72088">
        <ele>109.67</ele>
        <time>2019-11-03T08:18:33.000Z</time>
      </trkpt>
      <trkpt lat="44.76224" lon="4.72088">
        <ele>109.81</ele>
        <time>2019-11-03T08:18:43.000Z</time>
      </trkpt>
      <trkpt lat="44.76238" lon="4.72088">
        <ele>109.94</ele>
        <time>2019-11-03T08:18:53.000Z</time>
      </trkpt>
      <trkpt lat="44.76251" lon="4.72087">
        <ele>110.09</ele>
        <time>2019-11-03T08:19:03.000Z</time>
      </trkpt>
      <trkpt lat="44.76264" lon="4.72086">
        <ele>110.2</ele>
        <time>2019-11-03T08:19:13.000Z</time>
      </trkpt>
      <trkpt lat="44.76279" lon="4.72085">
        <ele>110.33</ele>
        <time>2019-11-03T08:19:23.000Z</time>
      </trkpt>
      <trkpt lat="44.76292" lon="4.72084">
        <ele>110.41</ele>
        <time>2019-11-03T08:19:33.000Z</time>
      </trkpt>
      <trkpt lat="44.76306" lon="4.72089">
        <ele>110.76</ele>
        <time>2019-11-03T08:19:43.000Z</time>
      </trkpt>
      <trkpt lat="44.76321" lon="4.72094">
        <ele>111.32</ele>
        <time>2019-11-03T08:19:53.000Z</time>
      </trkpt>
      <trkpt lat="44.76333" lon="4.72103">
        <ele>112.17</ele>
        <time>2019-11-03T08:20:03.000Z</time>
      </trkpt>
      <trkpt lat="44.7633" lon="4.72122">
        <ele>113.79</ele>
        <time>2019-11-03T08:20:13.000Z</time>
      </trkpt>
      <trkpt lat="44.76321" lon="4.72136">
        <ele>115.1</ele>
        <time>2019-11-03T08:20:23.000Z</time>
      </trkpt>
      <trkpt lat="44.7633" lon="4.72149">
        <ele>117.11</ele>
        <time>2019-11-03T08:20:33.000Z</time>
      </trkpt>
      <trkpt lat="44.76343" lon="4.72158">
        <ele>118.74</ele>
        <time>2019-11-03T08:20:43.000Z</time>
      </trkpt>
      <trkpt lat="44.76358" lon="4.72157">
        <ele>118.85</ele>
        <time>2019-11-03T08:20:53.000Z</time>
      </trkpt>
      <trkpt lat="44.76373" lon="4.7215">
        <ele>118</ele>
        <time>2019-11-03T08:21:03.000Z</time>
      </trkpt>
      <trkpt lat="44.76386" lon="4.72148">
        <ele>117.88</ele>
        <time>2019-11-03T08:21:13.000Z</time>
      </trkpt>
      <trkpt lat="44.76398" lon="4.72143">
        <ele>117.54</ele>
        <time>2019-11-03T08:21:23.000Z</time>
      </trkpt>
      <trkpt lat="44.76409" lon="4.72143">
        <ele>117.92</ele>
        <time>2019-11-03T08:21:33.000Z</time>
      </trkpt>
      <trkpt lat="44.76425" lon="4.72135">
        <ele>117.6</ele>
        <time>2019-11-03T08:21:43.000Z</time>
      </trkpt>
      <trkpt lat="44.76441" lon="4.72134">
        <ele>118.34</ele>
        <time>2019-11-03T08:21:53.000Z</time>
      </trkpt>
      <trkpt lat="44.76455" lon="4.7213">
        <ele>118.59</ele>
        <time>2019-11-03T08:22:03.000Z</time>
      </trkpt>
      <trkpt lat="44.76465" lon="4.72128">
        <ele>118.84</ele>
        <time>2019-11-03T08:22:13.000Z</time>
      </trkpt>
      <trkpt lat="44.7648" lon="4.72128">
        <ele>119.6</ele>
        <time>2019-11-03T08:22:23.000Z</time>
      </trkpt>
      <trkpt lat="44.76496" lon="4.72129">
        <ele>120.31</ele>
        <time>2019-11-03T08:22:33.000Z</time>
      </trkpt>
      <trkpt lat="44.76512" lon="4.72132">
        <ele>121.21</ele>
        <time>2019-11-03T08:22:43.000Z</time>
      </trkpt>
      <trkpt lat="44.76524" lon="4.72134">
        <ele>121.7</ele>
        <time>2019-11-03T08:22:53.000Z</time>
      </trkpt>
      <trkpt lat="44.76537" lon="4.7214">
        <ele>122.8</ele>
        <time>2019-11-03T08:23:03.000Z</time>
      </trkpt>
      <trkpt lat="44.76551" lon="4.72146">
        <ele>123.84</ele>
        <time>2019-11-03T08:23:13.000Z</time>
      </trkpt>
      <trkpt lat="44.76563" lon="4.72149">
        <ele>124.4</ele>
        <time>2019-11-03T08:23:23.000Z</time>
      </trkpt>
      <trkpt lat="44.76578" lon="4.72149">
        <ele>124.24</ele>
        <time>2019-11-03T08:23:33.000Z</time>
      </trkpt>
      <trkpt lat="44.76592" lon="4.72145">
        <ele>123.5</ele>
        <time>2019-11-03T08:23:43.000Z</time>
      </trkpt>
      <trkpt lat="44.76606" lon="4.7214">
        <ele>122.62</ele>
        <time>2019-11-03T08:23:53.000Z</time>
      </trkpt>
      <trkpt lat="44.7662" lon="4.72133">
        <ele>121.63</ele>
        <time>2019-11-03T08:24:03.000Z</time>
      </trkpt>
      <trkpt lat="44.76633" lon="4.72122">
        <ele>120.46</ele>
        <time>2019-11-03T08:24:13.000Z</time>
      </trkpt>
      <trkpt lat="44.76642" lon="4.72104">
        <ele>119.12</ele>
        <time>2019-11-03T08:24:23.000Z</time>
      </trkpt>
      <trkpt lat="44.76652" lon="4.72089">
        <ele>118.66</ele>
        <time>2019-11-03T08:24:33.000Z</time>
      </trkpt>
      <trkpt lat="44.76662" lon="4.72073">
        <ele>118.8</ele>
        <time>2019-11-03T08:24:43.000Z</time>
      </trkpt>
      <trkpt lat="44.76671" lon="4.72057">
        <ele>119.66</ele>
        <time>2019-11-03T08:24:53.000Z</time>
      </trkpt>
      <trkpt lat="44.7668" lon="4.72047">
        <ele>120.68</ele>
        <time>2019-11-03T08:25:03.000Z</time>
      </trkpt>
      <trkpt lat="44.76687" lon="4.72036">
        <ele>121.83</ele>
        <time>2019-11-03T08:25:13.000Z</time>
      </trkpt>
      <trkpt lat="44.76693" lon="4.72024">
        <ele>123.1</ele>
        <time>2019-11-03T08:25:23.000Z</time>
      </trkpt>
      <trkpt lat="44.76701" lon="4.72014">
        <ele>124.27</ele>
        <time>2019-11-03T08:25:33.000Z</time>
      </trkpt>
      <trkpt lat="44.76709" lon="4.72005">
        <ele>125.4</ele>
        <time>2019-11-03T08:25:43.000Z</time>
      </trkpt>
      <trkpt lat="44.76717" lon="4.71997">
        <ele>126.3</ele>
        <time>2019-11-03T08:25:53.000Z</time>
      </trkpt>
      <trkpt lat="44.76725" lon="4.71987">
        <ele>127.19</ele>
        <time>2019-11-03T08:26:03.000Z</time>
      </trkpt>
      <trkpt lat="44.76736" lon="4.71982">
        <ele>127.94</ele>
        <time>2019-11-03T08:26:13.000Z</time>
      </trkpt>
      <trkpt lat="44.76747" lon="4.71982">
        <ele>128.53</ele>
        <time>2019-11-03T08:26:23.000Z</time>
      </trkpt>
      <trkpt lat="44.76756" lon="4.71984">
        <ele>128.98</ele>
        <time>2019-11-03T08:26:33.000Z</time>
      </trkpt>
      <trkpt lat="44.76766" lon="4.71994">
        <ele>129.29</ele>
        <time>2019-11-03T08:26:43.000Z</time>
      </trkpt>
      <trkpt lat="44.76778" lon="4.7199">
        <ele>130.27</ele>
        <time>2019-11-03T08:26:53.000Z</time>
      </trkpt>
      <trkpt lat="44.76782" lon="4.71975">
        <ele>131.27</ele>
        <time>2019-11-03T08:27:03.000Z</time>
      </trkpt>
      <trkpt lat="44.76789" lon="4.71961">
        <ele>132.56</ele>
        <time>2019-11-03T08:27:13.000Z</time>
      </trkpt>
      <trkpt lat="44.76799" lon="4.71953">
        <ele>134.14</ele>
        <time>2019-11-03T08:27:23.000Z</time>
      </trkpt>
      <trkpt lat="44.76808" lon="4.71941">
        <ele>135.87</ele>
        <time>2019-11-03T08:27:33.000Z</time>
      </trkpt>
      <trkpt lat="44.76819" lon="4.71933">
        <ele>137.69</ele>
        <time>2019-11-03T08:27:43.000Z</time>
      </trkpt>
      <trkpt lat="44.76829" lon="4.71923">
        <ele>139.29</ele>
        <time>2019-11-03T08:27:53.000Z</time>
      </trkpt>
      <trkpt lat="44.76841" lon="4.71918">
        <ele>140.65</ele>
        <time>2019-11-03T08:28:03.000Z</time>
      </trkpt>
      <trkpt lat="44.76851" lon="4.71914">
        <ele>141.63</ele>
        <time>2019-11-03T08:28:13.000Z</time>
      </trkpt>
      <trkpt lat="44.76864" lon="4.7191">
        <ele>142.78</ele>
        <time>2019-11-03T08:28:23.000Z</time>
      </trkpt>
      <trkpt lat="44.76875" lon="4.71902">
        <ele>143.9</ele>
        <time>2019-11-03T08:28:33.000Z</time>
      </trkpt>
      <trkpt lat="44.76887" lon="4.71893">
        <ele>145.13</ele>
        <time>2019-11-03T08:28:43.000Z</time>
      </trkpt>
      <trkpt lat="44.76897" lon="4.71884">
        <ele>146.41</ele>
        <time>2019-11-03T08:28:53.000Z</time>
      </trkpt>
      <trkpt lat="44.76909" lon="4.71876">
        <ele>147.89</ele>
        <time>2019-11-03T08:29:03.000Z</time>
      </trkpt>
      <trkpt lat="44.7692" lon="4.71864">
        <ele>149.55</ele>
        <time>2019-11-03T08:29:13.000Z</time>
      </trkpt>
      <trkpt lat="44.76932" lon="4.71854">
        <ele>151.2</ele>
        <time>2019-11-03T08:29:23.000Z</time>
      </trkpt>
      <trkpt lat="44.76942" lon="4.71844">
        <ele>152.66</ele>
        <time>2019-11-03T08:29:33.000Z</time>
      </trkpt>
      <trkpt lat="44.76952" lon="4.71832">
        <ele>154.11</ele>
        <time>2019-11-03T08:29:43.000Z</time>
      </trkpt>
      <trkpt lat="44.76966" lon="4.71828">
        <ele>155.31</ele>
        <time>2019-11-03T08:29:53.000Z</time>
      </trkpt>
      <trkpt lat="44.76977" lon="4.71821">
        <ele>156.39</ele>
        <time>2019-11-03T08:30:03.000Z</time>
      </trkpt>
      <trkpt lat="44.76985" lon="4.71815">
        <ele>157.14</ele>
        <time>2019-11-03T08:30:13.000Z</time>
      </trkpt>
      <trkpt lat="44.76997" lon="4.71806">
        <ele>158.23</ele>
        <time>2019-11-03T08:30:23.000Z</time>
      </trkpt>
      <trkpt lat="44.7701" lon="4.71796">
        <ele>159.3</ele>
        <time>2019-11-03T08:30:33.000Z</time>
      </trkpt>
      <trkpt lat="44.77021" lon="4.71786">
        <ele>160.21</ele>
        <time>2019-11-03T08:30:43.000Z</time>
      </trkpt>
      <trkpt lat="44.77035" lon="4.71779">
        <ele>161.19</ele>
        <time>2019-11-03T08:30:53.000Z</time>
      </trkpt>
      <trkpt lat="44.77047" lon="4.71773">
        <ele>162.03</ele>
        <time>2019-11-03T08:31:03.000Z</time>
      </trkpt>
      <trkpt lat="44.77061" lon="4.71764">
        <ele>163.12</ele>
        <time>2019-11-03T08:31:13.000Z</time>
      </trkpt>
      <trkpt lat="44.77074" lon="4.71758">
        <ele>164.11</ele>
        <time>2019-11-03T08:31:23.000Z</time>
      </trkpt>
      <trkpt lat="44.77085" lon="4.71751">
        <ele>165.07</ele>
        <time>2019-11-03T08:31:33.000Z</time>
      </trkpt>
      <trkpt lat="44.77098" lon="4.71744">
        <ele>166.07</ele>
        <time>2019-11-03T08:31:43.000Z</time>
      </trkpt>
      <trkpt lat="44.7711" lon="4.71737">
        <ele>166.92</ele>
        <time>2019-11-03T08:31:53.000Z</time>
      </trkpt>
      <trkpt lat="44.77122" lon="4.71729">
        <ele>167.88</ele>
        <time>2019-11-03T08:32:03.000Z</time>
      </trkpt>
      <trkpt lat="44.7713" lon="4.71711">
        <ele>168.96</ele>
        <time>2019-11-03T08:32:13.000Z</time>
      </trkpt>
      <trkpt lat="44.7713" lon="4.71694">
        <ele>169.62</ele>
        <time>2019-11-03T08:32:23.000Z</time>
      </trkpt>
      <trkpt lat="44.7713" lon="4.71673">
        <ele>170.43</ele>
        <time>2019-11-03T08:32:33.000Z</time>
      </trkpt>
      <trkpt lat="44.77131" lon="4.71653">
        <ele>171.41</ele>
        <time>2019-11-03T08:32:43.000Z</time>
      </trkpt>
      <trkpt lat="44.77141" lon="4.71638">
        <ele>172.76</ele>
        <time>2019-11-03T08:32:53.000Z</time>
      </trkpt>
      <trkpt lat="44.77147" lon="4.71629">
        <ele>173.57</ele>
        <time>2019-11-03T08:33:03.000Z</time>
      </trkpt>
      <trkpt lat="44.77158" lon="4.71619">
        <ele>174.73</ele>
        <time>2019-11-03T08:33:13.000Z</time>
      </trkpt>
      <trkpt lat="44.77168" lon="4.71609">
        <ele>175.88</ele>
        <time>2019-11-03T08:33:23.000Z</time>
      </trkpt>
      <trkpt lat="44.77177" lon="4.71596">
        <ele>177.09</ele>
        <time>2019-11-03T08:33:33.000Z</time>
      </trkpt>
      <trkpt lat="44.77187" lon="4.71582">
        <ele>178.45</ele>
        <time>2019-11-03T08:33:43.000Z</time>
      </trkpt>
      <trkpt lat="44.77196" lon="4.71569">
        <ele>179.78</ele>
        <time>2019-11-03T08:33:53.000Z</time>
      </trkpt>
      <trkpt lat="44.77207" lon="4.71558">
        <ele>181.11</ele>
        <time>2019-11-03T08:34:03.000Z</time>
      </trkpt>
      <trkpt lat="44.77215" lon="4.71548">
        <ele>182.22</ele>
        <time>2019-11-03T08:34:13.000Z</time>
      </trkpt>
      <trkpt lat="44.77224" lon="4.71537">
        <ele>183.43</ele>
        <time>2019-11-03T08:34:23.000Z</time>
      </trkpt>
      <trkpt lat="44.77235" lon="4.71529">
        <ele>184.64</ele>
        <time>2019-11-03T08:34:33.000Z</time>
      </trkpt>
      <trkpt lat="44.77246" lon="4.71521">
        <ele>185.85</ele>
        <time>2019-11-03T08:34:43.000Z</time>
      </trkpt>
      <trkpt lat="44.77258" lon="4.7151">
        <ele>187.28</ele>
        <time>2019-11-03T08:34:53.000Z</time>
      </trkpt>
      <trkpt lat="44.77267" lon="4.71498">
        <ele>188.56</ele>
        <time>2019-11-03T08:35:03.000Z</time>
      </trkpt>
      <trkpt lat="44.77278" lon="4.71491">
        <ele>189.8</ele>
        <time>2019-11-03T08:35:13.000Z</time>
      </trkpt>
      <trkpt lat="44.77288" lon="4.7148">
        <ele>191.08</ele>
        <time>2019-11-03T08:35:23.000Z</time>
      </trkpt>
      <trkpt lat="44.77298" lon="4.71471">
        <ele>192.45</ele>
        <time>2019-11-03T08:35:33.000Z</time>
      </trkpt>
      <trkpt lat="44.77307" lon="4.71461">
        <ele>193.75</ele>
        <time>2019-11-03T08:35:43.000Z</time>
      </trkpt>
      <trkpt lat="44.773" lon="4.71444">
        <ele>193.41</ele>
        <time>2019-11-03T08:35:53.000Z</time>
      </trkpt>
      <trkpt lat="44.77293" lon="4.71428">
        <ele>192.88</ele>
        <time>2019-11-03T08:36:03.000Z</time>
      </trkpt>
      <trkpt lat="44.77287" lon="4.71408">
        <ele>192.2</ele>
        <time>2019-11-03T08:36:13.000Z</time>
      </trkpt>
      <trkpt lat="44.77282" lon="4.71396">
        <ele>191.48</ele>
        <time>2019-11-03T08:36:23.000Z</time>
      </trkpt>
      <trkpt lat="44.77276" lon="4.71382">
        <ele>190.44</ele>
        <time>2019-11-03T08:36:33.000Z</time>
      </trkpt>
      <trkpt lat="44.7727" lon="4.71365">
        <ele>189.4</ele>
        <time>2019-11-03T08:36:43.000Z</time>
      </trkpt>
      <trkpt lat="44.77262" lon="4.7135">
        <ele>188.26</ele>
        <time>2019-11-03T08:36:53.000Z</time>
      </trkpt>
      <trkpt lat="44.77254" lon="4.71334">
        <ele>187.37</ele>
        <time>2019-11-03T08:37:03.000Z</time>
      </trkpt>
      <trkpt lat="44.77243" lon="4.7132">
        <ele>186.48</ele>
        <time>2019-11-03T08:37:13.000Z</time>
      </trkpt>
      <trkpt lat="44.77239" lon="4.71302">
        <ele>186.45</ele>
        <time>2019-11-03T08:37:23.000Z</time>
      </trkpt>
      <trkpt lat="44.7724" lon="4.71291">
        <ele>186.85</ele>
        <time>2019-11-03T08:37:33.000Z</time>
      </trkpt>
      <trkpt lat="44.77245" lon="4.71276">
        <ele>187.93</ele>
        <time>2019-11-03T08:37:43.000Z</time>
      </trkpt>
      <trkpt lat="44.77248" lon="4.71262">
        <ele>188.97</ele>
        <time>2019-11-03T08:37:53.000Z</time>
      </trkpt>
      <trkpt lat="44.77249" lon="4.71245">
        <ele>190.31</ele>
        <time>2019-11-03T08:38:03.000Z</time>
      </trkpt>
      <trkpt lat="44.77251" lon="4.71233">
        <ele>191.71</ele>
        <time>2019-11-03T08:38:13.000Z</time>
      </trkpt>
      <trkpt lat="44.77256" lon="4.71219">
        <ele>193.75</ele>
        <time>2019-11-03T08:38:23.000Z</time>
      </trkpt>
      <trkpt lat="44.7726" lon="4.71203">
        <ele>196.26</ele>
        <time>2019-11-03T08:38:33.000Z</time>
      </trkpt>
      <trkpt lat="44.77268" lon="4.71191">
        <ele>198.99</ele>
        <time>2019-11-03T08:38:43.000Z</time>
      </trkpt>
      <trkpt lat="44.77275" lon="4.71179">
        <ele>201.62</ele>
        <time>2019-11-03T08:38:53.000Z</time>
      </trkpt>
      <trkpt lat="44.77278" lon="4.71167">
        <ele>203.85</ele>
        <time>2019-11-03T08:39:03.000Z</time>
      </trkpt>
      <trkpt lat="44.77272" lon="4.71151">
        <ele>205.27</ele>
        <time>2019-11-03T08:39:13.000Z</time>
      </trkpt>
      <trkpt lat="44.77264" lon="4.71139">
        <ele>205.93</ele>
        <time>2019-11-03T08:39:23.000Z</time>
      </trkpt>
      <trkpt lat="44.77256" lon="4.71122">
        <ele>207.35</ele>
        <time>2019-11-03T08:39:33.000Z</time>
      </trkpt>
      <trkpt lat="44.77244" lon="4.71113">
        <ele>206.98</ele>
        <time>2019-11-03T08:39:43.000Z</time>
      </trkpt>
      <trkpt lat="44.77235" lon="4.71103">
        <ele>207.05</ele>
        <time>2019-11-03T08:39:53.000Z</time>
      </trkpt>
      <trkpt lat="44.7722" lon="4.71093">
        <ele>206.2</ele>
        <time>2019-11-03T08:40:05.000Z</time>
      </trkpt>
      <trkpt lat="44.77211" lon="4.71081">
        <ele>206.28</ele>
        <time>2019-11-03T08:42:23.000Z</time>
      </trkpt>
      <trkpt lat="44.77211" lon="4.71064">
        <ele>207.96</ele>
        <time>2019-11-03T08:42:33.000Z</time>
      </trkpt>
      <trkpt lat="44.77211" lon="4.71045">
        <ele>209.65</ele>
        <time>2019-11-03T08:42:43.000Z</time>
      </trkpt>
      <trkpt lat="44.77204" lon="4.71031">
        <ele>209.84</ele>
        <time>2019-11-03T08:42:53.000Z</time>
      </trkpt>
      <trkpt lat="44.77191" lon="4.71022">
        <ele>209.14</ele>
        <time>2019-11-03T08:43:03.000Z</time>
      </trkpt>
      <trkpt lat="44.77185" lon="4.7101">
        <ele>209.68</ele>
        <time>2019-11-03T08:43:13.000Z</time>
      </trkpt>
      <trkpt lat="44.7718" lon="4.70996">
        <ele>210.87</ele>
        <time>2019-11-03T08:43:23.000Z</time>
      </trkpt>
      <trkpt lat="44.77172" lon="4.70983">
        <ele>211.75</ele>
        <time>2019-11-03T08:43:33.000Z</time>
      </trkpt>
      <trkpt lat="44.77167" lon="4.7097">
        <ele>212.83</ele>
        <time>2019-11-03T08:43:43.000Z</time>
      </trkpt>
      <trkpt lat="44.77162" lon="4.7096">
        <ele>213.69</ele>
        <time>2019-11-03T08:43:55.000Z</time>
      </trkpt>
      <trkpt lat="44.77166" lon="4.70947">
        <ele>215.99</ele>
        <time>2019-11-03T08:44:05.000Z</time>
      </trkpt>
      <trkpt lat="44.77171" lon="4.70937">
        <ele>218.07</ele>
        <time>2019-11-03T08:44:15.000Z</time>
      </trkpt>
      <trkpt lat="44.77177" lon="4.70927">
        <ele>220.39</ele>
        <time>2019-11-03T08:44:25.000Z</time>
      </trkpt>
      <trkpt lat="44.77185" lon="4.70924">
        <ele>222.31</ele>
        <time>2019-11-03T08:44:35.000Z</time>
      </trkpt>
      <trkpt lat="44.77191" lon="4.70913">
        <ele>225.14</ele>
        <time>2019-11-03T08:44:45.000Z</time>
      </trkpt>
      <trkpt lat="44.77196" lon="4.70903">
        <ele>227.85</ele>
        <time>2019-11-03T08:44:55.000Z</time>
      </trkpt>
      <trkpt lat="44.77199" lon="4.70896">
        <ele>229.61</ele>
        <time>2019-11-03T08:45:05.000Z</time>
      </trkpt>
      <trkpt lat="44.77203" lon="4.709">
        <ele>230.03</ele>
        <time>2019-11-03T08:45:15.000Z</time>
      </trkpt>
      <trkpt lat="44.77207" lon="4.70896">
        <ele>231.69</ele>
        <time>2019-11-03T08:45:25.000Z</time>
      </trkpt>
      <trkpt lat="44.77215" lon="4.70897">
        <ele>233.42</ele>
        <time>2019-11-03T08:45:35.000Z</time>
      </trkpt>
      <trkpt lat="44.77222" lon="4.70902">
        <ele>234.22</ele>
        <time>2019-11-03T08:45:45.000Z</time>
      </trkpt>
      <trkpt lat="44.7723" lon="4.70909">
        <ele>234.89</ele>
        <time>2019-11-03T08:45:55.000Z</time>
      </trkpt>
      <trkpt lat="44.77237" lon="4.70912">
        <ele>235.69</ele>
        <time>2019-11-03T08:46:05.000Z</time>
      </trkpt>
      <trkpt lat="44.77243" lon="4.70903">
        <ele>239.39</ele>
        <time>2019-11-03T08:46:15.000Z</time>
      </trkpt>
      <trkpt lat="44.77237" lon="4.70893">
        <ele>240.39</ele>
        <time>2019-11-03T08:46:25.000Z</time>
      </trkpt>
      <trkpt lat="44.7723" lon="4.70884">
        <ele>240.23</ele>
        <time>2019-11-03T08:46:36.000Z</time>
      </trkpt>
      <trkpt lat="44.77225" lon="4.70873">
        <ele>241.32</ele>
        <time>2019-11-03T08:46:46.000Z</time>
      </trkpt>
      <trkpt lat="44.77221" lon="4.70867">
        <ele>241.55</ele>
        <time>2019-11-03T08:46:56.000Z</time>
      </trkpt>
      <trkpt lat="44.77221" lon="4.70853">
        <ele>244.11</ele>
        <time>2019-11-03T08:47:06.000Z</time>
      </trkpt>
      <trkpt lat="44.77223" lon="4.70841">
        <ele>247.16</ele>
        <time>2019-11-03T08:47:30.000Z</time>
      </trkpt>
      <trkpt lat="44.77226" lon="4.70827">
        <ele>250.18</ele>
        <time>2019-11-03T08:47:40.000Z</time>
      </trkpt>
      <trkpt lat="44.77228" lon="4.70814">
        <ele>252.49</ele>
        <time>2019-11-03T08:47:50.000Z</time>
      </trkpt>
      <trkpt lat="44.77231" lon="4.70805">
        <ele>254.22</ele>
        <time>2019-11-03T08:48:00.000Z</time>
      </trkpt>
      <trkpt lat="44.77232" lon="4.70793">
        <ele>255.67</ele>
        <time>2019-11-03T08:48:10.000Z</time>
      </trkpt>
      <trkpt lat="44.77234" lon="4.70782">
        <ele>257</ele>
        <time>2019-11-03T08:48:20.000Z</time>
      </trkpt>
      <trkpt lat="44.77239" lon="4.70776">
        <ele>259.15</ele>
        <time>2019-11-03T08:48:30.000Z</time>
      </trkpt>
      <trkpt lat="44.77243" lon="4.70765">
        <ele>261.15</ele>
        <time>2019-11-03T08:48:40.000Z</time>
      </trkpt>
      <trkpt lat="44.77249" lon="4.7076">
        <ele>263.7</ele>
        <time>2019-11-03T08:48:50.000Z</time>
      </trkpt>
      <trkpt lat="44.77252" lon="4.70745">
        <ele>266.23</ele>
        <time>2019-11-03T08:49:00.000Z</time>
      </trkpt>
      <trkpt lat="44.77258" lon="4.7074">
        <ele>268.67</ele>
        <time>2019-11-03T08:49:10.000Z</time>
      </trkpt>
      <trkpt lat="44.7726" lon="4.70723">
        <ele>270.61</ele>
        <time>2019-11-03T08:49:20.000Z</time>
      </trkpt>
      <trkpt lat="44.77261" lon="4.70705">
        <ele>271.78</ele>
        <time>2019-11-03T08:49:30.000Z</time>
      </trkpt>
      <trkpt lat="44.77256" lon="4.70692">
        <ele>271.21</ele>
        <time>2019-11-03T08:49:40.000Z</time>
      </trkpt>
      <trkpt lat="44.77253" lon="4.70686">
        <ele>271.18</ele>
        <time>2019-11-03T08:49:50.000Z</time>
      </trkpt>
      <trkpt lat="44.77242" lon="4.70682">
        <ele>268.61</ele>
        <time>2019-11-03T08:50:00.000Z</time>
      </trkpt>
      <trkpt lat="44.77235" lon="4.70677">
        <ele>267.71</ele>
        <time>2019-11-03T08:50:10.000Z</time>
      </trkpt>
      <trkpt lat="44.77229" lon="4.70673">
        <ele>267.3</ele>
        <time>2019-11-03T08:50:20.000Z</time>
      </trkpt>
      <trkpt lat="44.77226" lon="4.70669">
        <ele>267.54</ele>
        <time>2019-11-03T08:50:30.000Z</time>
      </trkpt>
      <trkpt lat="44.7722" lon="4.70663">
        <ele>267.54</ele>
        <time>2019-11-03T08:50:40.000Z</time>
      </trkpt>
      <trkpt lat="44.77214" lon="4.70657">
        <ele>268.01</ele>
        <time>2019-11-03T08:50:50.000Z</time>
      </trkpt>
      <trkpt lat="44.77209" lon="4.70652">
        <ele>268.43</ele>
        <time>2019-11-03T08:51:00.000Z</time>
      </trkpt>
      <trkpt lat="44.77203" lon="4.70644">
        <ele>269.59</ele>
        <time>2019-11-03T08:51:10.000Z</time>
      </trkpt>
      <trkpt lat="44.77198" lon="4.70638">
        <ele>270.45</ele>
        <time>2019-11-03T08:51:20.000Z</time>
      </trkpt>
      <trkpt lat="44.77195" lon="4.70631">
        <ele>271.89</ele>
        <time>2019-11-03T08:51:30.000Z</time>
      </trkpt>
      <trkpt lat="44.77189" lon="4.70628">
        <ele>272.06</ele>
        <time>2019-11-03T08:51:40.000Z</time>
      </trkpt>
      <trkpt lat="44.7718" lon="4.70621">
        <ele>272.17</ele>
        <time>2019-11-03T08:51:50.000Z</time>
      </trkpt>
      <trkpt lat="44.77174" lon="4.70613">
        <ele>273.1</ele>
        <time>2019-11-03T08:52:00.000Z</time>
      </trkpt>
      <trkpt lat="44.77171" lon="4.70601">
        <ele>275.09</ele>
        <time>2019-11-03T08:52:10.000Z</time>
      </trkpt>
      <trkpt lat="44.77166" lon="4.70592">
        <ele>275.46</ele>
        <time>2019-11-03T08:52:20.000Z</time>
      </trkpt>
      <trkpt lat="44.77164" lon="4.70583">
        <ele>276.23</ele>
        <time>2019-11-03T08:52:30.000Z</time>
      </trkpt>
      <trkpt lat="44.77159" lon="4.70574">
        <ele>276.02</ele>
        <time>2019-11-03T08:52:40.000Z</time>
      </trkpt>
      <trkpt lat="44.77157" lon="4.70565">
        <ele>276.18</ele>
        <time>2019-11-03T08:52:50.000Z</time>
      </trkpt>
      <trkpt lat="44.77154" lon="4.70554">
        <ele>276.26</ele>
        <time>2019-11-03T08:53:00.000Z</time>
      </trkpt>
      <trkpt lat="44.77155" lon="4.70545">
        <ele>276.99</ele>
        <time>2019-11-03T08:53:10.000Z</time>
      </trkpt>
      <trkpt lat="44.7716" lon="4.70535">
        <ele>278.75</ele>
        <time>2019-11-03T08:53:20.000Z</time>
      </trkpt>
      <trkpt lat="44.77165" lon="4.70527">
        <ele>280.23</ele>
        <time>2019-11-03T08:53:30.000Z</time>
      </trkpt>
      <trkpt lat="44.77172" lon="4.70519">
        <ele>282.06</ele>
        <time>2019-11-03T08:53:40.000Z</time>
      </trkpt>
      <trkpt lat="44.7718" lon="4.70514">
        <ele>284.46</ele>
        <time>2019-11-03T08:53:50.000Z</time>
      </trkpt>
      <trkpt lat="44.77187" lon="4.70506">
        <ele>286.71</ele>
        <time>2019-11-03T08:54:00.000Z</time>
      </trkpt>
      <trkpt lat="44.77194" lon="4.70489">
        <ele>287.18</ele>
        <time>2019-11-03T08:54:10.000Z</time>
      </trkpt>
      <trkpt lat="44.77206" lon="4.70483">
        <ele>291.55</ele>
        <time>2019-11-03T08:54:20.000Z</time>
      </trkpt>
      <trkpt lat="44.77215" lon="4.70476">
        <ele>293.97</ele>
        <time>2019-11-03T08:54:30.000Z</time>
      </trkpt>
      <trkpt lat="44.77223" lon="4.70466">
        <ele>295.67</ele>
        <time>2019-11-03T08:55:00.000Z</time>
      </trkpt>
      <trkpt lat="44.7723" lon="4.70456">
        <ele>296.91</ele>
        <time>2019-11-03T08:55:10.000Z</time>
      </trkpt>
      <trkpt lat="44.77236" lon="4.70445">
        <ele>297.16</ele>
        <time>2019-11-03T08:55:20.000Z</time>
      </trkpt>
      <trkpt lat="44.77243" lon="4.7043">
        <ele>296.44</ele>
        <time>2019-11-03T08:55:30.000Z</time>
      </trkpt>
      <trkpt lat="44.7725" lon="4.70417">
        <ele>297.07</ele>
        <time>2019-11-03T08:55:40.000Z</time>
      </trkpt>
      <trkpt lat="44.77258" lon="4.70411">
        <ele>299.72</ele>
        <time>2019-11-03T08:55:50.000Z</time>
      </trkpt>
      <trkpt lat="44.77263" lon="4.70398">
        <ele>298.79</ele>
        <time>2019-11-03T08:56:00.000Z</time>
      </trkpt>
      <trkpt lat="44.77269" lon="4.70391">
        <ele>299.76</ele>
        <time>2019-11-03T08:56:10.000Z</time>
      </trkpt>
      <trkpt lat="44.77278" lon="4.70378">
        <ele>300.18</ele>
        <time>2019-11-03T08:56:20.000Z</time>
      </trkpt>
      <trkpt lat="44.77289" lon="4.70374">
        <ele>304.25</ele>
        <time>2019-11-03T08:56:30.000Z</time>
      </trkpt>
      <trkpt lat="44.77297" lon="4.7037">
        <ele>306.82</ele>
        <time>2019-11-03T08:56:40.000Z</time>
      </trkpt>
      <trkpt lat="44.77303" lon="4.7037">
        <ele>309.62</ele>
        <time>2019-11-03T08:56:50.000Z</time>
      </trkpt>
      <trkpt lat="44.77314" lon="4.7037">
        <ele>314.44</ele>
        <time>2019-11-03T08:57:00.000Z</time>
      </trkpt>
      <trkpt lat="44.77327" lon="4.70367">
        <ele>319.39</ele>
        <time>2019-11-03T08:57:10.000Z</time>
      </trkpt>
      <trkpt lat="44.77332" lon="4.70352">
        <ele>317.26</ele>
        <time>2019-11-03T08:57:20.000Z</time>
      </trkpt>
      <trkpt lat="44.77337" lon="4.70345">
        <ele>317.75</ele>
        <time>2019-11-03T08:57:30.000Z</time>
      </trkpt>
      <trkpt lat="44.77341" lon="4.70341">
        <ele>318.76</ele>
        <time>2019-11-03T08:57:40.000Z</time>
      </trkpt>
      <trkpt lat="44.77343" lon="4.70333">
        <ele>318.11</ele>
        <time>2019-11-03T08:57:50.000Z</time>
      </trkpt>
      <trkpt lat="44.77343" lon="4.70327">
        <ele>316.53</ele>
        <time>2019-11-03T08:58:00.000Z</time>
      </trkpt>
      <trkpt lat="44.77346" lon="4.7031">
        <ele>315.05</ele>
        <time>2019-11-03T08:58:10.000Z</time>
      </trkpt>
      <trkpt lat="44.77348" lon="4.703">
        <ele>313.81</ele>
        <time>2019-11-03T08:58:20.000Z</time>
      </trkpt>
      <trkpt lat="44.77349" lon="4.70285">
        <ele>311.69</ele>
        <time>2019-11-03T08:58:30.000Z</time>
      </trkpt>
      <trkpt lat="44.77356" lon="4.70277">
        <ele>313.56</ele>
        <time>2019-11-03T08:58:40.000Z</time>
      </trkpt>
      <trkpt lat="44.77366" lon="4.70272">
        <ele>317.39</ele>
        <time>2019-11-03T08:58:50.000Z</time>
      </trkpt>
      <trkpt lat="44.77376" lon="4.70266">
        <ele>320.25</ele>
        <time>2019-11-03T08:59:00.000Z</time>
      </trkpt>
      <trkpt lat="44.77382" lon="4.70257">
        <ele>321.47</ele>
        <time>2019-11-03T08:59:10.000Z</time>
      </trkpt>
      <trkpt lat="44.77394" lon="4.70252">
        <ele>325.84</ele>
        <time>2019-11-03T08:59:20.000Z</time>
      </trkpt>
      <trkpt lat="44.77405" lon="4.70242">
        <ele>329.28</ele>
        <time>2019-11-03T08:59:30.000Z</time>
      </trkpt>
      <trkpt lat="44.77412" lon="4.7023">
        <ele>331.74</ele>
        <time>2019-11-03T08:59:40.000Z</time>
      </trkpt>
      <trkpt lat="44.77414" lon="4.7021">
        <ele>331.41</ele>
        <time>2019-11-03T08:59:50.000Z</time>
      </trkpt>
      <trkpt lat="44.77411" lon="4.70196">
        <ele>329.71</ele>
        <time>2019-11-03T09:00:00.000Z</time>
      </trkpt>
      <trkpt lat="44.77409" lon="4.70182">
        <ele>327.69</ele>
        <time>2019-11-03T09:00:10.000Z</time>
      </trkpt>
      <trkpt lat="44.7741" lon="4.70165">
        <ele>325.41</ele>
        <time>2019-11-03T09:00:20.000Z</time>
      </trkpt>
      <trkpt lat="44.77411" lon="4.70151">
        <ele>323.04</ele>
        <time>2019-11-03T09:00:30.000Z</time>
      </trkpt>
      <trkpt lat="44.77417" lon="4.70135">
        <ele>321.69</ele>
        <time>2019-11-03T09:00:40.000Z</time>
      </trkpt>
      <trkpt lat="44.77426" lon="4.70133">
        <ele>324.69</ele>
        <time>2019-11-03T09:00:50.000Z</time>
      </trkpt>
      <trkpt lat="44.77436" lon="4.70131">
        <ele>327.7</ele>
        <time>2019-11-03T09:01:00.000Z</time>
      </trkpt>
      <trkpt lat="44.77446" lon="4.70122">
        <ele>328.33</ele>
        <time>2019-11-03T09:01:10.000Z</time>
      </trkpt>
      <trkpt lat="44.77457" lon="4.70116">
        <ele>329.34</ele>
        <time>2019-11-03T09:01:20.000Z</time>
      </trkpt>
      <trkpt lat="44.77469" lon="4.70103">
        <ele>327.9</ele>
        <time>2019-11-03T09:01:30.000Z</time>
      </trkpt>
      <trkpt lat="44.77479" lon="4.70098">
        <ele>328.46</ele>
        <time>2019-11-03T09:01:40.000Z</time>
      </trkpt>
      <trkpt lat="44.7749" lon="4.70097">
        <ele>331.08</ele>
        <time>2019-11-03T09:01:50.000Z</time>
      </trkpt>
      <trkpt lat="44.775" lon="4.70097">
        <ele>333.88</ele>
        <time>2019-11-03T09:02:00.000Z</time>
      </trkpt>
      <trkpt lat="44.7751" lon="4.70096">
        <ele>335.96</ele>
        <time>2019-11-03T09:02:10.000Z</time>
      </trkpt>
      <trkpt lat="44.77518" lon="4.701">
        <ele>340.5</ele>
        <time>2019-11-03T09:02:20.000Z</time>
      </trkpt>
      <trkpt lat="44.77527" lon="4.70099">
        <ele>342.94</ele>
        <time>2019-11-03T09:02:30.000Z</time>
      </trkpt>
      <trkpt lat="44.7754" lon="4.70091">
        <ele>343.86</ele>
        <time>2019-11-03T09:02:40.000Z</time>
      </trkpt>
      <trkpt lat="44.77552" lon="4.70072">
        <ele>339.2</ele>
        <time>2019-11-03T09:02:50.000Z</time>
      </trkpt>
      <trkpt lat="44.77561" lon="4.70061">
        <ele>336.28</ele>
        <time>2019-11-03T09:03:00.000Z</time>
      </trkpt>
      <trkpt lat="44.77572" lon="4.70055">
        <ele>336.13</ele>
        <time>2019-11-03T09:03:10.000Z</time>
      </trkpt>
      <trkpt lat="44.77581" lon="4.70054">
        <ele>337.81</ele>
        <time>2019-11-03T09:03:20.000Z</time>
      </trkpt>
      <trkpt lat="44.77591" lon="4.70053">
        <ele>339.34</ele>
        <time>2019-11-03T09:03:30.000Z</time>
      </trkpt>
      <trkpt lat="44.77604" lon="4.70054">
        <ele>342.13</ele>
        <time>2019-11-03T09:03:40.000Z</time>
      </trkpt>
      <trkpt lat="44.77614" lon="4.70054">
        <ele>343.56</ele>
        <time>2019-11-03T09:03:50.000Z</time>
      </trkpt>
      <trkpt lat="44.77624" lon="4.70045">
        <ele>340.92</ele>
        <time>2019-11-03T09:04:00.000Z</time>
      </trkpt>
      <trkpt lat="44.77637" lon="4.70044">
        <ele>342.09</ele>
        <time>2019-11-03T09:04:10.000Z</time>
      </trkpt>
      <trkpt lat="44.77648" lon="4.70041">
        <ele>342.24</ele>
        <time>2019-11-03T09:04:20.000Z</time>
      </trkpt>
      <trkpt lat="44.7766" lon="4.70042">
        <ele>344.16</ele>
        <time>2019-11-03T09:04:30.000Z</time>
      </trkpt>
      <trkpt lat="44.77671" lon="4.70051">
        <ele>349.62</ele>
        <time>2019-11-03T09:04:40.000Z</time>
      </trkpt>
      <trkpt lat="44.77682" lon="4.70051">
        <ele>351.48</ele>
        <time>2019-11-03T09:04:50.000Z</time>
      </trkpt>
      <trkpt lat="44.77695" lon="4.70039">
        <ele>348.81</ele>
        <time>2019-11-03T09:05:00.000Z</time>
      </trkpt>
      <trkpt lat="44.77703" lon="4.70026">
        <ele>345.64</ele>
        <time>2019-11-03T09:05:10.000Z</time>
      </trkpt>
      <trkpt lat="44.77713" lon="4.70011">
        <ele>342.19</ele>
        <time>2019-11-03T09:05:20.000Z</time>
      </trkpt>
      <trkpt lat="44.7772" lon="4.7">
        <ele>339.93</ele>
        <time>2019-11-03T09:05:30.000Z</time>
      </trkpt>
      <trkpt lat="44.77732" lon="4.69995">
        <ele>341.22</ele>
        <time>2019-11-03T09:05:40.000Z</time>
      </trkpt>
      <trkpt lat="44.77741" lon="4.69999">
        <ele>344.57</ele>
        <time>2019-11-03T09:05:50.000Z</time>
      </trkpt>
      <trkpt lat="44.7775" lon="4.70002">
        <ele>347.65</ele>
        <time>2019-11-03T09:06:00.000Z</time>
      </trkpt>
      <trkpt lat="44.7776" lon="4.69997">
        <ele>348.34</ele>
        <time>2019-11-03T09:06:10.000Z</time>
      </trkpt>
      <trkpt lat="44.77769" lon="4.69982">
        <ele>345.11</ele>
        <time>2019-11-03T09:06:20.000Z</time>
      </trkpt>
      <trkpt lat="44.77779" lon="4.69966">
        <ele>341.21</ele>
        <time>2019-11-03T09:06:30.000Z</time>
      </trkpt>
      <trkpt lat="44.77789" lon="4.69957">
        <ele>340.24</ele>
        <time>2019-11-03T09:06:40.000Z</time>
      </trkpt>
      <trkpt lat="44.77799" lon="4.69954">
        <ele>341.11</ele>
        <time>2019-11-03T09:06:50.000Z</time>
      </trkpt>
      <trkpt lat="44.77806" lon="4.69946">
        <ele>339.98</ele>
        <time>2019-11-03T09:07:00.000Z</time>
      </trkpt>
      <trkpt lat="44.77816" lon="4.69939">
        <ele>339.14</ele>
        <time>2019-11-03T09:07:10.000Z</time>
      </trkpt>
      <trkpt lat="44.77827" lon="4.69932">
        <ele>338.86</ele>
        <time>2019-11-03T09:07:20.000Z</time>
      </trkpt>
      <trkpt lat="44.77834" lon="4.69929">
        <ele>339.28</ele>
        <time>2019-11-03T09:07:30.000Z</time>
      </trkpt>
      <trkpt lat="44.77848" lon="4.69926">
        <ele>341</ele>
        <time>2019-11-03T09:07:40.000Z</time>
      </trkpt>
      <trkpt lat="44.7786" lon="4.69919">
        <ele>340.94</ele>
        <time>2019-11-03T09:07:50.000Z</time>
      </trkpt>
      <trkpt lat="44.77872" lon="4.6992">
        <ele>343.43</ele>
        <time>2019-11-03T09:08:00.000Z</time>
      </trkpt>
      <trkpt lat="44.77882" lon="4.69921">
        <ele>346.02</ele>
        <time>2019-11-03T09:08:10.000Z</time>
      </trkpt>
      <trkpt lat="44.77892" lon="4.69928">
        <ele>350.22</ele>
        <time>2019-11-03T09:08:20.000Z</time>
      </trkpt>
      <trkpt lat="44.77903" lon="4.6992">
        <ele>350.5</ele>
        <time>2019-11-03T09:08:30.000Z</time>
      </trkpt>
      <trkpt lat="44.77917" lon="4.69905">
        <ele>351.07</ele>
        <time>2019-11-03T09:08:40.000Z</time>
      </trkpt>
      <trkpt lat="44.77925" lon="4.69889">
        <ele>349.98</ele>
        <time>2019-11-03T09:08:50.000Z</time>
      </trkpt>
      <trkpt lat="44.7793" lon="4.69868">
        <ele>347.67</ele>
        <time>2019-11-03T09:09:00.000Z</time>
      </trkpt>
      <trkpt lat="44.77938" lon="4.69858">
        <ele>349.86</ele>
        <time>2019-11-03T09:09:10.000Z</time>
      </trkpt>
      <trkpt lat="44.77947" lon="4.69851">
        <ele>353.64</ele>
        <time>2019-11-03T09:09:20.000Z</time>
      </trkpt>
      <trkpt lat="44.77951" lon="4.69837">
        <ele>352.67</ele>
        <time>2019-11-03T09:09:30.000Z</time>
      </trkpt>
      <trkpt lat="44.77955" lon="4.69822">
        <ele>351.38</ele>
        <time>2019-11-03T09:09:40.000Z</time>
      </trkpt>
      <trkpt lat="44.77961" lon="4.69808">
        <ele>351.43</ele>
        <time>2019-11-03T09:09:50.000Z</time>
      </trkpt>
      <trkpt lat="44.77964" lon="4.69799">
        <ele>350.98</ele>
        <time>2019-11-03T09:10:00.000Z</time>
      </trkpt>
      <trkpt lat="44.77965" lon="4.69784">
        <ele>347.35</ele>
        <time>2019-11-03T09:10:10.000Z</time>
      </trkpt>
      <trkpt lat="44.7797" lon="4.69771">
        <ele>346.21</ele>
        <time>2019-11-03T09:10:20.000Z</time>
      </trkpt>
      <trkpt lat="44.77978" lon="4.69758">
        <ele>346.63</ele>
        <time>2019-11-03T09:10:30.000Z</time>
      </trkpt>
      <trkpt lat="44.77987" lon="4.69756">
        <ele>349.51</ele>
        <time>2019-11-03T09:10:40.000Z</time>
      </trkpt>
      <trkpt lat="44.77999" lon="4.69759">
        <ele>354.27</ele>
        <time>2019-11-03T09:10:50.000Z</time>
      </trkpt>
      <trkpt lat="44.78009" lon="4.6976">
        <ele>356.83</ele>
        <time>2019-11-03T09:11:00.000Z</time>
      </trkpt>
      <trkpt lat="44.78016" lon="4.69765">
        <ele>359.37</ele>
        <time>2019-11-03T09:11:10.000Z</time>
      </trkpt>
      <trkpt lat="44.78026" lon="4.69769">
        <ele>361.81</ele>
        <time>2019-11-03T09:11:20.000Z</time>
      </trkpt>
      <trkpt lat="44.78037" lon="4.69779">
        <ele>365.26</ele>
        <time>2019-11-03T09:11:30.000Z</time>
      </trkpt>
      <trkpt lat="44.78051" lon="4.69782">
        <ele>366.77</ele>
        <time>2019-11-03T09:11:40.000Z</time>
      </trkpt>
      <trkpt lat="44.78057" lon="4.69782">
        <ele>367.17</ele>
        <time>2019-11-03T09:11:50.000Z</time>
      </trkpt>
      <trkpt lat="44.78065" lon="4.69786">
        <ele>368.4</ele>
        <time>2019-11-03T09:12:00.000Z</time>
      </trkpt>
      <trkpt lat="44.78078" lon="4.69783">
        <ele>369.16</ele>
        <time>2019-11-03T09:12:10.000Z</time>
      </trkpt>
      <trkpt lat="44.78087" lon="4.6977">
        <ele>368.6</ele>
        <time>2019-11-03T09:12:20.000Z</time>
      </trkpt>
      <trkpt lat="44.78097" lon="4.69751">
        <ele>368.72</ele>
        <time>2019-11-03T09:12:30.000Z</time>
      </trkpt>
      <trkpt lat="44.781" lon="4.69731">
        <ele>367.96</ele>
        <time>2019-11-03T09:12:40.000Z</time>
      </trkpt>
      <trkpt lat="44.78105" lon="4.69715">
        <ele>368.88</ele>
        <time>2019-11-03T09:12:50.000Z</time>
      </trkpt>
      <trkpt lat="44.78108" lon="4.69701">
        <ele>369.28</ele>
        <time>2019-11-03T09:13:00.000Z</time>
      </trkpt>
      <trkpt lat="44.78103" lon="4.6968">
        <ele>366.52</ele>
        <time>2019-11-03T09:13:10.000Z</time>
      </trkpt>
      <trkpt lat="44.78103" lon="4.6966">
        <ele>364.86</ele>
        <time>2019-11-03T09:13:20.000Z</time>
      </trkpt>
      <trkpt lat="44.78112" lon="4.69645">
        <ele>367.11</ele>
        <time>2019-11-03T09:13:30.000Z</time>
      </trkpt>
      <trkpt lat="44.78118" lon="4.69634">
        <ele>368.62</ele>
        <time>2019-11-03T09:13:40.000Z</time>
      </trkpt>
      <trkpt lat="44.78124" lon="4.6962">
        <ele>369.35</ele>
        <time>2019-11-03T09:13:50.000Z</time>
      </trkpt>
      <trkpt lat="44.78129" lon="4.69606">
        <ele>369.83</ele>
        <time>2019-11-03T09:14:00.000Z</time>
      </trkpt>
      <trkpt lat="44.78135" lon="4.69587">
        <ele>370.64</ele>
        <time>2019-11-03T09:14:10.000Z</time>
      </trkpt>
      <trkpt lat="44.78138" lon="4.6957">
        <ele>371.01</ele>
        <time>2019-11-03T09:14:20.000Z</time>
      </trkpt>
      <trkpt lat="44.78138" lon="4.69564">
        <ele>370.96</ele>
        <time>2019-11-03T09:14:30.000Z</time>
      </trkpt>
      <trkpt lat="44.78135" lon="4.69558">
        <ele>369.39</ele>
        <time>2019-11-03T09:14:40.000Z</time>
      </trkpt>
      <trkpt lat="44.78127" lon="4.69555">
        <ele>366.19</ele>
        <time>2019-11-03T09:14:50.000Z</time>
      </trkpt>
      <trkpt lat="44.78125" lon="4.69539">
        <ele>365.51</ele>
        <time>2019-11-03T09:15:00.000Z</time>
      </trkpt>
      <trkpt lat="44.78127" lon="4.69519">
        <ele>366.45</ele>
        <time>2019-11-03T09:15:10.000Z</time>
      </trkpt>
      <trkpt lat="44.78125" lon="4.69502">
        <ele>367.32</ele>
        <time>2019-11-03T09:15:20.000Z</time>
      </trkpt>
      <trkpt lat="44.78125" lon="4.69482">
        <ele>369.86</ele>
        <time>2019-11-03T09:15:30.000Z</time>
      </trkpt>
      <trkpt lat="44.78125" lon="4.69467">
        <ele>372.74</ele>
        <time>2019-11-03T09:15:40.000Z</time>
      </trkpt>
      <trkpt lat="44.78125" lon="4.69454">
        <ele>375.49</ele>
        <time>2019-11-03T09:15:50.000Z</time>
      </trkpt>
      <trkpt lat="44.78125" lon="4.69442">
        <ele>378.7</ele>
        <time>2019-11-03T09:16:00.000Z</time>
      </trkpt>
      <trkpt lat="44.78124" lon="4.69424">
        <ele>381.96</ele>
        <time>2019-11-03T09:16:10.000Z</time>
      </trkpt>
      <trkpt lat="44.78119" lon="4.69406">
        <ele>383.35</ele>
        <time>2019-11-03T09:16:20.000Z</time>
      </trkpt>
      <trkpt lat="44.78119" lon="4.69389">
        <ele>387.12</ele>
        <time>2019-11-03T09:16:30.000Z</time>
      </trkpt>
      <trkpt lat="44.78115" lon="4.69374">
        <ele>388.39</ele>
        <time>2019-11-03T09:16:40.000Z</time>
      </trkpt>
      <trkpt lat="44.78116" lon="4.69355">
        <ele>392.78</ele>
        <time>2019-11-03T09:16:50.000Z</time>
      </trkpt>
      <trkpt lat="44.78118" lon="4.6934">
        <ele>396.47</ele>
        <time>2019-11-03T09:17:00.000Z</time>
      </trkpt>
      <trkpt lat="44.78118" lon="4.69325">
        <ele>399.05</ele>
        <time>2019-11-03T09:17:10.000Z</time>
      </trkpt>
      <trkpt lat="44.78117" lon="4.69312">
        <ele>400.78</ele>
        <time>2019-11-03T09:17:20.000Z</time>
      </trkpt>
      <trkpt lat="44.78118" lon="4.69299">
        <ele>403.06</ele>
        <time>2019-11-03T09:17:30.000Z</time>
      </trkpt>
      <trkpt lat="44.78119" lon="4.69289">
        <ele>404.47</ele>
        <time>2019-11-03T09:17:40.000Z</time>
      </trkpt>
      <trkpt lat="44.78121" lon="4.69274">
        <ele>407.22</ele>
        <time>2019-11-03T09:17:50.000Z</time>
      </trkpt>
      <trkpt lat="44.78125" lon="4.69263">
        <ele>409.98</ele>
        <time>2019-11-03T09:18:00.000Z</time>
      </trkpt>
      <trkpt lat="44.7813" lon="4.69249">
        <ele>413.47</ele>
        <time>2019-11-03T09:18:10.000Z</time>
      </trkpt>
      <trkpt lat="44.7813" lon="4.6924">
        <ele>415.06</ele>
        <time>2019-11-03T09:18:20.000Z</time>
      </trkpt>
      <trkpt lat="44.78121" lon="4.69234">
        <ele>413.29</ele>
        <time>2019-11-03T09:18:30.000Z</time>
      </trkpt>
      <trkpt lat="44.78112" lon="4.69233">
        <ele>411.08</ele>
        <time>2019-11-03T09:18:40.000Z</time>
      </trkpt>
      <trkpt lat="44.78103" lon="4.69236">
        <ele>408.67</ele>
        <time>2019-11-03T09:18:50.000Z</time>
      </trkpt>
      <trkpt lat="44.78093" lon="4.69247">
        <ele>404.76</ele>
        <time>2019-11-03T09:19:00.000Z</time>
      </trkpt>
      <trkpt lat="44.78086" lon="4.69263">
        <ele>400.18</ele>
        <time>2019-11-03T09:19:10.000Z</time>
      </trkpt>
      <trkpt lat="44.78079" lon="4.69281">
        <ele>395.51</ele>
        <time>2019-11-03T09:19:20.000Z</time>
      </trkpt>
      <trkpt lat="44.78067" lon="4.69295">
        <ele>391.73</ele>
        <time>2019-11-03T09:19:30.000Z</time>
      </trkpt>
      <trkpt lat="44.78059" lon="4.6931">
        <ele>388.46</ele>
        <time>2019-11-03T09:19:40.000Z</time>
      </trkpt>
      <trkpt lat="44.78051" lon="4.69325">
        <ele>385.24</ele>
        <time>2019-11-03T09:20:01.000Z</time>
      </trkpt>
      <trkpt lat="44.7804" lon="4.69338">
        <ele>383.03</ele>
        <time>2019-11-03T09:20:11.000Z</time>
      </trkpt>
      <trkpt lat="44.78025" lon="4.69344">
        <ele>383.4</ele>
        <time>2019-11-03T09:20:21.000Z</time>
      </trkpt>
      <trkpt lat="44.7801" lon="4.69348">
        <ele>385.28</ele>
        <time>2019-11-03T09:20:31.000Z</time>
      </trkpt>
      <trkpt lat="44.77999" lon="4.69354">
        <ele>386</ele>
        <time>2019-11-03T09:20:41.000Z</time>
      </trkpt>
      <trkpt lat="44.77989" lon="4.69365">
        <ele>385.77</ele>
        <time>2019-11-03T09:20:51.000Z</time>
      </trkpt>
      <trkpt lat="44.77983" lon="4.69374">
        <ele>385.31</ele>
        <time>2019-11-03T09:21:01.000Z</time>
      </trkpt>
      <trkpt lat="44.77972" lon="4.69384">
        <ele>387.42</ele>
        <time>2019-11-03T09:21:11.000Z</time>
      </trkpt>
      <trkpt lat="44.77962" lon="4.69397">
        <ele>388.48</ele>
        <time>2019-11-03T09:21:21.000Z</time>
      </trkpt>
      <trkpt lat="44.7796" lon="4.69408">
        <ele>387.3</ele>
        <time>2019-11-03T09:21:31.000Z</time>
      </trkpt>
      <trkpt lat="44.77953" lon="4.69424">
        <ele>387.01</ele>
        <time>2019-11-03T09:21:41.000Z</time>
      </trkpt>
      <trkpt lat="44.77946" lon="4.69444">
        <ele>386.82</ele>
        <time>2019-11-03T09:21:52.000Z</time>
      </trkpt>
      <trkpt lat="44.77942" lon="4.6946">
        <ele>386.07</ele>
        <time>2019-11-03T09:22:02.000Z</time>
      </trkpt>
      <trkpt lat="44.77933" lon="4.69462">
        <ele>389.02</ele>
        <time>2019-11-03T09:22:12.000Z</time>
      </trkpt>
      <trkpt lat="44.77918" lon="4.69466">
        <ele>392.54</ele>
        <time>2019-11-03T09:22:22.000Z</time>
      </trkpt>
      <trkpt lat="44.77907" lon="4.69467">
        <ele>394.53</ele>
        <time>2019-11-03T09:22:32.000Z</time>
      </trkpt>
      <trkpt lat="44.77894" lon="4.69469">
        <ele>396.28</ele>
        <time>2019-11-03T09:22:42.000Z</time>
      </trkpt>
      <trkpt lat="44.77881" lon="4.69469">
        <ele>397.91</ele>
        <time>2019-11-03T09:22:52.000Z</time>
      </trkpt>
      <trkpt lat="44.77882" lon="4.69463">
        <ele>399.49</ele>
        <time>2019-11-03T09:23:02.000Z</time>
      </trkpt>
      <trkpt lat="44.77884" lon="4.69452">
        <ele>401.75</ele>
        <time>2019-11-03T09:23:12.000Z</time>
      </trkpt>
      <trkpt lat="44.77882" lon="4.69434">
        <ele>406.19</ele>
        <time>2019-11-03T09:23:22.000Z</time>
      </trkpt>
      <trkpt lat="44.77885" lon="4.6942">
        <ele>408.97</ele>
        <time>2019-11-03T09:23:32.000Z</time>
      </trkpt>
      <trkpt lat="44.77887" lon="4.69404">
        <ele>412.24</ele>
        <time>2019-11-03T09:23:42.000Z</time>
      </trkpt>
      <trkpt lat="44.77892" lon="4.69389">
        <ele>414.47</ele>
        <time>2019-11-03T09:23:52.000Z</time>
      </trkpt>
      <trkpt lat="44.77897" lon="4.69378">
        <ele>415.37</ele>
        <time>2019-11-03T09:24:02.000Z</time>
      </trkpt>
      <trkpt lat="44.779" lon="4.69362">
        <ele>418.17</ele>
        <time>2019-11-03T09:24:12.000Z</time>
      </trkpt>
      <trkpt lat="44.77906" lon="4.69352">
        <ele>418.76</ele>
        <time>2019-11-03T09:24:22.000Z</time>
      </trkpt>
      <trkpt lat="44.77904" lon="4.69347">
        <ele>420.68</ele>
        <time>2019-11-03T09:24:32.000Z</time>
      </trkpt>
      <trkpt lat="44.77904" lon="4.69354">
        <ele>418.92</ele>
        <time>2019-11-03T09:24:42.000Z</time>
      </trkpt>
      <trkpt lat="44.77899" lon="4.69354">
        <ele>420.46</ele>
        <time>2019-11-03T09:24:52.000Z</time>
      </trkpt>
      <trkpt lat="44.77888" lon="4.6935">
        <ele>424.15</ele>
        <time>2019-11-03T09:25:02.000Z</time>
      </trkpt>
      <trkpt lat="44.77878" lon="4.69347">
        <ele>427.32</ele>
        <time>2019-11-03T09:25:12.000Z</time>
      </trkpt>
      <trkpt lat="44.77869" lon="4.69346">
        <ele>429.44</ele>
        <time>2019-11-03T09:25:22.000Z</time>
      </trkpt>
      <trkpt lat="44.77856" lon="4.69352">
        <ele>431.1</ele>
        <time>2019-11-03T09:25:32.000Z</time>
      </trkpt>
      <trkpt lat="44.77844" lon="4.69353">
        <ele>433.19</ele>
        <time>2019-11-03T09:25:42.000Z</time>
      </trkpt>
      <trkpt lat="44.77831" lon="4.69358">
        <ele>434.26</ele>
        <time>2019-11-03T09:25:52.000Z</time>
      </trkpt>
      <trkpt lat="44.77817" lon="4.69364">
        <ele>434.75</ele>
        <time>2019-11-03T09:26:02.000Z</time>
      </trkpt>
      <trkpt lat="44.77817" lon="4.69357">
        <ele>436.73</ele>
        <time>2019-11-03T09:26:12.000Z</time>
      </trkpt>
      <trkpt lat="44.77818" lon="4.69345">
        <ele>439.84</ele>
        <time>2019-11-03T09:26:22.000Z</time>
      </trkpt>
      <trkpt lat="44.77821" lon="4.69332">
        <ele>442.31</ele>
        <time>2019-11-03T09:26:32.000Z</time>
      </trkpt>
      <trkpt lat="44.77828" lon="4.69321">
        <ele>444</ele>
        <time>2019-11-03T09:26:42.000Z</time>
      </trkpt>
      <trkpt lat="44.77836" lon="4.69314">
        <ele>444.47</ele>
        <time>2019-11-03T09:26:52.000Z</time>
      </trkpt>
      <trkpt lat="44.77844" lon="4.69304">
        <ele>445.71</ele>
        <time>2019-11-03T09:36:27.000Z</time>
      </trkpt>
      <trkpt lat="44.7785" lon="4.6929">
        <ele>448.38</ele>
        <time>2019-11-03T09:36:37.000Z</time>
      </trkpt>
      <trkpt lat="44.77856" lon="4.69279">
        <ele>449.8</ele>
        <time>2019-11-03T09:36:47.000Z</time>
      </trkpt>
      <trkpt lat="44.7786" lon="4.69262">
        <ele>453.1</ele>
        <time>2019-11-03T09:36:57.000Z</time>
      </trkpt>
      <trkpt lat="44.77867" lon="4.69251">
        <ele>453.99</ele>
        <time>2019-11-03T09:37:07.000Z</time>
      </trkpt>
      <trkpt lat="44.77875" lon="4.69241">
        <ele>454.45</ele>
        <time>2019-11-03T09:37:17.000Z</time>
      </trkpt>
      <trkpt lat="44.7788" lon="4.69226">
        <ele>456.57</ele>
        <time>2019-11-03T09:37:27.000Z</time>
      </trkpt>
      <trkpt lat="44.77886" lon="4.69215">
        <ele>457.94</ele>
        <time>2019-11-03T09:37:37.000Z</time>
      </trkpt>
      <trkpt lat="44.77889" lon="4.69208">
        <ele>458.95</ele>
        <time>2019-11-03T09:37:47.000Z</time>
      </trkpt>
      <trkpt lat="44.779" lon="4.69195">
        <ele>460.43</ele>
        <time>2019-11-03T09:37:57.000Z</time>
      </trkpt>
      <trkpt lat="44.77908" lon="4.69181">
        <ele>462.26</ele>
        <time>2019-11-03T09:38:07.000Z</time>
      </trkpt>
      <trkpt lat="44.77916" lon="4.69171">
        <ele>463.23</ele>
        <time>2019-11-03T09:38:17.000Z</time>
      </trkpt>
      <trkpt lat="44.77922" lon="4.69159">
        <ele>464.65</ele>
        <time>2019-11-03T09:38:27.000Z</time>
      </trkpt>
      <trkpt lat="44.77923" lon="4.69143">
        <ele>467.38</ele>
        <time>2019-11-03T09:38:37.000Z</time>
      </trkpt>
      <trkpt lat="44.77928" lon="4.69129">
        <ele>468.94</ele>
        <time>2019-11-03T09:38:47.000Z</time>
      </trkpt>
      <trkpt lat="44.77933" lon="4.69114">
        <ele>470.61</ele>
        <time>2019-11-03T09:38:57.000Z</time>
      </trkpt>
      <trkpt lat="44.77933" lon="4.69101">
        <ele>472.26</ele>
        <time>2019-11-03T09:39:07.000Z</time>
      </trkpt>
      <trkpt lat="44.77929" lon="4.69093">
        <ele>473.12</ele>
        <time>2019-11-03T09:39:17.000Z</time>
      </trkpt>
      <trkpt lat="44.77925" lon="4.69089">
        <ele>473.37</ele>
        <time>2019-11-03T09:39:27.000Z</time>
      </trkpt>
      <trkpt lat="44.77935" lon="4.69071">
        <ele>474.11</ele>
        <time>2019-11-03T09:39:37.000Z</time>
      </trkpt>
      <trkpt lat="44.77946" lon="4.69059">
        <ele>474.81</ele>
        <time>2019-11-03T09:39:47.000Z</time>
      </trkpt>
      <trkpt lat="44.7796" lon="4.69051">
        <ele>475.7</ele>
        <time>2019-11-03T09:39:57.000Z</time>
      </trkpt>
      <trkpt lat="44.77972" lon="4.69042">
        <ele>477.27</ele>
        <time>2019-11-03T09:40:07.000Z</time>
      </trkpt>
      <trkpt lat="44.77985" lon="4.69034">
        <ele>479.3</ele>
        <time>2019-11-03T09:40:17.000Z</time>
      </trkpt>
      <trkpt lat="44.77999" lon="4.69028">
        <ele>481.3</ele>
        <time>2019-11-03T09:40:27.000Z</time>
      </trkpt>
      <trkpt lat="44.78012" lon="4.69025">
        <ele>482.62</ele>
        <time>2019-11-03T09:40:37.000Z</time>
      </trkpt>
      <trkpt lat="44.78022" lon="4.69019">
        <ele>484.26</ele>
        <time>2019-11-03T09:40:47.000Z</time>
      </trkpt>
      <trkpt lat="44.78035" lon="4.69017">
        <ele>484.54</ele>
        <time>2019-11-03T09:40:57.000Z</time>
      </trkpt>
      <trkpt lat="44.78048" lon="4.69011">
        <ele>485.72</ele>
        <time>2019-11-03T09:41:07.000Z</time>
      </trkpt>
      <trkpt lat="44.78059" lon="4.69004">
        <ele>486.92</ele>
        <time>2019-11-03T09:41:17.000Z</time>
      </trkpt>
      <trkpt lat="44.7807" lon="4.68997">
        <ele>488.16</ele>
        <time>2019-11-03T09:41:27.000Z</time>
      </trkpt>
      <trkpt lat="44.78081" lon="4.68984">
        <ele>490.65</ele>
        <time>2019-11-03T09:41:37.000Z</time>
      </trkpt>
      <trkpt lat="44.78093" lon="4.6897">
        <ele>493.21</ele>
        <time>2019-11-03T09:41:47.000Z</time>
      </trkpt>
      <trkpt lat="44.78102" lon="4.68951">
        <ele>496.11</ele>
        <time>2019-11-03T09:41:57.000Z</time>
      </trkpt>
      <trkpt lat="44.78113" lon="4.68934">
        <ele>498.05</ele>
        <time>2019-11-03T09:42:07.000Z</time>
      </trkpt>
      <trkpt lat="44.78126" lon="4.68924">
        <ele>498.97</ele>
        <time>2019-11-03T09:42:17.000Z</time>
      </trkpt>
      <trkpt lat="44.78139" lon="4.6892">
        <ele>499.32</ele>
        <time>2019-11-03T09:42:27.000Z</time>
      </trkpt>
      <trkpt lat="44.78155" lon="4.68918">
        <ele>499.65</ele>
        <time>2019-11-03T09:42:37.000Z</time>
      </trkpt>
      <trkpt lat="44.78167" lon="4.68908">
        <ele>500.85</ele>
        <time>2019-11-03T09:42:47.000Z</time>
      </trkpt>
      <trkpt lat="44.78181" lon="4.68902">
        <ele>501.88</ele>
        <time>2019-11-03T09:42:57.000Z</time>
      </trkpt>
      <trkpt lat="44.78194" lon="4.6889">
        <ele>503.01</ele>
        <time>2019-11-03T09:43:07.000Z</time>
      </trkpt>
      <trkpt lat="44.78203" lon="4.68877">
        <ele>503.71</ele>
        <time>2019-11-03T09:43:17.000Z</time>
      </trkpt>
      <trkpt lat="44.78212" lon="4.68858">
        <ele>504</ele>
        <time>2019-11-03T09:43:27.000Z</time>
      </trkpt>
      <trkpt lat="44.78222" lon="4.68845">
        <ele>504.13</ele>
        <time>2019-11-03T09:43:37.000Z</time>
      </trkpt>
      <trkpt lat="44.78233" lon="4.68832">
        <ele>504.22</ele>
        <time>2019-11-03T09:43:47.000Z</time>
      </trkpt>
      <trkpt lat="44.78247" lon="4.68821">
        <ele>504.22</ele>
        <time>2019-11-03T09:43:57.000Z</time>
      </trkpt>
      <trkpt lat="44.7826" lon="4.68809">
        <ele>504.15</ele>
        <time>2019-11-03T09:44:07.000Z</time>
      </trkpt>
      <trkpt lat="44.78271" lon="4.68795">
        <ele>504.12</ele>
        <time>2019-11-03T09:44:17.000Z</time>
      </trkpt>
      <trkpt lat="44.78283" lon="4.68782">
        <ele>504.41</ele>
        <time>2019-11-03T09:44:27.000Z</time>
      </trkpt>
      <trkpt lat="44.78296" lon="4.68766">
        <ele>505.22</ele>
        <time>2019-11-03T09:44:37.000Z</time>
      </trkpt>
      <trkpt lat="44.78309" lon="4.68757">
        <ele>505.77</ele>
        <time>2019-11-03T09:44:47.000Z</time>
      </trkpt>
      <trkpt lat="44.78322" lon="4.68745">
        <ele>506.47</ele>
        <time>2019-11-03T09:44:57.000Z</time>
      </trkpt>
      <trkpt lat="44.78335" lon="4.68734">
        <ele>507.13</ele>
        <time>2019-11-03T09:45:07.000Z</time>
      </trkpt>
      <trkpt lat="44.78348" lon="4.68722">
        <ele>507.7</ele>
        <time>2019-11-03T09:45:17.000Z</time>
      </trkpt>
      <trkpt lat="44.78361" lon="4.68709">
        <ele>508.15</ele>
        <time>2019-11-03T09:45:27.000Z</time>
      </trkpt>
      <trkpt lat="44.78376" lon="4.687">
        <ele>508.28</ele>
        <time>2019-11-03T09:45:37.000Z</time>
      </trkpt>
      <trkpt lat="44.7839" lon="4.68692">
        <ele>508.5</ele>
        <time>2019-11-03T09:45:47.000Z</time>
      </trkpt>
      <trkpt lat="44.78404" lon="4.68682">
        <ele>508.96</ele>
        <time>2019-11-03T09:45:57.000Z</time>
      </trkpt>
      <trkpt lat="44.78415" lon="4.68684">
        <ele>508.62</ele>
        <time>2019-11-03T09:46:07.000Z</time>
      </trkpt>
      <trkpt lat="44.78428" lon="4.68694">
        <ele>507.14</ele>
        <time>2019-11-03T09:46:17.000Z</time>
      </trkpt>
      <trkpt lat="44.78441" lon="4.68707">
        <ele>504.85</ele>
        <time>2019-11-03T09:46:27.000Z</time>
      </trkpt>
      <trkpt lat="44.78453" lon="4.68721">
        <ele>502.31</ele>
        <time>2019-11-03T09:46:37.000Z</time>
      </trkpt>
      <trkpt lat="44.78468" lon="4.68736">
        <ele>499.82</ele>
        <time>2019-11-03T09:46:47.000Z</time>
      </trkpt>
      <trkpt lat="44.78483" lon="4.68745">
        <ele>498.54</ele>
        <time>2019-11-03T09:46:57.000Z</time>
      </trkpt>
      <trkpt lat="44.78496" lon="4.68756">
        <ele>497.69</ele>
        <time>2019-11-03T09:47:07.000Z</time>
      </trkpt>
      <trkpt lat="44.78509" lon="4.68765">
        <ele>497.33</ele>
        <time>2019-11-03T09:47:17.000Z</time>
      </trkpt>
      <trkpt lat="44.78524" lon="4.68773">
        <ele>497.32</ele>
        <time>2019-11-03T09:47:27.000Z</time>
      </trkpt>
      <trkpt lat="44.78531" lon="4.68792">
        <ele>497.95</ele>
        <time>2019-11-03T09:47:37.000Z</time>
      </trkpt>
      <trkpt lat="44.78533" lon="4.68813">
        <ele>499.39</ele>
        <time>2019-11-03T09:47:47.000Z</time>
      </trkpt>
      <trkpt lat="44.78532" lon="4.68833">
        <ele>501.15</ele>
        <time>2019-11-03T09:47:57.000Z</time>
      </trkpt>
      <trkpt lat="44.78531" lon="4.68852">
        <ele>503.67</ele>
        <time>2019-11-03T09:48:07.000Z</time>
      </trkpt>
      <trkpt lat="44.78521" lon="4.68864">
        <ele>505.14</ele>
        <time>2019-11-03T09:48:17.000Z</time>
      </trkpt>
      <trkpt lat="44.78509" lon="4.6887">
        <ele>505.42</ele>
        <time>2019-11-03T09:48:27.000Z</time>
      </trkpt>
      <trkpt lat="44.78498" lon="4.68876">
        <ele>505.54</ele>
        <time>2019-11-03T09:48:37.000Z</time>
      </trkpt>
      <trkpt lat="44.7851" lon="4.6888">
        <ele>507.4</ele>
        <time>2019-11-03T09:48:47.000Z</time>
      </trkpt>
      <trkpt lat="44.78524" lon="4.68885">
        <ele>509.55</ele>
        <time>2019-11-03T09:48:57.000Z</time>
      </trkpt>
      <trkpt lat="44.78538" lon="4.6889">
        <ele>511.2</ele>
        <time>2019-11-03T09:49:07.000Z</time>
      </trkpt>
      <trkpt lat="44.78552" lon="4.68894">
        <ele>512.42</ele>
        <time>2019-11-03T09:49:17.000Z</time>
      </trkpt>
      <trkpt lat="44.78565" lon="4.68898">
        <ele>513.72</ele>
        <time>2019-11-03T09:49:27.000Z</time>
      </trkpt>
      <trkpt lat="44.78576" lon="4.68903">
        <ele>514.94</ele>
        <time>2019-11-03T09:49:37.000Z</time>
      </trkpt>
      <trkpt lat="44.78583" lon="4.68912">
        <ele>516.52</ele>
        <time>2019-11-03T09:49:47.000Z</time>
      </trkpt>
      <trkpt lat="44.78584" lon="4.68926">
        <ele>517.89</ele>
        <time>2019-11-03T09:49:57.000Z</time>
      </trkpt>
      <trkpt lat="44.78582" lon="4.68937">
        <ele>518.53</ele>
        <time>2019-11-03T09:50:07.000Z</time>
      </trkpt>
      <trkpt lat="44.7858" lon="4.68945">
        <ele>518.77</ele>
        <time>2019-11-03T09:50:17.000Z</time>
      </trkpt>
      <trkpt lat="44.78579" lon="4.6896">
        <ele>519.33</ele>
        <time>2019-11-03T09:50:27.000Z</time>
      </trkpt>
      <trkpt lat="44.78585" lon="4.6898">
        <ele>520.6</ele>
        <time>2019-11-03T09:50:37.000Z</time>
      </trkpt>
      <trkpt lat="44.78593" lon="4.68996">
        <ele>522.32</ele>
        <time>2019-11-03T09:50:47.000Z</time>
      </trkpt>
      <trkpt lat="44.78602" lon="4.69013">
        <ele>524.48</ele>
        <time>2019-11-03T09:50:57.000Z</time>
      </trkpt>
      <trkpt lat="44.78604" lon="4.69032">
        <ele>525.75</ele>
        <time>2019-11-03T09:51:07.000Z</time>
      </trkpt>
      <trkpt lat="44.78602" lon="4.69054">
        <ele>526.01</ele>
        <time>2019-11-03T09:51:17.000Z</time>
      </trkpt>
      <trkpt lat="44.78599" lon="4.69075">
        <ele>525.89</ele>
        <time>2019-11-03T09:51:27.000Z</time>
      </trkpt>
      <trkpt lat="44.78591" lon="4.69097">
        <ele>524.18</ele>
        <time>2019-11-03T09:51:37.000Z</time>
      </trkpt>
      <trkpt lat="44.78588" lon="4.69116">
        <ele>523.56</ele>
        <time>2019-11-03T09:51:47.000Z</time>
      </trkpt>
      <trkpt lat="44.78588" lon="4.6914">
        <ele>523.59</ele>
        <time>2019-11-03T09:51:57.000Z</time>
      </trkpt>
      <trkpt lat="44.7859" lon="4.6916">
        <ele>524.12</ele>
        <time>2019-11-03T09:52:07.000Z</time>
      </trkpt>
      <trkpt lat="44.78595" lon="4.69179">
        <ele>525.37</ele>
        <time>2019-11-03T09:52:17.000Z</time>
      </trkpt>
      <trkpt lat="44.786" lon="4.69201">
        <ele>525.93</ele>
        <time>2019-11-03T09:52:27.000Z</time>
      </trkpt>
      <trkpt lat="44.78603" lon="4.69221">
        <ele>525.83</ele>
        <time>2019-11-03T09:52:37.000Z</time>
      </trkpt>
      <trkpt lat="44.78606" lon="4.69238">
        <ele>525.95</ele>
        <time>2019-11-03T09:52:47.000Z</time>
      </trkpt>
      <trkpt lat="44.78604" lon="4.6926">
        <ele>524.09</ele>
        <time>2019-11-03T09:52:57.000Z</time>
      </trkpt>
      <trkpt lat="44.78607" lon="4.69281">
        <ele>523.47</ele>
        <time>2019-11-03T09:53:07.000Z</time>
      </trkpt>
      <trkpt lat="44.7861" lon="4.69305">
        <ele>522.45</ele>
        <time>2019-11-03T09:53:17.000Z</time>
      </trkpt>
      <trkpt lat="44.78615" lon="4.69325">
        <ele>522.68</ele>
        <time>2019-11-03T09:53:27.000Z</time>
      </trkpt>
      <trkpt lat="44.78619" lon="4.69348">
        <ele>522.77</ele>
        <time>2019-11-03T09:53:37.000Z</time>
      </trkpt>
      <trkpt lat="44.78625" lon="4.69369">
        <ele>523.66</ele>
        <time>2019-11-03T09:53:47.000Z</time>
      </trkpt>
      <trkpt lat="44.78624" lon="4.69389">
        <ele>522.77</ele>
        <time>2019-11-03T09:53:57.000Z</time>
      </trkpt>
      <trkpt lat="44.7862" lon="4.69406">
        <ele>521.74</ele>
        <time>2019-11-03T09:54:07.000Z</time>
      </trkpt>
      <trkpt lat="44.78614" lon="4.69426">
        <ele>520.72</ele>
        <time>2019-11-03T09:54:17.000Z</time>
      </trkpt>
      <trkpt lat="44.78602" lon="4.6944">
        <ele>519.27</ele>
        <time>2019-11-03T09:54:27.000Z</time>
      </trkpt>
      <trkpt lat="44.78589" lon="4.6945">
        <ele>517.39</ele>
        <time>2019-11-03T09:54:37.000Z</time>
      </trkpt>
      <trkpt lat="44.78576" lon="4.69465">
        <ele>516.3</ele>
        <time>2019-11-03T09:54:47.000Z</time>
      </trkpt>
      <trkpt lat="44.78566" lon="4.69483">
        <ele>516.54</ele>
        <time>2019-11-03T09:54:57.000Z</time>
      </trkpt>
      <trkpt lat="44.78567" lon="4.69494">
        <ele>518.32</ele>
        <time>2019-11-03T09:55:07.000Z</time>
      </trkpt>
      <trkpt lat="44.78575" lon="4.69491">
        <ele>520.2</ele>
        <time>2019-11-03T09:55:17.000Z</time>
      </trkpt>
      <trkpt lat="44.78586" lon="4.69481">
        <ele>521.8</ele>
        <time>2019-11-03T09:55:27.000Z</time>
      </trkpt>
      <trkpt lat="44.78592" lon="4.69477">
        <ele>522.93</ele>
        <time>2019-11-03T09:55:37.000Z</time>
      </trkpt>
      <trkpt lat="44.78596" lon="4.69491">
        <ele>525.12</ele>
        <time>2019-11-03T09:55:47.000Z</time>
      </trkpt>
      <trkpt lat="44.78604" lon="4.695">
        <ele>526.86</ele>
        <time>2019-11-03T09:55:57.000Z</time>
      </trkpt>
      <trkpt lat="44.78615" lon="4.69491">
        <ele>528.21</ele>
        <time>2019-11-03T09:56:07.000Z</time>
      </trkpt>
      <trkpt lat="44.78625" lon="4.69487">
        <ele>529.28</ele>
        <time>2019-11-03T09:56:17.000Z</time>
      </trkpt>
      <trkpt lat="44.78633" lon="4.69486">
        <ele>530.29</ele>
        <time>2019-11-03T09:56:27.000Z</time>
      </trkpt>
      <trkpt lat="44.78643" lon="4.69492">
        <ele>531.54</ele>
        <time>2019-11-03T09:56:37.000Z</time>
      </trkpt>
      <trkpt lat="44.78655" lon="4.69498">
        <ele>533.16</ele>
        <time>2019-11-03T09:56:47.000Z</time>
      </trkpt>
      <trkpt lat="44.7867" lon="4.69505">
        <ele>535.24</ele>
        <time>2019-11-03T09:56:57.000Z</time>
      </trkpt>
      <trkpt lat="44.78683" lon="4.69514">
        <ele>536.93</ele>
        <time>2019-11-03T09:57:07.000Z</time>
      </trkpt>
      <trkpt lat="44.7869" lon="4.69529">
        <ele>536.24</ele>
        <time>2019-11-03T09:57:17.000Z</time>
      </trkpt>
      <trkpt lat="44.78698" lon="4.69543">
        <ele>535.66</ele>
        <time>2019-11-03T09:57:27.000Z</time>
      </trkpt>
      <trkpt lat="44.78708" lon="4.69554">
        <ele>535.92</ele>
        <time>2019-11-03T09:57:37.000Z</time>
      </trkpt>
      <trkpt lat="44.78718" lon="4.6956">
        <ele>537.69</ele>
        <time>2019-11-03T09:57:47.000Z</time>
      </trkpt>
      <trkpt lat="44.78727" lon="4.69567">
        <ele>538.96</ele>
        <time>2019-11-03T09:57:57.000Z</time>
      </trkpt>
      <trkpt lat="44.7874" lon="4.69572">
        <ele>541.54</ele>
        <time>2019-11-03T09:58:07.000Z</time>
      </trkpt>
      <trkpt lat="44.7875" lon="4.6958">
        <ele>543.43</ele>
        <time>2019-11-03T09:58:17.000Z</time>
      </trkpt>
      <trkpt lat="44.78758" lon="4.69585">
        <ele>545.11</ele>
        <time>2019-11-03T09:58:27.000Z</time>
      </trkpt>
      <trkpt lat="44.78771" lon="4.69594">
        <ele>548.12</ele>
        <time>2019-11-03T09:58:37.000Z</time>
      </trkpt>
      <trkpt lat="44.78782" lon="4.69602">
        <ele>551.04</ele>
        <time>2019-11-03T09:58:47.000Z</time>
      </trkpt>
      <trkpt lat="44.78791" lon="4.69614">
        <ele>552.77</ele>
        <time>2019-11-03T09:58:57.000Z</time>
      </trkpt>
      <trkpt lat="44.78799" lon="4.69627">
        <ele>554.3</ele>
        <time>2019-11-03T09:59:07.000Z</time>
      </trkpt>
      <trkpt lat="44.78809" lon="4.69632">
        <ele>556.6</ele>
        <time>2019-11-03T09:59:17.000Z</time>
      </trkpt>
      <trkpt lat="44.7882" lon="4.69633">
        <ele>558.71</ele>
        <time>2019-11-03T09:59:27.000Z</time>
      </trkpt>
      <trkpt lat="44.7883" lon="4.69635">
        <ele>560.15</ele>
        <time>2019-11-03T09:59:37.000Z</time>
      </trkpt>
      <trkpt lat="44.78839" lon="4.69632">
        <ele>561.31</ele>
        <time>2019-11-03T09:59:47.000Z</time>
      </trkpt>
      <trkpt lat="44.78853" lon="4.69632">
        <ele>561.8</ele>
        <time>2019-11-03T09:59:57.000Z</time>
      </trkpt>
      <trkpt lat="44.78866" lon="4.69632">
        <ele>561.46</ele>
        <time>2019-11-03T10:00:07.000Z</time>
      </trkpt>
      <trkpt lat="44.7888" lon="4.69627">
        <ele>561.36</ele>
        <time>2019-11-03T10:00:17.000Z</time>
      </trkpt>
      <trkpt lat="44.78895" lon="4.69624">
        <ele>560.74</ele>
        <time>2019-11-03T10:00:27.000Z</time>
      </trkpt>
      <trkpt lat="44.78908" lon="4.69617">
        <ele>560.84</ele>
        <time>2019-11-03T10:00:37.000Z</time>
      </trkpt>
      <trkpt lat="44.78921" lon="4.69607">
        <ele>562.16</ele>
        <time>2019-11-03T10:00:47.000Z</time>
      </trkpt>
      <trkpt lat="44.78933" lon="4.69598">
        <ele>563.43</ele>
        <time>2019-11-03T10:00:57.000Z</time>
      </trkpt>
      <trkpt lat="44.78945" lon="4.69592">
        <ele>564.07</ele>
        <time>2019-11-03T10:01:07.000Z</time>
      </trkpt>
      <trkpt lat="44.78955" lon="4.6958">
        <ele>566.68</ele>
        <time>2019-11-03T10:01:17.000Z</time>
      </trkpt>
      <trkpt lat="44.78968" lon="4.69571">
        <ele>568.82</ele>
        <time>2019-11-03T10:01:27.000Z</time>
      </trkpt>
      <trkpt lat="44.7898" lon="4.69565">
        <ele>569.75</ele>
        <time>2019-11-03T10:01:37.000Z</time>
      </trkpt>
      <trkpt lat="44.78994" lon="4.69559">
        <ele>571.25</ele>
        <time>2019-11-03T10:01:47.000Z</time>
      </trkpt>
      <trkpt lat="44.7901" lon="4.69551">
        <ele>573.92</ele>
        <time>2019-11-03T10:01:57.000Z</time>
      </trkpt>
      <trkpt lat="44.79025" lon="4.69546">
        <ele>575.35</ele>
        <time>2019-11-03T10:02:07.000Z</time>
      </trkpt>
      <trkpt lat="44.79036" lon="4.69544">
        <ele>576.16</ele>
        <time>2019-11-03T10:02:17.000Z</time>
      </trkpt>
      <trkpt lat="44.79048" lon="4.69546">
        <ele>575.52</ele>
        <time>2019-11-03T10:02:27.000Z</time>
      </trkpt>
      <trkpt lat="44.79061" lon="4.6954">
        <ele>577.25</ele>
        <time>2019-11-03T10:02:37.000Z</time>
      </trkpt>
      <trkpt lat="44.79071" lon="4.69532">
        <ele>579.39</ele>
        <time>2019-11-03T10:02:47.000Z</time>
      </trkpt>
      <trkpt lat="44.79079" lon="4.69529">
        <ele>579.85</ele>
        <time>2019-11-03T10:02:57.000Z</time>
      </trkpt>
      <trkpt lat="44.79093" lon="4.6952">
        <ele>581.37</ele>
        <time>2019-11-03T10:03:07.000Z</time>
      </trkpt>
      <trkpt lat="44.79102" lon="4.69517">
        <ele>581.36</ele>
        <time>2019-11-03T10:03:17.000Z</time>
      </trkpt>
      <trkpt lat="44.7911" lon="4.69515">
        <ele>580.86</ele>
        <time>2019-11-03T10:03:27.000Z</time>
      </trkpt>
      <trkpt lat="44.79123" lon="4.69511">
        <ele>580.4</ele>
        <time>2019-11-03T10:03:37.000Z</time>
      </trkpt>
      <trkpt lat="44.79132" lon="4.69508">
        <ele>579.81</ele>
        <time>2019-11-03T10:03:47.000Z</time>
      </trkpt>
      <trkpt lat="44.79142" lon="4.69511">
        <ele>577.89</ele>
        <time>2019-11-03T10:03:57.000Z</time>
      </trkpt>
      <trkpt lat="44.79153" lon="4.69504">
        <ele>578.21</ele>
        <time>2019-11-03T10:04:07.000Z</time>
      </trkpt>
      <trkpt lat="44.79164" lon="4.69498">
        <ele>578.8</ele>
        <time>2019-11-03T10:04:17.000Z</time>
      </trkpt>
      <trkpt lat="44.79174" lon="4.69493">
        <ele>579.34</ele>
        <time>2019-11-03T10:04:27.000Z</time>
      </trkpt>
      <trkpt lat="44.79187" lon="4.69481">
        <ele>581.49</ele>
        <time>2019-11-03T10:04:37.000Z</time>
      </trkpt>
      <trkpt lat="44.79198" lon="4.69475">
        <ele>582.68</ele>
        <time>2019-11-03T10:04:47.000Z</time>
      </trkpt>
      <trkpt lat="44.79208" lon="4.69474">
        <ele>582.43</ele>
        <time>2019-11-03T10:04:57.000Z</time>
      </trkpt>
      <trkpt lat="44.7922" lon="4.69471">
        <ele>582.69</ele>
        <time>2019-11-03T10:05:07.000Z</time>
      </trkpt>
      <trkpt lat="44.79232" lon="4.69467">
        <ele>583.24</ele>
        <time>2019-11-03T10:05:17.000Z</time>
      </trkpt>
      <trkpt lat="44.79245" lon="4.69468">
        <ele>582.49</ele>
        <time>2019-11-03T10:05:27.000Z</time>
      </trkpt>
      <trkpt lat="44.79259" lon="4.69473">
        <ele>580.89</ele>
        <time>2019-11-03T10:05:37.000Z</time>
      </trkpt>
      <trkpt lat="44.79273" lon="4.69476">
        <ele>580.09</ele>
        <time>2019-11-03T10:05:47.000Z</time>
      </trkpt>
      <trkpt lat="44.79283" lon="4.69481">
        <ele>579.32</ele>
        <time>2019-11-03T10:05:57.000Z</time>
      </trkpt>
      <trkpt lat="44.79298" lon="4.69484">
        <ele>579.08</ele>
        <time>2019-11-03T10:06:07.000Z</time>
      </trkpt>
      <trkpt lat="44.79314" lon="4.69482">
        <ele>579.1</ele>
        <time>2019-11-03T10:06:17.000Z</time>
      </trkpt>
      <trkpt lat="44.79323" lon="4.69473">
        <ele>579.05</ele>
        <time>2019-11-03T10:06:27.000Z</time>
      </trkpt>
      <trkpt lat="44.7932" lon="4.69458">
        <ele>579.86</ele>
        <time>2019-11-03T10:06:37.000Z</time>
      </trkpt>
      <trkpt lat="44.79316" lon="4.69441">
        <ele>580.98</ele>
        <time>2019-11-03T10:06:47.000Z</time>
      </trkpt>
      <trkpt lat="44.79316" lon="4.69424">
        <ele>581.58</ele>
        <time>2019-11-03T10:06:57.000Z</time>
      </trkpt>
      <trkpt lat="44.7932" lon="4.6941">
        <ele>581.54</ele>
        <time>2019-11-03T10:07:07.000Z</time>
      </trkpt>
      <trkpt lat="44.79326" lon="4.69394">
        <ele>580.46</ele>
        <time>2019-11-03T10:07:17.000Z</time>
      </trkpt>
      <trkpt lat="44.79335" lon="4.69378">
        <ele>578.05</ele>
        <time>2019-11-03T10:07:27.000Z</time>
      </trkpt>
      <trkpt lat="44.79344" lon="4.69363">
        <ele>575.19</ele>
        <time>2019-11-03T10:07:37.000Z</time>
      </trkpt>
      <trkpt lat="44.79352" lon="4.69347">
        <ele>572.78</ele>
        <time>2019-11-03T10:07:47.000Z</time>
      </trkpt>
      <trkpt lat="44.79362" lon="4.69332">
        <ele>570.29</ele>
        <time>2019-11-03T10:07:57.000Z</time>
      </trkpt>
      <trkpt lat="44.79371" lon="4.6932">
        <ele>568.16</ele>
        <time>2019-11-03T10:08:07.000Z</time>
      </trkpt>
      <trkpt lat="44.79378" lon="4.69302">
        <ele>568.76</ele>
        <time>2019-11-03T10:08:17.000Z</time>
      </trkpt>
      <trkpt lat="44.79391" lon="4.69291">
        <ele>566.82</ele>
        <time>2019-11-03T10:08:27.000Z</time>
      </trkpt>
      <trkpt lat="44.79405" lon="4.69281">
        <ele>564.53</ele>
        <time>2019-11-03T10:08:37.000Z</time>
      </trkpt>
      <trkpt lat="44.79416" lon="4.69272">
        <ele>563.41</ele>
        <time>2019-11-03T10:08:47.000Z</time>
      </trkpt>
      <trkpt lat="44.79427" lon="4.6926">
        <ele>563.04</ele>
        <time>2019-11-03T10:08:57.000Z</time>
      </trkpt>
      <trkpt lat="44.79437" lon="4.69245">
        <ele>563.14</ele>
        <time>2019-11-03T10:09:07.000Z</time>
      </trkpt>
      <trkpt lat="44.79447" lon="4.6923">
        <ele>563.61</ele>
        <time>2019-11-03T10:09:17.000Z</time>
      </trkpt>
      <trkpt lat="44.79455" lon="4.69216">
        <ele>563.38</ele>
        <time>2019-11-03T10:09:27.000Z</time>
      </trkpt>
      <trkpt lat="44.79464" lon="4.692">
        <ele>562.61</ele>
        <time>2019-11-03T10:09:37.000Z</time>
      </trkpt>
      <trkpt lat="44.79474" lon="4.69184">
        <ele>560.94</ele>
        <time>2019-11-03T10:09:47.000Z</time>
      </trkpt>
      <trkpt lat="44.79484" lon="4.69169">
        <ele>558.22</ele>
        <time>2019-11-03T10:09:57.000Z</time>
      </trkpt>
      <trkpt lat="44.79492" lon="4.69153">
        <ele>556.31</ele>
        <time>2019-11-03T10:10:07.000Z</time>
      </trkpt>
      <trkpt lat="44.79495" lon="4.69135">
        <ele>556.75</ele>
        <time>2019-11-03T10:10:17.000Z</time>
      </trkpt>
      <trkpt lat="44.79499" lon="4.69118">
        <ele>555.93</ele>
        <time>2019-11-03T10:10:27.000Z</time>
      </trkpt>
      <trkpt lat="44.79506" lon="4.69102">
        <ele>554.23</ele>
        <time>2019-11-03T10:10:37.000Z</time>
      </trkpt>
      <trkpt lat="44.79512" lon="4.69087">
        <ele>552.58</ele>
        <time>2019-11-03T10:10:47.000Z</time>
      </trkpt>
      <trkpt lat="44.79516" lon="4.69069">
        <ele>551.42</ele>
        <time>2019-11-03T10:10:57.000Z</time>
      </trkpt>
      <trkpt lat="44.79515" lon="4.6905">
        <ele>551.77</ele>
        <time>2019-11-03T10:11:07.000Z</time>
      </trkpt>
      <trkpt lat="44.79518" lon="4.6903">
        <ele>550.5</ele>
        <time>2019-11-03T10:11:17.000Z</time>
      </trkpt>
      <trkpt lat="44.79522" lon="4.69008">
        <ele>548.65</ele>
        <time>2019-11-03T10:11:27.000Z</time>
      </trkpt>
      <trkpt lat="44.79522" lon="4.68989">
        <ele>547.89</ele>
        <time>2019-11-03T10:11:37.000Z</time>
      </trkpt>
      <trkpt lat="44.79519" lon="4.6897">
        <ele>547.48</ele>
        <time>2019-11-03T10:11:47.000Z</time>
      </trkpt>
      <trkpt lat="44.79512" lon="4.68949">
        <ele>547.44</ele>
        <time>2019-11-03T10:11:57.000Z</time>
      </trkpt>
      <trkpt lat="44.79509" lon="4.68927">
        <ele>546.63</ele>
        <time>2019-11-03T10:12:07.000Z</time>
      </trkpt>
      <trkpt lat="44.79505" lon="4.68907">
        <ele>546.08</ele>
        <time>2019-11-03T10:12:17.000Z</time>
      </trkpt>
      <trkpt lat="44.795" lon="4.68894">
        <ele>546.09</ele>
        <time>2019-11-03T10:12:27.000Z</time>
      </trkpt>
      <trkpt lat="44.79497" lon="4.68874">
        <ele>545.24</ele>
        <time>2019-11-03T10:12:37.000Z</time>
      </trkpt>
      <trkpt lat="44.79496" lon="4.68858">
        <ele>544.27</ele>
        <time>2019-11-03T10:12:47.000Z</time>
      </trkpt>
      <trkpt lat="44.79496" lon="4.68837">
        <ele>542.89</ele>
        <time>2019-11-03T10:12:57.000Z</time>
      </trkpt>
      <trkpt lat="44.79492" lon="4.68816">
        <ele>542.56</ele>
        <time>2019-11-03T10:13:07.000Z</time>
      </trkpt>
      <trkpt lat="44.79486" lon="4.68796">
        <ele>542.6</ele>
        <time>2019-11-03T10:13:17.000Z</time>
      </trkpt>
      <trkpt lat="44.79476" lon="4.68779">
        <ele>543.44</ele>
        <time>2019-11-03T10:13:27.000Z</time>
      </trkpt>
      <trkpt lat="44.79469" lon="4.68761">
        <ele>543.73</ele>
        <time>2019-11-03T10:13:37.000Z</time>
      </trkpt>
      <trkpt lat="44.79468" lon="4.68741">
        <ele>543.43</ele>
        <time>2019-11-03T10:13:47.000Z</time>
      </trkpt>
      <trkpt lat="44.79463" lon="4.68719">
        <ele>544.28</ele>
        <time>2019-11-03T10:13:57.000Z</time>
      </trkpt>
      <trkpt lat="44.79465" lon="4.68701">
        <ele>544.55</ele>
        <time>2019-11-03T10:14:07.000Z</time>
      </trkpt>
      <trkpt lat="44.79476" lon="4.68691">
        <ele>543.9</ele>
        <time>2019-11-03T10:14:17.000Z</time>
      </trkpt>
      <trkpt lat="44.79486" lon="4.68689">
        <ele>543.18</ele>
        <time>2019-11-03T10:14:27.000Z</time>
      </trkpt>
      <trkpt lat="44.79501" lon="4.6868">
        <ele>542.84</ele>
        <time>2019-11-03T10:14:37.000Z</time>
      </trkpt>
      <trkpt lat="44.79511" lon="4.68672">
        <ele>543.05</ele>
        <time>2019-11-03T10:14:47.000Z</time>
      </trkpt>
      <trkpt lat="44.79502" lon="4.68661">
        <ele>542.96</ele>
        <time>2019-11-03T10:14:57.000Z</time>
      </trkpt>
      <trkpt lat="44.79489" lon="4.6865">
        <ele>543.15</ele>
        <time>2019-11-03T10:15:07.000Z</time>
      </trkpt>
      <trkpt lat="44.79478" lon="4.68639">
        <ele>543.5</ele>
        <time>2019-11-03T10:15:17.000Z</time>
      </trkpt>
      <trkpt lat="44.79467" lon="4.68637">
        <ele>544.13</ele>
        <time>2019-11-03T10:15:27.000Z</time>
      </trkpt>
      <trkpt lat="44.79458" lon="4.68643">
        <ele>545.03</ele>
        <time>2019-11-03T10:15:37.000Z</time>
      </trkpt>
      <trkpt lat="44.79448" lon="4.68647">
        <ele>545.96</ele>
        <time>2019-11-03T10:15:47.000Z</time>
      </trkpt>
      <trkpt lat="44.79433" lon="4.6865">
        <ele>547.31</ele>
        <time>2019-11-03T10:15:57.000Z</time>
      </trkpt>
      <trkpt lat="44.79425" lon="4.68648">
        <ele>547.78</ele>
        <time>2019-11-03T10:16:07.000Z</time>
      </trkpt>
      <trkpt lat="44.79411" lon="4.68643">
        <ele>548.38</ele>
        <time>2019-11-03T10:16:17.000Z</time>
      </trkpt>
      <trkpt lat="44.79396" lon="4.68641">
        <ele>549.11</ele>
        <time>2019-11-03T10:16:27.000Z</time>
      </trkpt>
      <trkpt lat="44.7938" lon="4.68642">
        <ele>549.94</ele>
        <time>2019-11-03T10:16:37.000Z</time>
      </trkpt>
      <trkpt lat="44.79367" lon="4.68643">
        <ele>550.53</ele>
        <time>2019-11-03T10:16:47.000Z</time>
      </trkpt>
      <trkpt lat="44.79353" lon="4.68644">
        <ele>550.99</ele>
        <time>2019-11-03T10:16:57.000Z</time>
      </trkpt>
      <trkpt lat="44.79343" lon="4.6864">
        <ele>551.08</ele>
        <time>2019-11-03T10:17:07.000Z</time>
      </trkpt>
      <trkpt lat="44.79339" lon="4.68637">
        <ele>551.02</ele>
        <time>2019-11-03T10:17:17.000Z</time>
      </trkpt>
      <trkpt lat="44.79338" lon="4.68615">
        <ele>550.48</ele>
        <time>2019-11-03T10:17:27.000Z</time>
      </trkpt>
      <trkpt lat="44.79343" lon="4.68597">
        <ele>549.94</ele>
        <time>2019-11-03T10:17:37.000Z</time>
      </trkpt>
      <trkpt lat="44.79345" lon="4.68576">
        <ele>549.36</ele>
        <time>2019-11-03T10:17:47.000Z</time>
      </trkpt>
      <trkpt lat="44.79345" lon="4.68558">
        <ele>548.83</ele>
        <time>2019-11-03T10:17:57.000Z</time>
      </trkpt>
      <trkpt lat="44.79338" lon="4.68544">
        <ele>549.19</ele>
        <time>2019-11-03T10:18:07.000Z</time>
      </trkpt>
      <trkpt lat="44.79329" lon="4.68531">
        <ele>549.94</ele>
        <time>2019-11-03T10:18:17.000Z</time>
      </trkpt>
      <trkpt lat="44.7932" lon="4.68517">
        <ele>550.99</ele>
        <time>2019-11-03T10:18:27.000Z</time>
      </trkpt>
      <trkpt lat="44.79313" lon="4.685">
        <ele>552.21</ele>
        <time>2019-11-03T10:18:37.000Z</time>
      </trkpt>
      <trkpt lat="44.79307" lon="4.68485">
        <ele>553.53</ele>
        <time>2019-11-03T10:18:47.000Z</time>
      </trkpt>
      <trkpt lat="44.79303" lon="4.68467">
        <ele>555.17</ele>
        <time>2019-11-03T10:18:57.000Z</time>
      </trkpt>
      <trkpt lat="44.793" lon="4.6845">
        <ele>556.71</ele>
        <time>2019-11-03T10:19:07.000Z</time>
      </trkpt>
      <trkpt lat="44.793" lon="4.68432">
        <ele>558.11</ele>
        <time>2019-11-03T10:19:17.000Z</time>
      </trkpt>
      <trkpt lat="44.79301" lon="4.68417">
        <ele>559.23</ele>
        <time>2019-11-03T10:19:27.000Z</time>
      </trkpt>
      <trkpt lat="44.79302" lon="4.68397">
        <ele>560.62</ele>
        <time>2019-11-03T10:19:37.000Z</time>
      </trkpt>
      <trkpt lat="44.79305" lon="4.6838">
        <ele>561.59</ele>
        <time>2019-11-03T10:19:47.000Z</time>
      </trkpt>
      <trkpt lat="44.79311" lon="4.6837">
        <ele>561.47</ele>
        <time>2019-11-03T10:19:57.000Z</time>
      </trkpt>
      <trkpt lat="44.79314" lon="4.68353">
        <ele>562.26</ele>
        <time>2019-11-03T10:20:07.000Z</time>
      </trkpt>
      <trkpt lat="44.79311" lon="4.68335">
        <ele>564.35</ele>
        <time>2019-11-03T10:20:17.000Z</time>
      </trkpt>
      <trkpt lat="44.79299" lon="4.6833">
        <ele>566.69</ele>
        <time>2019-11-03T10:20:27.000Z</time>
      </trkpt>
      <trkpt lat="44.79288" lon="4.68327">
        <ele>568.4</ele>
        <time>2019-11-03T10:20:37.000Z</time>
      </trkpt>
      <trkpt lat="44.79277" lon="4.68325">
        <ele>569.91</ele>
        <time>2019-11-03T10:20:47.000Z</time>
      </trkpt>
      <trkpt lat="44.79268" lon="4.68333">
        <ele>569.72</ele>
        <time>2019-11-03T10:20:57.000Z</time>
      </trkpt>
      <trkpt lat="44.79256" lon="4.68338">
        <ele>570.06</ele>
        <time>2019-11-03T10:21:07.000Z</time>
      </trkpt>
      <trkpt lat="44.79242" lon="4.68341">
        <ele>570.39</ele>
        <time>2019-11-03T10:21:17.000Z</time>
      </trkpt>
      <trkpt lat="44.79229" lon="4.68345">
        <ele>570.2</ele>
        <time>2019-11-03T10:21:27.000Z</time>
      </trkpt>
      <trkpt lat="44.79217" lon="4.6835">
        <ele>569.35</ele>
        <time>2019-11-03T10:21:37.000Z</time>
      </trkpt>
      <trkpt lat="44.79203" lon="4.68357">
        <ele>567.92</ele>
        <time>2019-11-03T10:21:47.000Z</time>
      </trkpt>
      <trkpt lat="44.79189" lon="4.68365">
        <ele>565.9</ele>
        <time>2019-11-03T10:21:57.000Z</time>
      </trkpt>
      <trkpt lat="44.79175" lon="4.68368">
        <ele>564.54</ele>
        <time>2019-11-03T10:22:07.000Z</time>
      </trkpt>
      <trkpt lat="44.79162" lon="4.68374">
        <ele>562.61</ele>
        <time>2019-11-03T10:22:17.000Z</time>
      </trkpt>
      <trkpt lat="44.79149" lon="4.68375">
        <ele>561.47</ele>
        <time>2019-11-03T10:22:27.000Z</time>
      </trkpt>
      <trkpt lat="44.79135" lon="4.6838">
        <ele>559.35</ele>
        <time>2019-11-03T10:22:37.000Z</time>
      </trkpt>
      <trkpt lat="44.79122" lon="4.68378">
        <ele>558.33</ele>
        <time>2019-11-03T10:23:13.000Z</time>
      </trkpt>
      <trkpt lat="44.79108" lon="4.6838">
        <ele>556.79</ele>
        <time>2019-11-03T10:23:23.000Z</time>
      </trkpt>
      <trkpt lat="44.79095" lon="4.68381">
        <ele>555.75</ele>
        <time>2019-11-03T10:23:33.000Z</time>
      </trkpt>
      <trkpt lat="44.79084" lon="4.68382">
        <ele>555.06</ele>
        <time>2019-11-03T10:23:43.000Z</time>
      </trkpt>
      <trkpt lat="44.79072" lon="4.68392">
        <ele>554.03</ele>
        <time>2019-11-03T10:23:53.000Z</time>
      </trkpt>
      <trkpt lat="44.7906" lon="4.68396">
        <ele>553.7</ele>
        <time>2019-11-03T10:24:03.000Z</time>
      </trkpt>
      <trkpt lat="44.79049" lon="4.68407">
        <ele>552.84</ele>
        <time>2019-11-03T10:24:13.000Z</time>
      </trkpt>
      <trkpt lat="44.79035" lon="4.68416">
        <ele>552.07</ele>
        <time>2019-11-03T10:24:23.000Z</time>
      </trkpt>
      <trkpt lat="44.79023" lon="4.68424">
        <ele>551.33</ele>
        <time>2019-11-03T10:24:33.000Z</time>
      </trkpt>
      <trkpt lat="44.79009" lon="4.68429">
        <ele>550.8</ele>
        <time>2019-11-03T10:24:43.000Z</time>
      </trkpt>
      <trkpt lat="44.78995" lon="4.68429">
        <ele>550.53</ele>
        <time>2019-11-03T10:24:53.000Z</time>
      </trkpt>
      <trkpt lat="44.78982" lon="4.68427">
        <ele>550.26</ele>
        <time>2019-11-03T10:25:03.000Z</time>
      </trkpt>
      <trkpt lat="44.78969" lon="4.68424">
        <ele>550.01</ele>
        <time>2019-11-03T10:25:13.000Z</time>
      </trkpt>
      <trkpt lat="44.78955" lon="4.6842">
        <ele>549.78</ele>
        <time>2019-11-03T10:25:24.000Z</time>
      </trkpt>
      <trkpt lat="44.78941" lon="4.68419">
        <ele>549.17</ele>
        <time>2019-11-03T10:25:34.000Z</time>
      </trkpt>
      <trkpt lat="44.78928" lon="4.68418">
        <ele>548.47</ele>
        <time>2019-11-03T10:25:44.000Z</time>
      </trkpt>
      <trkpt lat="44.78914" lon="4.68416">
        <ele>547.91</ele>
        <time>2019-11-03T10:25:54.000Z</time>
      </trkpt>
      <trkpt lat="44.789" lon="4.68414">
        <ele>547.34</ele>
        <time>2019-11-03T10:26:04.000Z</time>
      </trkpt>
      <trkpt lat="44.78895" lon="4.68413">
        <ele>547.07</ele>
        <time>2019-11-03T10:26:14.000Z</time>
      </trkpt>
      <trkpt lat="44.78882" lon="4.68406">
        <ele>546.98</ele>
        <time>2019-11-03T10:26:24.000Z</time>
      </trkpt>
      <trkpt lat="44.78869" lon="4.68399">
        <ele>546.93</ele>
        <time>2019-11-03T10:26:39.000Z</time>
      </trkpt>
      <trkpt lat="44.78859" lon="4.68385">
        <ele>548.21</ele>
        <time>2019-11-03T10:26:52.000Z</time>
      </trkpt>
      <trkpt lat="44.7885" lon="4.68375">
        <ele>549.11</ele>
        <time>2019-11-03T10:27:02.000Z</time>
      </trkpt>
      <trkpt lat="44.78838" lon="4.68376">
        <ele>548.5</ele>
        <time>2019-11-03T10:27:12.000Z</time>
      </trkpt>
      <trkpt lat="44.78824" lon="4.68381">
        <ele>547.51</ele>
        <time>2019-11-03T10:27:22.000Z</time>
      </trkpt>
      <trkpt lat="44.7881" lon="4.68387">
        <ele>546.67</ele>
        <time>2019-11-03T10:27:32.000Z</time>
      </trkpt>
      <trkpt lat="44.78797" lon="4.68392">
        <ele>545.99</ele>
        <time>2019-11-03T10:27:42.000Z</time>
      </trkpt>
      <trkpt lat="44.78781" lon="4.68393">
        <ele>545.95</ele>
        <time>2019-11-03T10:27:52.000Z</time>
      </trkpt>
      <trkpt lat="44.78763" lon="4.68393">
        <ele>546.06</ele>
        <time>2019-11-03T10:28:02.000Z</time>
      </trkpt>
      <trkpt lat="44.78748" lon="4.68396">
        <ele>545.55</ele>
        <time>2019-11-03T10:28:12.000Z</time>
      </trkpt>
      <trkpt lat="44.78744" lon="4.68392">
        <ele>545.94</ele>
        <time>2019-11-03T10:28:22.000Z</time>
      </trkpt>
      <trkpt lat="44.78739" lon="4.68391">
        <ele>546.06</ele>
        <time>2019-11-03T10:28:32.000Z</time>
      </trkpt>
      <trkpt lat="44.78727" lon="4.68388">
        <ele>546.24</ele>
        <time>2019-11-03T10:28:42.000Z</time>
      </trkpt>
      <trkpt lat="44.78715" lon="4.68387">
        <ele>546.17</ele>
        <time>2019-11-03T10:28:52.000Z</time>
      </trkpt>
      <trkpt lat="44.78702" lon="4.68386">
        <ele>546.02</ele>
        <time>2019-11-03T10:29:08.000Z</time>
      </trkpt>
      <trkpt lat="44.78689" lon="4.68387">
        <ele>545.47</ele>
        <time>2019-11-03T10:29:18.000Z</time>
      </trkpt>
      <trkpt lat="44.78675" lon="4.68387">
        <ele>544.79</ele>
        <time>2019-11-03T10:29:28.000Z</time>
      </trkpt>
      <trkpt lat="44.78661" lon="4.68387">
        <ele>543.77</ele>
        <time>2019-11-03T10:29:38.000Z</time>
      </trkpt>
      <trkpt lat="44.78658" lon="4.68382">
        <ele>544.06</ele>
        <time>2019-11-03T10:29:48.000Z</time>
      </trkpt>
      <trkpt lat="44.78654" lon="4.6838">
        <ele>543.76</ele>
        <time>2019-11-03T10:29:58.000Z</time>
      </trkpt>
      <trkpt lat="44.78643" lon="4.68377">
        <ele>542.89</ele>
        <time>2019-11-03T10:30:08.000Z</time>
      </trkpt>
      <trkpt lat="44.78634" lon="4.68377">
        <ele>541.89</ele>
        <time>2019-11-03T10:30:18.000Z</time>
      </trkpt>
      <trkpt lat="44.78623" lon="4.6838">
        <ele>540.04</ele>
        <time>2019-11-03T10:30:28.000Z</time>
      </trkpt>
      <trkpt lat="44.78614" lon="4.68365">
        <ele>539.83</ele>
        <time>2019-11-03T10:30:38.000Z</time>
      </trkpt>
      <trkpt lat="44.78607" lon="4.68349">
        <ele>539.66</ele>
        <time>2019-11-03T10:30:48.000Z</time>
      </trkpt>
      <trkpt lat="44.78598" lon="4.68336">
        <ele>538.51</ele>
        <time>2019-11-03T10:30:58.000Z</time>
      </trkpt>
      <trkpt lat="44.7859" lon="4.68323">
        <ele>537.52</ele>
        <time>2019-11-03T10:31:08.000Z</time>
      </trkpt>
      <trkpt lat="44.78578" lon="4.68312">
        <ele>535.51</ele>
        <time>2019-11-03T10:31:18.000Z</time>
      </trkpt>
      <trkpt lat="44.78565" lon="4.6831">
        <ele>533.04</ele>
        <time>2019-11-03T10:31:28.000Z</time>
      </trkpt>
      <trkpt lat="44.78556" lon="4.68325">
        <ele>531.26</ele>
        <time>2019-11-03T10:31:38.000Z</time>
      </trkpt>
      <trkpt lat="44.78546" lon="4.68341">
        <ele>529.4</ele>
        <time>2019-11-03T10:31:48.000Z</time>
      </trkpt>
      <trkpt lat="44.78542" lon="4.68348">
        <ele>528.49</ele>
        <time>2019-11-03T10:31:58.000Z</time>
      </trkpt>
      <trkpt lat="44.78538" lon="4.68343">
        <ele>527.84</ele>
        <time>2019-11-03T10:32:08.000Z</time>
      </trkpt>
      <trkpt lat="44.78538" lon="4.68328">
        <ele>527.92</ele>
        <time>2019-11-03T10:32:18.000Z</time>
      </trkpt>
      <trkpt lat="44.78536" lon="4.68307">
        <ele>527.59</ele>
        <time>2019-11-03T10:32:28.000Z</time>
      </trkpt>
      <trkpt lat="44.78536" lon="4.68289">
        <ele>527.61</ele>
        <time>2019-11-03T10:32:38.000Z</time>
      </trkpt>
      <trkpt lat="44.78529" lon="4.6827">
        <ele>526.14</ele>
        <time>2019-11-03T10:32:48.000Z</time>
      </trkpt>
      <trkpt lat="44.78515" lon="4.68265">
        <ele>523.09</ele>
        <time>2019-11-03T10:32:58.000Z</time>
      </trkpt>
      <trkpt lat="44.78508" lon="4.6825">
        <ele>521.67</ele>
        <time>2019-11-03T10:33:08.000Z</time>
      </trkpt>
      <trkpt lat="44.78503" lon="4.68231">
        <ele>520.95</ele>
        <time>2019-11-03T10:33:18.000Z</time>
      </trkpt>
      <trkpt lat="44.78496" lon="4.68212">
        <ele>519.96</ele>
        <time>2019-11-03T10:33:28.000Z</time>
      </trkpt>
      <trkpt lat="44.78485" lon="4.68198">
        <ele>518.15</ele>
        <time>2019-11-03T10:33:38.000Z</time>
      </trkpt>
      <trkpt lat="44.78478" lon="4.68184">
        <ele>517.24</ele>
        <time>2019-11-03T10:33:48.000Z</time>
      </trkpt>
      <trkpt lat="44.78475" lon="4.68166">
        <ele>518.36</ele>
        <time>2019-11-03T10:33:58.000Z</time>
      </trkpt>
      <trkpt lat="44.78464" lon="4.6816">
        <ele>517.16</ele>
        <time>2019-11-03T10:34:08.000Z</time>
      </trkpt>
      <trkpt lat="44.78453" lon="4.68165">
        <ele>514.73</ele>
        <time>2019-11-03T10:34:18.000Z</time>
      </trkpt>
      <trkpt lat="44.78439" lon="4.68166">
        <ele>512.62</ele>
        <time>2019-11-03T10:34:28.000Z</time>
      </trkpt>
      <trkpt lat="44.78426" lon="4.68166">
        <ele>511.52</ele>
        <time>2019-11-03T10:34:38.000Z</time>
      </trkpt>
      <trkpt lat="44.78412" lon="4.68174">
        <ele>509.58</ele>
        <time>2019-11-03T10:34:48.000Z</time>
      </trkpt>
      <trkpt lat="44.78401" lon="4.68187">
        <ele>508.17</ele>
        <time>2019-11-03T10:34:58.000Z</time>
      </trkpt>
      <trkpt lat="44.78392" lon="4.68199">
        <ele>507.81</ele>
        <time>2019-11-03T10:35:08.000Z</time>
      </trkpt>
      <trkpt lat="44.78385" lon="4.68211">
        <ele>507.48</ele>
        <time>2019-11-03T10:35:18.000Z</time>
      </trkpt>
      <trkpt lat="44.78376" lon="4.68221">
        <ele>508.43</ele>
        <time>2019-11-03T10:35:28.000Z</time>
      </trkpt>
      <trkpt lat="44.78363" lon="4.68226">
        <ele>510.51</ele>
        <time>2019-11-03T10:35:38.000Z</time>
      </trkpt>
      <trkpt lat="44.78351" lon="4.68235">
        <ele>511.86</ele>
        <time>2019-11-03T10:44:17.000Z</time>
      </trkpt>
      <trkpt lat="44.78345" lon="4.6825">
        <ele>510.94</ele>
        <time>2019-11-03T10:44:27.000Z</time>
      </trkpt>
      <trkpt lat="44.78346" lon="4.68267">
        <ele>508.08</ele>
        <time>2019-11-03T10:44:37.000Z</time>
      </trkpt>
      <trkpt lat="44.78351" lon="4.68286">
        <ele>504.15</ele>
        <time>2019-11-03T10:44:47.000Z</time>
      </trkpt>
      <trkpt lat="44.78355" lon="4.68299">
        <ele>501.4</ele>
        <time>2019-11-03T10:44:57.000Z</time>
      </trkpt>
      <trkpt lat="44.78346" lon="4.68315">
        <ele>499.59</ele>
        <time>2019-11-03T10:45:07.000Z</time>
      </trkpt>
      <trkpt lat="44.78333" lon="4.6832">
        <ele>499.45</ele>
        <time>2019-11-03T10:45:17.000Z</time>
      </trkpt>
      <trkpt lat="44.7832" lon="4.68317">
        <ele>500.45</ele>
        <time>2019-11-03T10:45:27.000Z</time>
      </trkpt>
      <trkpt lat="44.78306" lon="4.68317">
        <ele>501.01</ele>
        <time>2019-11-03T10:45:37.000Z</time>
      </trkpt>
      <trkpt lat="44.78293" lon="4.68312">
        <ele>502.29</ele>
        <time>2019-11-03T10:45:47.000Z</time>
      </trkpt>
      <trkpt lat="44.78281" lon="4.68312">
        <ele>502.65</ele>
        <time>2019-11-03T10:45:57.000Z</time>
      </trkpt>
      <trkpt lat="44.78268" lon="4.68309">
        <ele>503.14</ele>
        <time>2019-11-03T10:46:07.000Z</time>
      </trkpt>
      <trkpt lat="44.78255" lon="4.68312">
        <ele>502.36</ele>
        <time>2019-11-03T10:46:17.000Z</time>
      </trkpt>
      <trkpt lat="44.78244" lon="4.6831">
        <ele>502.07</ele>
        <time>2019-11-03T10:46:27.000Z</time>
      </trkpt>
      <trkpt lat="44.78234" lon="4.68295">
        <ele>502.94</ele>
        <time>2019-11-03T10:46:37.000Z</time>
      </trkpt>
      <trkpt lat="44.78224" lon="4.68287">
        <ele>502.51</ele>
        <time>2019-11-03T10:46:47.000Z</time>
      </trkpt>
      <trkpt lat="44.78215" lon="4.68283">
        <ele>501.72</ele>
        <time>2019-11-03T10:46:57.000Z</time>
      </trkpt>
      <trkpt lat="44.78203" lon="4.68282">
        <ele>500.09</ele>
        <time>2019-11-03T10:47:07.000Z</time>
      </trkpt>
      <trkpt lat="44.782" lon="4.68278">
        <ele>499.9</ele>
        <time>2019-11-03T10:47:17.000Z</time>
      </trkpt>
      <trkpt lat="44.78191" lon="4.68268">
        <ele>499.16</ele>
        <time>2019-11-03T10:47:27.000Z</time>
      </trkpt>
      <trkpt lat="44.78177" lon="4.68267">
        <ele>496.91</ele>
        <time>2019-11-03T10:47:37.000Z</time>
      </trkpt>
      <trkpt lat="44.78163" lon="4.68264">
        <ele>494.85</ele>
        <time>2019-11-03T10:47:47.000Z</time>
      </trkpt>
      <trkpt lat="44.7815" lon="4.68261">
        <ele>492.98</ele>
        <time>2019-11-03T10:47:57.000Z</time>
      </trkpt>
      <trkpt lat="44.78139" lon="4.68272">
        <ele>490.92</ele>
        <time>2019-11-03T10:48:07.000Z</time>
      </trkpt>
      <trkpt lat="44.78134" lon="4.68286">
        <ele>489.43</ele>
        <time>2019-11-03T10:48:17.000Z</time>
      </trkpt>
      <trkpt lat="44.78137" lon="4.68305">
        <ele>488.65</ele>
        <time>2019-11-03T10:48:27.000Z</time>
      </trkpt>
      <trkpt lat="44.7814" lon="4.68324">
        <ele>487.86</ele>
        <time>2019-11-03T10:48:37.000Z</time>
      </trkpt>
      <trkpt lat="44.78146" lon="4.6834">
        <ele>487.62</ele>
        <time>2019-11-03T10:48:47.000Z</time>
      </trkpt>
      <trkpt lat="44.78148" lon="4.68358">
        <ele>486.47</ele>
        <time>2019-11-03T10:48:57.000Z</time>
      </trkpt>
      <trkpt lat="44.78153" lon="4.68369">
        <ele>485.99</ele>
        <time>2019-11-03T10:50:12.000Z</time>
      </trkpt>
      <trkpt lat="44.78155" lon="4.68389">
        <ele>483.99</ele>
        <time>2019-11-03T10:50:22.000Z</time>
      </trkpt>
      <trkpt lat="44.78151" lon="4.68408">
        <ele>481.75</ele>
        <time>2019-11-03T10:50:32.000Z</time>
      </trkpt>
      <trkpt lat="44.7814" lon="4.6842">
        <ele>480.21</ele>
        <time>2019-11-03T10:50:42.000Z</time>
      </trkpt>
      <trkpt lat="44.78127" lon="4.68428">
        <ele>479.23</ele>
        <time>2019-11-03T10:50:52.000Z</time>
      </trkpt>
      <trkpt lat="44.78114" lon="4.68436">
        <ele>478.28</ele>
        <time>2019-11-03T10:51:02.000Z</time>
      </trkpt>
      <trkpt lat="44.78103" lon="4.68449">
        <ele>477</ele>
        <time>2019-11-03T10:51:12.000Z</time>
      </trkpt>
      <trkpt lat="44.78092" lon="4.6846">
        <ele>475.81</ele>
        <time>2019-11-03T10:51:22.000Z</time>
      </trkpt>
      <trkpt lat="44.78081" lon="4.68472">
        <ele>474.44</ele>
        <time>2019-11-03T10:51:32.000Z</time>
      </trkpt>
      <trkpt lat="44.78071" lon="4.68489">
        <ele>472.45</ele>
        <time>2019-11-03T10:51:42.000Z</time>
      </trkpt>
      <trkpt lat="44.78061" lon="4.68502">
        <ele>470.5</ele>
        <time>2019-11-03T10:51:52.000Z</time>
      </trkpt>
      <trkpt lat="44.78049" lon="4.68513">
        <ele>468.35</ele>
        <time>2019-11-03T10:52:02.000Z</time>
      </trkpt>
      <trkpt lat="44.78041" lon="4.68528">
        <ele>466.07</ele>
        <time>2019-11-03T10:52:12.000Z</time>
      </trkpt>
      <trkpt lat="44.78028" lon="4.68539">
        <ele>463.99</ele>
        <time>2019-11-03T10:52:22.000Z</time>
      </trkpt>
      <trkpt lat="44.78015" lon="4.68546">
        <ele>462.68</ele>
        <time>2019-11-03T10:52:32.000Z</time>
      </trkpt>
      <trkpt lat="44.78002" lon="4.68553">
        <ele>461.73</ele>
        <time>2019-11-03T10:52:42.000Z</time>
      </trkpt>
      <trkpt lat="44.77991" lon="4.68559">
        <ele>461.22</ele>
        <time>2019-11-03T10:52:52.000Z</time>
      </trkpt>
      <trkpt lat="44.77984" lon="4.68563">
        <ele>461.02</ele>
        <time>2019-11-03T10:53:02.000Z</time>
      </trkpt>
      <trkpt lat="44.77988" lon="4.68567">
        <ele>460.68</ele>
        <time>2019-11-03T10:53:12.000Z</time>
      </trkpt>
      <trkpt lat="44.77995" lon="4.68587">
        <ele>458.7</ele>
        <time>2019-11-03T10:53:22.000Z</time>
      </trkpt>
      <trkpt lat="44.77987" lon="4.68606">
        <ele>456.71</ele>
        <time>2019-11-03T10:53:32.000Z</time>
      </trkpt>
      <trkpt lat="44.77979" lon="4.68628">
        <ele>454.45</ele>
        <time>2019-11-03T10:53:42.000Z</time>
      </trkpt>
      <trkpt lat="44.77971" lon="4.68649">
        <ele>452.89</ele>
        <time>2019-11-03T10:53:52.000Z</time>
      </trkpt>
      <trkpt lat="44.77968" lon="4.68671">
        <ele>451.21</ele>
        <time>2019-11-03T10:54:02.000Z</time>
      </trkpt>
      <trkpt lat="44.77971" lon="4.68692">
        <ele>449.23</ele>
        <time>2019-11-03T10:54:12.000Z</time>
      </trkpt>
      <trkpt lat="44.77977" lon="4.68712">
        <ele>447.49</ele>
        <time>2019-11-03T10:54:22.000Z</time>
      </trkpt>
      <trkpt lat="44.77978" lon="4.68732">
        <ele>446.67</ele>
        <time>2019-11-03T10:54:32.000Z</time>
      </trkpt>
      <trkpt lat="44.7797" lon="4.68757">
        <ele>445.44</ele>
        <time>2019-11-03T10:54:42.000Z</time>
      </trkpt>
      <trkpt lat="44.77951" lon="4.68763">
        <ele>443.88</ele>
        <time>2019-11-03T10:54:52.000Z</time>
      </trkpt>
      <trkpt lat="44.77935" lon="4.68764">
        <ele>443.48</ele>
        <time>2019-11-03T10:55:02.000Z</time>
      </trkpt>
      <trkpt lat="44.7792" lon="4.68768">
        <ele>442.22</ele>
        <time>2019-11-03T10:55:12.000Z</time>
      </trkpt>
      <trkpt lat="44.77912" lon="4.68782">
        <ele>437.44</ele>
        <time>2019-11-03T10:55:22.000Z</time>
      </trkpt>
      <trkpt lat="44.779" lon="4.68789">
        <ele>434.7</ele>
        <time>2019-11-03T10:55:36.000Z</time>
      </trkpt>
      <trkpt lat="44.77884" lon="4.68802">
        <ele>430.91</ele>
        <time>2019-11-03T10:55:46.000Z</time>
      </trkpt>
      <trkpt lat="44.7787" lon="4.68812">
        <ele>429.08</ele>
        <time>2019-11-03T10:55:56.000Z</time>
      </trkpt>
      <trkpt lat="44.77857" lon="4.68823">
        <ele>427.7</ele>
        <time>2019-11-03T10:56:06.000Z</time>
      </trkpt>
      <trkpt lat="44.77841" lon="4.68831">
        <ele>427.69</ele>
        <time>2019-11-03T10:56:16.000Z</time>
      </trkpt>
      <trkpt lat="44.77826" lon="4.68822">
        <ele>431.58</ele>
        <time>2019-11-03T10:56:26.000Z</time>
      </trkpt>
      <trkpt lat="44.77816" lon="4.68824">
        <ele>432.62</ele>
        <time>2019-11-03T10:56:36.000Z</time>
      </trkpt>
      <trkpt lat="44.77807" lon="4.68838">
        <ele>430.55</ele>
        <time>2019-11-03T10:56:46.000Z</time>
      </trkpt>
      <trkpt lat="44.77803" lon="4.68854">
        <ele>427.51</ele>
        <time>2019-11-03T10:56:56.000Z</time>
      </trkpt>
      <trkpt lat="44.77807" lon="4.68873">
        <ele>422.67</ele>
        <time>2019-11-03T10:57:06.000Z</time>
      </trkpt>
      <trkpt lat="44.77799" lon="4.68893">
        <ele>420.27</ele>
        <time>2019-11-03T10:57:16.000Z</time>
      </trkpt>
      <trkpt lat="44.77788" lon="4.6891">
        <ele>419.44</ele>
        <time>2019-11-03T10:57:26.000Z</time>
      </trkpt>
      <trkpt lat="44.77779" lon="4.68922">
        <ele>418.97</ele>
        <time>2019-11-03T10:57:36.000Z</time>
      </trkpt>
      <trkpt lat="44.77768" lon="4.68935">
        <ele>417.74</ele>
        <time>2019-11-03T10:57:46.000Z</time>
      </trkpt>
      <trkpt lat="44.77759" lon="4.68944">
        <ele>416.38</ele>
        <time>2019-11-03T10:57:56.000Z</time>
      </trkpt>
      <trkpt lat="44.77754" lon="4.68947">
        <ele>415.98</ele>
        <time>2019-11-03T10:58:06.000Z</time>
      </trkpt>
      <trkpt lat="44.77746" lon="4.68951">
        <ele>414.91</ele>
        <time>2019-11-03T10:58:16.000Z</time>
      </trkpt>
      <trkpt lat="44.77741" lon="4.68953">
        <ele>414.7</ele>
        <time>2019-11-03T10:58:26.000Z</time>
      </trkpt>
      <trkpt lat="44.77746" lon="4.68954">
        <ele>414.15</ele>
        <time>2019-11-03T10:58:36.000Z</time>
      </trkpt>
      <trkpt lat="44.77761" lon="4.6895">
        <ele>414.65</ele>
        <time>2019-11-03T10:58:46.000Z</time>
      </trkpt>
      <trkpt lat="44.77771" lon="4.68943">
        <ele>415.75</ele>
        <time>2019-11-03T10:58:56.000Z</time>
      </trkpt>
      <trkpt lat="44.77783" lon="4.68937">
        <ele>415.9</ele>
        <time>2019-11-03T10:59:06.000Z</time>
      </trkpt>
      <trkpt lat="44.77791" lon="4.6893">
        <ele>416.05</ele>
        <time>2019-11-03T10:59:16.000Z</time>
      </trkpt>
      <trkpt lat="44.77803" lon="4.68922">
        <ele>415.81</ele>
        <time>2019-11-03T10:59:26.000Z</time>
      </trkpt>
      <trkpt lat="44.7782" lon="4.68909">
        <ele>415.84</ele>
        <time>2019-11-03T10:59:36.000Z</time>
      </trkpt>
      <trkpt lat="44.77831" lon="4.68897">
        <ele>416.98</ele>
        <time>2019-11-03T10:59:46.000Z</time>
      </trkpt>
      <trkpt lat="44.77841" lon="4.68891">
        <ele>418.07</ele>
        <time>2019-11-03T10:59:56.000Z</time>
      </trkpt>
      <trkpt lat="44.77853" lon="4.6889">
        <ele>419.47</ele>
        <time>2019-11-03T11:00:06.000Z</time>
      </trkpt>
      <trkpt lat="44.77857" lon="4.68904">
        <ele>420.11</ele>
        <time>2019-11-03T11:00:16.000Z</time>
      </trkpt>
      <trkpt lat="44.77848" lon="4.68915">
        <ele>418.37</ele>
        <time>2019-11-03T11:00:26.000Z</time>
      </trkpt>
      <trkpt lat="44.77839" lon="4.6893">
        <ele>417.23</ele>
        <time>2019-11-03T11:00:36.000Z</time>
      </trkpt>
      <trkpt lat="44.77831" lon="4.6895">
        <ele>417.32</ele>
        <time>2019-11-03T11:00:46.000Z</time>
      </trkpt>
      <trkpt lat="44.77827" lon="4.68955">
        <ele>416.94</ele>
        <time>2019-11-03T11:00:56.000Z</time>
      </trkpt>
      <trkpt lat="44.77818" lon="4.68968">
        <ele>416.53</ele>
        <time>2019-11-03T11:01:06.000Z</time>
      </trkpt>
      <trkpt lat="44.77813" lon="4.68978">
        <ele>416.13</ele>
        <time>2019-11-03T11:01:16.000Z</time>
      </trkpt>
      <trkpt lat="44.77804" lon="4.6899">
        <ele>414.78</ele>
        <time>2019-11-03T11:01:26.000Z</time>
      </trkpt>
      <trkpt lat="44.77792" lon="4.69003">
        <ele>412.48</ele>
        <time>2019-11-03T11:01:36.000Z</time>
      </trkpt>
      <trkpt lat="44.77788" lon="4.69014">
        <ele>412.36</ele>
        <time>2019-11-03T11:01:46.000Z</time>
      </trkpt>
      <trkpt lat="44.77781" lon="4.69031">
        <ele>412.69</ele>
        <time>2019-11-03T11:01:56.000Z</time>
      </trkpt>
      <trkpt lat="44.77769" lon="4.69049">
        <ele>411.5</ele>
        <time>2019-11-03T11:02:06.000Z</time>
      </trkpt>
      <trkpt lat="44.77761" lon="4.69057">
        <ele>409.92</ele>
        <time>2019-11-03T11:02:16.000Z</time>
      </trkpt>
      <trkpt lat="44.77751" lon="4.69069">
        <ele>408.56</ele>
        <time>2019-11-03T11:02:26.000Z</time>
      </trkpt>
      <trkpt lat="44.77738" lon="4.6908">
        <ele>405.79</ele>
        <time>2019-11-03T11:02:36.000Z</time>
      </trkpt>
      <trkpt lat="44.77725" lon="4.69094">
        <ele>404.07</ele>
        <time>2019-11-03T11:02:46.000Z</time>
      </trkpt>
      <trkpt lat="44.77711" lon="4.69104">
        <ele>401.64</ele>
        <time>2019-11-03T11:02:56.000Z</time>
      </trkpt>
      <trkpt lat="44.77697" lon="4.69115">
        <ele>399.82</ele>
        <time>2019-11-03T11:03:06.000Z</time>
      </trkpt>
      <trkpt lat="44.77684" lon="4.69124">
        <ele>397.53</ele>
        <time>2019-11-03T11:03:16.000Z</time>
      </trkpt>
      <trkpt lat="44.77672" lon="4.69132">
        <ele>395.4</ele>
        <time>2019-11-03T11:03:26.000Z</time>
      </trkpt>
      <trkpt lat="44.77659" lon="4.69143">
        <ele>394</ele>
        <time>2019-11-03T11:03:36.000Z</time>
      </trkpt>
      <trkpt lat="44.77649" lon="4.69154">
        <ele>392.81</ele>
        <time>2019-11-03T11:03:46.000Z</time>
      </trkpt>
      <trkpt lat="44.77638" lon="4.69165">
        <ele>391.52</ele>
        <time>2019-11-03T11:03:56.000Z</time>
      </trkpt>
      <trkpt lat="44.77628" lon="4.69176">
        <ele>390.12</ele>
        <time>2019-11-03T11:04:06.000Z</time>
      </trkpt>
      <trkpt lat="44.77618" lon="4.69184">
        <ele>388.16</ele>
        <time>2019-11-03T11:04:16.000Z</time>
      </trkpt>
      <trkpt lat="44.77609" lon="4.69199">
        <ele>390.02</ele>
        <time>2019-11-03T11:04:26.000Z</time>
      </trkpt>
      <trkpt lat="44.77597" lon="4.69208">
        <ele>387.84</ele>
        <time>2019-11-03T11:04:36.000Z</time>
      </trkpt>
      <trkpt lat="44.77583" lon="4.69215">
        <ele>384.43</ele>
        <time>2019-11-03T11:04:46.000Z</time>
      </trkpt>
      <trkpt lat="44.77568" lon="4.69219">
        <ele>379.18</ele>
        <time>2019-11-03T11:04:56.000Z</time>
      </trkpt>
      <trkpt lat="44.77555" lon="4.69232">
        <ele>377.65</ele>
        <time>2019-11-03T11:05:06.000Z</time>
      </trkpt>
      <trkpt lat="44.77545" lon="4.69243">
        <ele>376.37</ele>
        <time>2019-11-03T11:05:16.000Z</time>
      </trkpt>
      <trkpt lat="44.77541" lon="4.6926">
        <ele>378.6</ele>
        <time>2019-11-03T11:05:26.000Z</time>
      </trkpt>
      <trkpt lat="44.77534" lon="4.69278">
        <ele>380.19</ele>
        <time>2019-11-03T11:05:36.000Z</time>
      </trkpt>
      <trkpt lat="44.77522" lon="4.69284">
        <ele>375.57</ele>
        <time>2019-11-03T11:05:46.000Z</time>
      </trkpt>
      <trkpt lat="44.77509" lon="4.69295">
        <ele>371.11</ele>
        <time>2019-11-03T11:05:56.000Z</time>
      </trkpt>
      <trkpt lat="44.77499" lon="4.69311">
        <ele>369.88</ele>
        <time>2019-11-03T11:06:06.000Z</time>
      </trkpt>
      <trkpt lat="44.77492" lon="4.69328">
        <ele>370.53</ele>
        <time>2019-11-03T11:06:16.000Z</time>
      </trkpt>
      <trkpt lat="44.77485" lon="4.69344">
        <ele>370.61</ele>
        <time>2019-11-03T11:06:26.000Z</time>
      </trkpt>
      <trkpt lat="44.77476" lon="4.69361">
        <ele>370.07</ele>
        <time>2019-11-03T11:06:36.000Z</time>
      </trkpt>
      <trkpt lat="44.77474" lon="4.6938">
        <ele>373.79</ele>
        <time>2019-11-03T11:06:46.000Z</time>
      </trkpt>
      <trkpt lat="44.77469" lon="4.69395">
        <ele>375.42</ele>
        <time>2019-11-03T11:06:56.000Z</time>
      </trkpt>
      <trkpt lat="44.77456" lon="4.694">
        <ele>369.63</ele>
        <time>2019-11-03T11:07:06.000Z</time>
      </trkpt>
      <trkpt lat="44.77443" lon="4.69404">
        <ele>364.29</ele>
        <time>2019-11-03T11:07:16.000Z</time>
      </trkpt>
      <trkpt lat="44.77429" lon="4.69413">
        <ele>359.53</ele>
        <time>2019-11-03T11:07:26.000Z</time>
      </trkpt>
      <trkpt lat="44.77418" lon="4.69424">
        <ele>356.95</ele>
        <time>2019-11-03T11:07:36.000Z</time>
      </trkpt>
      <trkpt lat="44.77411" lon="4.69433">
        <ele>355.29</ele>
        <time>2019-11-03T11:07:46.000Z</time>
      </trkpt>
      <trkpt lat="44.77401" lon="4.69446">
        <ele>353.58</ele>
        <time>2019-11-03T11:07:56.000Z</time>
      </trkpt>
      <trkpt lat="44.77391" lon="4.69462">
        <ele>352.16</ele>
        <time>2019-11-03T11:08:06.000Z</time>
      </trkpt>
      <trkpt lat="44.77386" lon="4.69474">
        <ele>352.2</ele>
        <time>2019-11-03T11:08:16.000Z</time>
      </trkpt>
      <trkpt lat="44.77386" lon="4.69456">
        <ele>347.25</ele>
        <time>2019-11-03T11:08:27.000Z</time>
      </trkpt>
      <trkpt lat="44.77392" lon="4.69442">
        <ele>347.16</ele>
        <time>2019-11-03T11:08:37.000Z</time>
      </trkpt>
      <trkpt lat="44.774" lon="4.69427">
        <ele>347.74</ele>
        <time>2019-11-03T11:08:47.000Z</time>
      </trkpt>
      <trkpt lat="44.7741" lon="4.69412">
        <ele>349.45</ele>
        <time>2019-11-03T11:08:57.000Z</time>
      </trkpt>
      <trkpt lat="44.77418" lon="4.69398">
        <ele>349.64</ele>
        <time>2019-11-03T11:09:07.000Z</time>
      </trkpt>
      <trkpt lat="44.77425" lon="4.69386">
        <ele>350.01</ele>
        <time>2019-11-03T11:09:17.000Z</time>
      </trkpt>
      <trkpt lat="44.77435" lon="4.69376">
        <ele>352.44</ele>
        <time>2019-11-03T11:09:27.000Z</time>
      </trkpt>
      <trkpt lat="44.77444" lon="4.69361">
        <ele>352.71</ele>
        <time>2019-11-03T11:09:37.000Z</time>
      </trkpt>
      <trkpt lat="44.77447" lon="4.6934">
        <ele>348.92</ele>
        <time>2019-11-03T11:09:47.000Z</time>
      </trkpt>
      <trkpt lat="44.77452" lon="4.69322">
        <ele>348.15</ele>
        <time>2019-11-03T11:09:57.000Z</time>
      </trkpt>
      <trkpt lat="44.77456" lon="4.69302">
        <ele>345.93</ele>
        <time>2019-11-03T11:10:07.000Z</time>
      </trkpt>
      <trkpt lat="44.77457" lon="4.69285">
        <ele>343.7</ele>
        <time>2019-11-03T11:10:17.000Z</time>
      </trkpt>
      <trkpt lat="44.77462" lon="4.69268">
        <ele>343.43</ele>
        <time>2019-11-03T11:10:27.000Z</time>
      </trkpt>
      <trkpt lat="44.77472" lon="4.6925">
        <ele>345.24</ele>
        <time>2019-11-03T11:10:37.000Z</time>
      </trkpt>
      <trkpt lat="44.77482" lon="4.69236">
        <ele>347.72</ele>
        <time>2019-11-03T11:10:47.000Z</time>
      </trkpt>
      <trkpt lat="44.77486" lon="4.69221">
        <ele>347.07</ele>
        <time>2019-11-03T11:10:57.000Z</time>
      </trkpt>
      <trkpt lat="44.77486" lon="4.69204">
        <ele>345.25</ele>
        <time>2019-11-03T11:11:07.000Z</time>
      </trkpt>
      <trkpt lat="44.77485" lon="4.69197">
        <ele>344.47</ele>
        <time>2019-11-03T11:11:17.000Z</time>
      </trkpt>
      <trkpt lat="44.77481" lon="4.69201">
        <ele>343.75</ele>
        <time>2019-11-03T11:11:27.000Z</time>
      </trkpt>
      <trkpt lat="44.77473" lon="4.69212">
        <ele>342.26</ele>
        <time>2019-11-03T11:11:37.000Z</time>
      </trkpt>
      <trkpt lat="44.77461" lon="4.69221">
        <ele>339.34</ele>
        <time>2019-11-03T11:11:47.000Z</time>
      </trkpt>
      <trkpt lat="44.77451" lon="4.69224">
        <ele>336.67</ele>
        <time>2019-11-03T11:11:57.000Z</time>
      </trkpt>
      <trkpt lat="44.77444" lon="4.69222">
        <ele>334.81</ele>
        <time>2019-11-03T11:12:07.000Z</time>
      </trkpt>
      <trkpt lat="44.77436" lon="4.69223">
        <ele>333.22</ele>
        <time>2019-11-03T11:12:17.000Z</time>
      </trkpt>
      <trkpt lat="44.77436" lon="4.6923">
        <ele>332.92</ele>
        <time>2019-11-03T11:12:27.000Z</time>
      </trkpt>
      <trkpt lat="44.77431" lon="4.69236">
        <ele>331.59</ele>
        <time>2019-11-03T11:12:37.000Z</time>
      </trkpt>
      <trkpt lat="44.77429" lon="4.69229">
        <ele>331.44</ele>
        <time>2019-11-03T11:12:47.000Z</time>
      </trkpt>
      <trkpt lat="44.77421" lon="4.69235">
        <ele>329.67</ele>
        <time>2019-11-03T11:12:57.000Z</time>
      </trkpt>
      <trkpt lat="44.77411" lon="4.69242">
        <ele>327.72</ele>
        <time>2019-11-03T11:13:07.000Z</time>
      </trkpt>
      <trkpt lat="44.77405" lon="4.69248">
        <ele>326.44</ele>
        <time>2019-11-03T11:13:17.000Z</time>
      </trkpt>
      <trkpt lat="44.77401" lon="4.69257">
        <ele>325.09</ele>
        <time>2019-11-03T11:13:27.000Z</time>
      </trkpt>
      <trkpt lat="44.7739" lon="4.69266">
        <ele>323.06</ele>
        <time>2019-11-03T11:13:37.000Z</time>
      </trkpt>
      <trkpt lat="44.7738" lon="4.69274">
        <ele>321</ele>
        <time>2019-11-03T11:13:47.000Z</time>
      </trkpt>
      <trkpt lat="44.77366" lon="4.69285">
        <ele>318.24</ele>
        <time>2019-11-03T11:13:57.000Z</time>
      </trkpt>
      <trkpt lat="44.77355" lon="4.6929">
        <ele>316.55</ele>
        <time>2019-11-03T11:14:07.000Z</time>
      </trkpt>
      <trkpt lat="44.77344" lon="4.69294">
        <ele>315.13</ele>
        <time>2019-11-03T11:14:17.000Z</time>
      </trkpt>
      <trkpt lat="44.7733" lon="4.69294">
        <ele>315.34</ele>
        <time>2019-11-03T11:14:27.000Z</time>
      </trkpt>
      <trkpt lat="44.77319" lon="4.69304">
        <ele>313.86</ele>
        <time>2019-11-03T11:14:37.000Z</time>
      </trkpt>
      <trkpt lat="44.77312" lon="4.69317">
        <ele>311.76</ele>
        <time>2019-11-03T11:14:47.000Z</time>
      </trkpt>
      <trkpt lat="44.77304" lon="4.69331">
        <ele>309.91</ele>
        <time>2019-11-03T11:14:57.000Z</time>
      </trkpt>
      <trkpt lat="44.77295" lon="4.69345">
        <ele>308.25</ele>
        <time>2019-11-03T11:15:07.000Z</time>
      </trkpt>
      <trkpt lat="44.77291" lon="4.69359">
        <ele>306.32</ele>
        <time>2019-11-03T11:15:17.000Z</time>
      </trkpt>
      <trkpt lat="44.77287" lon="4.69371">
        <ele>304.54</ele>
        <time>2019-11-03T11:15:27.000Z</time>
      </trkpt>
      <trkpt lat="44.77276" lon="4.69385">
        <ele>302.71</ele>
        <time>2019-11-03T11:15:37.000Z</time>
      </trkpt>
      <trkpt lat="44.77268" lon="4.694">
        <ele>300.17</ele>
        <time>2019-11-03T11:15:47.000Z</time>
      </trkpt>
      <trkpt lat="44.77259" lon="4.69417">
        <ele>297.24</ele>
        <time>2019-11-03T11:15:57.000Z</time>
      </trkpt>
      <trkpt lat="44.77244" lon="4.69436">
        <ele>294.25</ele>
        <time>2019-11-03T11:16:07.000Z</time>
      </trkpt>
      <trkpt lat="44.77234" lon="4.69453">
        <ele>291.62</ele>
        <time>2019-11-03T11:16:17.000Z</time>
      </trkpt>
      <trkpt lat="44.77221" lon="4.69468">
        <ele>289.88</ele>
        <time>2019-11-03T11:16:27.000Z</time>
      </trkpt>
      <trkpt lat="44.77208" lon="4.69478">
        <ele>289.84</ele>
        <time>2019-11-03T11:16:37.000Z</time>
      </trkpt>
      <trkpt lat="44.77197" lon="4.69489">
        <ele>288.54</ele>
        <time>2019-11-03T11:16:47.000Z</time>
      </trkpt>
      <trkpt lat="44.77186" lon="4.69501">
        <ele>286.95</ele>
        <time>2019-11-03T11:16:57.000Z</time>
      </trkpt>
      <trkpt lat="44.77171" lon="4.69512">
        <ele>285.85</ele>
        <time>2019-11-03T11:17:07.000Z</time>
      </trkpt>
      <trkpt lat="44.77161" lon="4.69524">
        <ele>283.63</ele>
        <time>2019-11-03T11:17:17.000Z</time>
      </trkpt>
      <trkpt lat="44.77151" lon="4.69536">
        <ele>282.08</ele>
        <time>2019-11-03T11:17:27.000Z</time>
      </trkpt>
      <trkpt lat="44.7714" lon="4.69546">
        <ele>283.05</ele>
        <time>2019-11-03T11:17:37.000Z</time>
      </trkpt>
      <trkpt lat="44.7713" lon="4.69554">
        <ele>285.06</ele>
        <time>2019-11-03T11:17:47.000Z</time>
      </trkpt>
      <trkpt lat="44.77125" lon="4.69571">
        <ele>282.23</ele>
        <time>2019-11-03T11:17:57.000Z</time>
      </trkpt>
      <trkpt lat="44.77121" lon="4.69591">
        <ele>278.15</ele>
        <time>2019-11-03T11:18:07.000Z</time>
      </trkpt>
      <trkpt lat="44.77118" lon="4.69607">
        <ele>274.91</ele>
        <time>2019-11-03T11:18:17.000Z</time>
      </trkpt>
      <trkpt lat="44.77114" lon="4.69622">
        <ele>273.08</ele>
        <time>2019-11-03T11:18:27.000Z</time>
      </trkpt>
      <trkpt lat="44.77109" lon="4.69638">
        <ele>271.11</ele>
        <time>2019-11-03T11:18:37.000Z</time>
      </trkpt>
      <trkpt lat="44.77096" lon="4.69654">
        <ele>273.18</ele>
        <time>2019-11-03T11:18:47.000Z</time>
      </trkpt>
      <trkpt lat="44.77085" lon="4.69669">
        <ele>273.82</ele>
        <time>2019-11-03T11:18:57.000Z</time>
      </trkpt>
      <trkpt lat="44.77073" lon="4.69677">
        <ele>276.21</ele>
        <time>2019-11-03T11:19:07.000Z</time>
      </trkpt>
      <trkpt lat="44.77065" lon="4.69688">
        <ele>277.04</ele>
        <time>2019-11-03T11:19:17.000Z</time>
      </trkpt>
      <trkpt lat="44.77061" lon="4.69709">
        <ele>273.1</ele>
        <time>2019-11-03T11:19:27.000Z</time>
      </trkpt>
      <trkpt lat="44.77054" lon="4.69733">
        <ele>270.38</ele>
        <time>2019-11-03T11:19:37.000Z</time>
      </trkpt>
      <trkpt lat="44.7705" lon="4.69748">
        <ele>268.87</ele>
        <time>2019-11-03T11:19:47.000Z</time>
      </trkpt>
      <trkpt lat="44.77048" lon="4.69766">
        <ele>266.49</ele>
        <time>2019-11-03T11:19:57.000Z</time>
      </trkpt>
      <trkpt lat="44.77046" lon="4.69783">
        <ele>264.04</ele>
        <time>2019-11-03T11:20:07.000Z</time>
      </trkpt>
      <trkpt lat="44.77043" lon="4.69802">
        <ele>262.37</ele>
        <time>2019-11-03T11:20:17.000Z</time>
      </trkpt>
      <trkpt lat="44.7704" lon="4.69822">
        <ele>260.11</ele>
        <time>2019-11-03T11:20:27.000Z</time>
      </trkpt>
      <trkpt lat="44.77033" lon="4.6984">
        <ele>260.62</ele>
        <time>2019-11-03T11:20:37.000Z</time>
      </trkpt>
      <trkpt lat="44.77023" lon="4.69856">
        <ele>263.44</ele>
        <time>2019-11-03T11:20:47.000Z</time>
      </trkpt>
      <trkpt lat="44.77019" lon="4.69873">
        <ele>262.26</ele>
        <time>2019-11-03T11:20:57.000Z</time>
      </trkpt>
      <trkpt lat="44.7701" lon="4.69887">
        <ele>263.37</ele>
        <time>2019-11-03T11:21:07.000Z</time>
      </trkpt>
      <trkpt lat="44.77" lon="4.69902">
        <ele>263.59</ele>
        <time>2019-11-03T11:21:17.000Z</time>
      </trkpt>
      <trkpt lat="44.76994" lon="4.69915">
        <ele>262.32</ele>
        <time>2019-11-03T11:21:27.000Z</time>
      </trkpt>
      <trkpt lat="44.7699" lon="4.69931">
        <ele>259.57</ele>
        <time>2019-11-03T11:21:37.000Z</time>
      </trkpt>
      <trkpt lat="44.76984" lon="4.69949">
        <ele>256.62</ele>
        <time>2019-11-03T11:21:47.000Z</time>
      </trkpt>
      <trkpt lat="44.76977" lon="4.69968">
        <ele>253.64</ele>
        <time>2019-11-03T11:21:57.000Z</time>
      </trkpt>
      <trkpt lat="44.76969" lon="4.69982">
        <ele>253.02</ele>
        <time>2019-11-03T11:22:07.000Z</time>
      </trkpt>
      <trkpt lat="44.76959" lon="4.69992">
        <ele>254.83</ele>
        <time>2019-11-03T11:22:17.000Z</time>
      </trkpt>
      <trkpt lat="44.76965" lon="4.69993">
        <ele>252.19</ele>
        <time>2019-11-03T11:22:27.000Z</time>
      </trkpt>
      <trkpt lat="44.76974" lon="4.69983">
        <ele>250.61</ele>
        <time>2019-11-03T11:22:37.000Z</time>
      </trkpt>
      <trkpt lat="44.76985" lon="4.69969">
        <ele>250.21</ele>
        <time>2019-11-03T11:22:47.000Z</time>
      </trkpt>
      <trkpt lat="44.76994" lon="4.69955">
        <ele>251.44</ele>
        <time>2019-11-03T11:22:57.000Z</time>
      </trkpt>
      <trkpt lat="44.76999" lon="4.6994">
        <ele>254</ele>
        <time>2019-11-03T11:23:07.000Z</time>
      </trkpt>
      <trkpt lat="44.77004" lon="4.69929">
        <ele>255.41</ele>
        <time>2019-11-03T11:23:17.000Z</time>
      </trkpt>
      <trkpt lat="44.77006" lon="4.69936">
        <ele>252.64</ele>
        <time>2019-11-03T11:23:27.000Z</time>
      </trkpt>
      <trkpt lat="44.77003" lon="4.69952">
        <ele>249.15</ele>
        <time>2019-11-03T11:23:37.000Z</time>
      </trkpt>
      <trkpt lat="44.76996" lon="4.6997">
        <ele>246.4</ele>
        <time>2019-11-03T11:23:47.000Z</time>
      </trkpt>
      <trkpt lat="44.76995" lon="4.69984">
        <ele>242.82</ele>
        <time>2019-11-03T11:23:57.000Z</time>
      </trkpt>
      <trkpt lat="44.7699" lon="4.70001">
        <ele>239.85</ele>
        <time>2019-11-03T11:24:07.000Z</time>
      </trkpt>
      <trkpt lat="44.76985" lon="4.70017">
        <ele>237.34</ele>
        <time>2019-11-03T11:24:17.000Z</time>
      </trkpt>
      <trkpt lat="44.76978" lon="4.70032">
        <ele>235.73</ele>
        <time>2019-11-03T11:24:27.000Z</time>
      </trkpt>
      <trkpt lat="44.76971" lon="4.70051">
        <ele>233.67</ele>
        <time>2019-11-03T11:24:37.000Z</time>
      </trkpt>
      <trkpt lat="44.7696" lon="4.70065">
        <ele>234.24</ele>
        <time>2019-11-03T11:24:47.000Z</time>
      </trkpt>
      <trkpt lat="44.76951" lon="4.70077">
        <ele>235.42</ele>
        <time>2019-11-03T11:24:57.000Z</time>
      </trkpt>
      <trkpt lat="44.76943" lon="4.70093">
        <ele>234.7</ele>
        <time>2019-11-03T11:25:07.000Z</time>
      </trkpt>
      <trkpt lat="44.7694" lon="4.7011">
        <ele>231.6</ele>
        <time>2019-11-03T11:25:17.000Z</time>
      </trkpt>
      <trkpt lat="44.76937" lon="4.70122">
        <ele>229.34</ele>
        <time>2019-11-03T11:25:27.000Z</time>
      </trkpt>
      <trkpt lat="44.76932" lon="4.70135">
        <ele>227.47</ele>
        <time>2019-11-03T11:25:37.000Z</time>
      </trkpt>
      <trkpt lat="44.76926" lon="4.70149">
        <ele>225.3</ele>
        <time>2019-11-03T11:25:47.000Z</time>
      </trkpt>
      <trkpt lat="44.76924" lon="4.70164">
        <ele>221.78</ele>
        <time>2019-11-03T11:25:57.000Z</time>
      </trkpt>
      <trkpt lat="44.76914" lon="4.70181">
        <ele>218.83</ele>
        <time>2019-11-03T11:26:07.000Z</time>
      </trkpt>
      <trkpt lat="44.76906" lon="4.70188">
        <ele>217.75</ele>
        <time>2019-11-03T11:26:17.000Z</time>
      </trkpt>
      <trkpt lat="44.76896" lon="4.70189">
        <ele>218.78</ele>
        <time>2019-11-03T11:26:27.000Z</time>
      </trkpt>
      <trkpt lat="44.76878" lon="4.70198">
        <ele>218.99</ele>
        <time>2019-11-03T11:26:37.000Z</time>
      </trkpt>
      <trkpt lat="44.76867" lon="4.70202">
        <ele>219.34</ele>
        <time>2019-11-03T11:26:47.000Z</time>
      </trkpt>
      <trkpt lat="44.76853" lon="4.70198">
        <ele>221.84</ele>
        <time>2019-11-03T11:26:57.000Z</time>
      </trkpt>
      <trkpt lat="44.7684" lon="4.70193">
        <ele>223.91</ele>
        <time>2019-11-03T11:27:07.000Z</time>
      </trkpt>
      <trkpt lat="44.76829" lon="4.70189">
        <ele>224.66</ele>
        <time>2019-11-03T11:27:17.000Z</time>
      </trkpt>
      <trkpt lat="44.76817" lon="4.70183">
        <ele>224.95</ele>
        <time>2019-11-03T11:27:27.000Z</time>
      </trkpt>
      <trkpt lat="44.76805" lon="4.7018">
        <ele>223.89</ele>
        <time>2019-11-03T11:27:37.000Z</time>
      </trkpt>
      <trkpt lat="44.76792" lon="4.70175">
        <ele>222.27</ele>
        <time>2019-11-03T11:27:47.000Z</time>
      </trkpt>
      <trkpt lat="44.7678" lon="4.70169">
        <ele>220.51</ele>
        <time>2019-11-03T11:27:57.000Z</time>
      </trkpt>
      <trkpt lat="44.76765" lon="4.70172">
        <ele>216.9</ele>
        <time>2019-11-03T11:28:07.000Z</time>
      </trkpt>
      <trkpt lat="44.76752" lon="4.70169">
        <ele>215.03</ele>
        <time>2019-11-03T11:28:17.000Z</time>
      </trkpt>
      <trkpt lat="44.76739" lon="4.70164">
        <ele>213.81</ele>
        <time>2019-11-03T11:28:27.000Z</time>
      </trkpt>
      <trkpt lat="44.76729" lon="4.70157">
        <ele>213.27</ele>
        <time>2019-11-03T11:28:37.000Z</time>
      </trkpt>
      <trkpt lat="44.76718" lon="4.70148">
        <ele>212.94</ele>
        <time>2019-11-03T11:28:47.000Z</time>
      </trkpt>
      <trkpt lat="44.76707" lon="4.70142">
        <ele>212.32</ele>
        <time>2019-11-03T11:28:57.000Z</time>
      </trkpt>
      <trkpt lat="44.76695" lon="4.70149">
        <ele>210.43</ele>
        <time>2019-11-03T11:29:07.000Z</time>
      </trkpt>
      <trkpt lat="44.76683" lon="4.70152">
        <ele>208.83</ele>
        <time>2019-11-03T11:29:17.000Z</time>
      </trkpt>
      <trkpt lat="44.76671" lon="4.70158">
        <ele>207.14</ele>
        <time>2019-11-03T11:29:27.000Z</time>
      </trkpt>
      <trkpt lat="44.76659" lon="4.70164">
        <ele>205.31</ele>
        <time>2019-11-03T11:29:37.000Z</time>
      </trkpt>
      <trkpt lat="44.76647" lon="4.70172">
        <ele>203.6</ele>
        <time>2019-11-03T11:29:47.000Z</time>
      </trkpt>
      <trkpt lat="44.76636" lon="4.70179">
        <ele>202.01</ele>
        <time>2019-11-03T11:29:57.000Z</time>
      </trkpt>
      <trkpt lat="44.76623" lon="4.70188">
        <ele>200.21</ele>
        <time>2019-11-03T11:30:07.000Z</time>
      </trkpt>
      <trkpt lat="44.7661" lon="4.70193">
        <ele>198.67</ele>
        <time>2019-11-03T11:30:17.000Z</time>
      </trkpt>
      <trkpt lat="44.76596" lon="4.70198">
        <ele>197.09</ele>
        <time>2019-11-03T11:30:27.000Z</time>
      </trkpt>
      <trkpt lat="44.76584" lon="4.70195">
        <ele>196.12</ele>
        <time>2019-11-03T11:30:37.000Z</time>
      </trkpt>
      <trkpt lat="44.76584" lon="4.70175">
        <ele>196.73</ele>
        <time>2019-11-03T11:30:47.000Z</time>
      </trkpt>
      <trkpt lat="44.76586" lon="4.70162">
        <ele>197.49</ele>
        <time>2019-11-03T11:30:57.000Z</time>
      </trkpt>
      <trkpt lat="44.7659" lon="4.70145">
        <ele>198.44</ele>
        <time>2019-11-03T11:31:07.000Z</time>
      </trkpt>
      <trkpt lat="44.76588" lon="4.70127">
        <ele>198.63</ele>
        <time>2019-11-03T11:31:17.000Z</time>
      </trkpt>
      <trkpt lat="44.76579" lon="4.70113">
        <ele>197.98</ele>
        <time>2019-11-03T11:31:27.000Z</time>
      </trkpt>
      <trkpt lat="44.76569" lon="4.70098">
        <ele>197.33</ele>
        <time>2019-11-03T11:31:37.000Z</time>
      </trkpt>
      <trkpt lat="44.76561" lon="4.7008">
        <ele>197.2</ele>
        <time>2019-11-03T11:31:47.000Z</time>
      </trkpt>
      <trkpt lat="44.76552" lon="4.70067">
        <ele>196.99</ele>
        <time>2019-11-03T11:31:57.000Z</time>
      </trkpt>
      <trkpt lat="44.76542" lon="4.70061">
        <ele>196.13</ele>
        <time>2019-11-03T11:32:07.000Z</time>
      </trkpt>
      <trkpt lat="44.76534" lon="4.70051">
        <ele>195.91</ele>
        <time>2019-11-03T11:32:17.000Z</time>
      </trkpt>
      <trkpt lat="44.76527" lon="4.70032">
        <ele>196.48</ele>
        <time>2019-11-03T11:32:27.000Z</time>
      </trkpt>
      <trkpt lat="44.76523" lon="4.70017">
        <ele>197.11</ele>
        <time>2019-11-03T11:32:37.000Z</time>
      </trkpt>
      <trkpt lat="44.76518" lon="4.70001">
        <ele>197.57</ele>
        <time>2019-11-03T11:32:47.000Z</time>
      </trkpt>
      <trkpt lat="44.76514" lon="4.69985">
        <ele>198.34</ele>
        <time>2019-11-03T11:32:57.000Z</time>
      </trkpt>
      <trkpt lat="44.76509" lon="4.69971">
        <ele>198.58</ele>
        <time>2019-11-03T11:33:07.000Z</time>
      </trkpt>
      <trkpt lat="44.76501" lon="4.69957">
        <ele>198.33</ele>
        <time>2019-11-03T11:33:17.000Z</time>
      </trkpt>
      <trkpt lat="44.76492" lon="4.69943">
        <ele>197.89</ele>
        <time>2019-11-03T11:33:27.000Z</time>
      </trkpt>
      <trkpt lat="44.76481" lon="4.69931">
        <ele>197.04</ele>
        <time>2019-11-03T11:33:37.000Z</time>
      </trkpt>
      <trkpt lat="44.76471" lon="4.69921">
        <ele>196.14</ele>
        <time>2019-11-03T11:33:47.000Z</time>
      </trkpt>
      <trkpt lat="44.76459" lon="4.69912">
        <ele>195.22</ele>
        <time>2019-11-03T11:33:57.000Z</time>
      </trkpt>
      <trkpt lat="44.76451" lon="4.69901">
        <ele>195.12</ele>
        <time>2019-11-03T11:34:07.000Z</time>
      </trkpt>
      <trkpt lat="44.76442" lon="4.69893">
        <ele>194.64</ele>
        <time>2019-11-03T11:34:17.000Z</time>
      </trkpt>
      <trkpt lat="44.7643" lon="4.69882">
        <ele>194.09</ele>
        <time>2019-11-03T11:34:27.000Z</time>
      </trkpt>
      <trkpt lat="44.7642" lon="4.69869">
        <ele>194.13</ele>
        <time>2019-11-03T11:34:37.000Z</time>
      </trkpt>
      <trkpt lat="44.76409" lon="4.69856">
        <ele>193.94</ele>
        <time>2019-11-03T11:34:47.000Z</time>
      </trkpt>
      <trkpt lat="44.764" lon="4.69846">
        <ele>193.69</ele>
        <time>2019-11-03T11:34:57.000Z</time>
      </trkpt>
      <trkpt lat="44.76391" lon="4.69834">
        <ele>193.32</ele>
        <time>2019-11-03T11:35:07.000Z</time>
      </trkpt>
      <trkpt lat="44.76384" lon="4.69821">
        <ele>193.02</ele>
        <time>2019-11-03T11:35:17.000Z</time>
      </trkpt>
      <trkpt lat="44.76377" lon="4.69809">
        <ele>192.49</ele>
        <time>2019-11-03T11:35:27.000Z</time>
      </trkpt>
      <trkpt lat="44.76368" lon="4.69803">
        <ele>191.47</ele>
        <time>2019-11-03T11:35:37.000Z</time>
      </trkpt>
      <trkpt lat="44.76357" lon="4.69808">
        <ele>190.14</ele>
        <time>2019-11-03T11:35:47.000Z</time>
      </trkpt>
      <trkpt lat="44.76345" lon="4.69812">
        <ele>188.69</ele>
        <time>2019-11-03T11:35:57.000Z</time>
      </trkpt>
      <trkpt lat="44.76333" lon="4.69816">
        <ele>187.21</ele>
        <time>2019-11-03T11:36:07.000Z</time>
      </trkpt>
      <trkpt lat="44.76321" lon="4.69826">
        <ele>185.82</ele>
        <time>2019-11-03T11:36:17.000Z</time>
      </trkpt>
      <trkpt lat="44.7631" lon="4.69819">
        <ele>184.75</ele>
        <time>2019-11-03T11:36:27.000Z</time>
      </trkpt>
      <trkpt lat="44.76302" lon="4.69811">
        <ele>183.91</ele>
        <time>2019-11-03T11:36:37.000Z</time>
      </trkpt>
      <trkpt lat="44.76303" lon="4.69828">
        <ele>184.02</ele>
        <time>2019-11-03T11:36:47.000Z</time>
      </trkpt>
      <trkpt lat="44.76308" lon="4.69838">
        <ele>184.27</ele>
        <time>2019-11-03T11:36:57.000Z</time>
      </trkpt>
      <trkpt lat="44.76315" lon="4.69854">
        <ele>184.29</ele>
        <time>2019-11-03T11:37:07.000Z</time>
      </trkpt>
      <trkpt lat="44.76317" lon="4.69871">
        <ele>183.54</ele>
        <time>2019-11-03T11:37:17.000Z</time>
      </trkpt>
      <trkpt lat="44.76324" lon="4.69887">
        <ele>183.13</ele>
        <time>2019-11-03T11:37:27.000Z</time>
      </trkpt>
      <trkpt lat="44.76329" lon="4.69903">
        <ele>182.48</ele>
        <time>2019-11-03T11:37:37.000Z</time>
      </trkpt>
      <trkpt lat="44.76335" lon="4.6992">
        <ele>181.97</ele>
        <time>2019-11-03T11:37:47.000Z</time>
      </trkpt>
      <trkpt lat="44.76339" lon="4.69938">
        <ele>181.28</ele>
        <time>2019-11-03T11:37:57.000Z</time>
      </trkpt>
      <trkpt lat="44.76333" lon="4.69951">
        <ele>180.17</ele>
        <time>2019-11-03T11:38:07.000Z</time>
      </trkpt>
      <trkpt lat="44.76319" lon="4.69958">
        <ele>178.82</ele>
        <time>2019-11-03T11:38:17.000Z</time>
      </trkpt>
      <trkpt lat="44.76306" lon="4.69965">
        <ele>177.67</ele>
        <time>2019-11-03T11:38:27.000Z</time>
      </trkpt>
      <trkpt lat="44.76295" lon="4.69974">
        <ele>176.7</ele>
        <time>2019-11-03T11:38:37.000Z</time>
      </trkpt>
      <trkpt lat="44.76293" lon="4.69991">
        <ele>175.81</ele>
        <time>2019-11-03T11:38:47.000Z</time>
      </trkpt>
      <trkpt lat="44.76289" lon="4.7001">
        <ele>174.8</ele>
        <time>2019-11-03T11:38:57.000Z</time>
      </trkpt>
      <trkpt lat="44.76286" lon="4.70031">
        <ele>173.61</ele>
        <time>2019-11-03T11:39:07.000Z</time>
      </trkpt>
      <trkpt lat="44.76284" lon="4.70048">
        <ele>172.61</ele>
        <time>2019-11-03T11:39:17.000Z</time>
      </trkpt>
      <trkpt lat="44.76286" lon="4.70067">
        <ele>171.9</ele>
        <time>2019-11-03T11:39:27.000Z</time>
      </trkpt>
      <trkpt lat="44.7629" lon="4.70085">
        <ele>171.68</ele>
        <time>2019-11-03T11:39:37.000Z</time>
      </trkpt>
      <trkpt lat="44.76289" lon="4.70104">
        <ele>171.18</ele>
        <time>2019-11-03T11:39:47.000Z</time>
      </trkpt>
      <trkpt lat="44.76281" lon="4.7012">
        <ele>170.09</ele>
        <time>2019-11-03T11:39:57.000Z</time>
      </trkpt>
      <trkpt lat="44.76272" lon="4.70134">
        <ele>169.19</ele>
        <time>2019-11-03T11:40:07.000Z</time>
      </trkpt>
      <trkpt lat="44.76263" lon="4.70148">
        <ele>168.52</ele>
        <time>2019-11-03T11:40:17.000Z</time>
      </trkpt>
      <trkpt lat="44.7625" lon="4.70155">
        <ele>167.8</ele>
        <time>2019-11-03T11:40:27.000Z</time>
      </trkpt>
      <trkpt lat="44.76243" lon="4.70167">
        <ele>167.67</ele>
        <time>2019-11-03T11:40:37.000Z</time>
      </trkpt>
      <trkpt lat="44.76241" lon="4.70182">
        <ele>168.04</ele>
        <time>2019-11-03T11:40:47.000Z</time>
      </trkpt>
      <trkpt lat="44.76237" lon="4.70198">
        <ele>168.63</ele>
        <time>2019-11-03T11:40:57.000Z</time>
      </trkpt>
      <trkpt lat="44.76233" lon="4.70207">
        <ele>169</ele>
        <time>2019-11-03T11:41:07.000Z</time>
      </trkpt>
      <trkpt lat="44.76227" lon="4.70218">
        <ele>169.48</ele>
        <time>2019-11-03T11:41:17.000Z</time>
      </trkpt>
      <trkpt lat="44.76216" lon="4.7023">
        <ele>170</ele>
        <time>2019-11-03T11:41:27.000Z</time>
      </trkpt>
      <trkpt lat="44.76207" lon="4.70239">
        <ele>170.44</ele>
        <time>2019-11-03T11:41:37.000Z</time>
      </trkpt>
      <trkpt lat="44.76199" lon="4.70249">
        <ele>170.82</ele>
        <time>2019-11-03T11:41:47.000Z</time>
      </trkpt>
      <trkpt lat="44.76193" lon="4.70259">
        <ele>171.11</ele>
        <time>2019-11-03T11:41:57.000Z</time>
      </trkpt>
      <trkpt lat="44.76188" lon="4.70272">
        <ele>171.32</ele>
        <time>2019-11-03T11:42:07.000Z</time>
      </trkpt>
      <trkpt lat="44.76177" lon="4.7028">
        <ele>171.36</ele>
        <time>2019-11-03T11:42:17.000Z</time>
      </trkpt>
      <trkpt lat="44.76166" lon="4.70272">
        <ele>171.29</ele>
        <time>2019-11-03T11:42:27.000Z</time>
      </trkpt>
      <trkpt lat="44.76154" lon="4.70266">
        <ele>171.18</ele>
        <time>2019-11-03T11:42:37.000Z</time>
      </trkpt>
      <trkpt lat="44.76142" lon="4.70259">
        <ele>171.08</ele>
        <time>2019-11-03T11:42:47.000Z</time>
      </trkpt>
      <trkpt lat="44.76131" lon="4.70252">
        <ele>171.02</ele>
        <time>2019-11-03T11:42:57.000Z</time>
      </trkpt>
      <trkpt lat="44.7612" lon="4.70243">
        <ele>170.95</ele>
        <time>2019-11-03T11:43:07.000Z</time>
      </trkpt>
      <trkpt lat="44.76108" lon="4.70234">
        <ele>170.92</ele>
        <time>2019-11-03T11:43:17.000Z</time>
      </trkpt>
      <trkpt lat="44.76096" lon="4.70225">
        <ele>170.96</ele>
        <time>2019-11-03T11:43:27.000Z</time>
      </trkpt>
      <trkpt lat="44.76083" lon="4.70218">
        <ele>171.06</ele>
        <time>2019-11-03T11:43:37.000Z</time>
      </trkpt>
      <trkpt lat="44.7607" lon="4.7021">
        <ele>171.28</ele>
        <time>2019-11-03T11:43:47.000Z</time>
      </trkpt>
      <trkpt lat="44.76059" lon="4.70202">
        <ele>171.55</ele>
        <time>2019-11-03T11:43:58.000Z</time>
      </trkpt>
      <trkpt lat="44.76047" lon="4.70193">
        <ele>171.93</ele>
        <time>2019-11-03T11:44:08.000Z</time>
      </trkpt>
      <trkpt lat="44.76034" lon="4.70185">
        <ele>172.3</ele>
        <time>2019-11-03T11:44:18.000Z</time>
      </trkpt>
      <trkpt lat="44.76023" lon="4.70175">
        <ele>172.32</ele>
        <time>2019-11-03T11:44:28.000Z</time>
      </trkpt>
      <trkpt lat="44.76009" lon="4.70169">
        <ele>172.23</ele>
        <time>2019-11-03T11:44:38.000Z</time>
      </trkpt>
      <trkpt lat="44.75997" lon="4.70167">
        <ele>171.89</ele>
        <time>2019-11-03T11:44:49.000Z</time>
      </trkpt>
      <trkpt lat="44.75984" lon="4.70167">
        <ele>171.31</ele>
        <time>2019-11-03T11:44:59.000Z</time>
      </trkpt>
      <trkpt lat="44.75971" lon="4.70174">
        <ele>170.76</ele>
        <time>2019-11-03T11:45:09.000Z</time>
      </trkpt>
      <trkpt lat="44.75959" lon="4.70184">
        <ele>170.03</ele>
        <time>2019-11-03T11:45:19.000Z</time>
      </trkpt>
      <trkpt lat="44.75946" lon="4.7019">
        <ele>168.91</ele>
        <time>2019-11-03T11:45:29.000Z</time>
      </trkpt>
      <trkpt lat="44.75932" lon="4.70194">
        <ele>167.58</ele>
        <time>2019-11-03T11:45:40.000Z</time>
      </trkpt>
      <trkpt lat="44.75921" lon="4.70202">
        <ele>166.59</ele>
        <time>2019-11-03T11:45:50.000Z</time>
      </trkpt>
      <trkpt lat="44.75906" lon="4.70196">
        <ele>165.07</ele>
        <time>2019-11-03T11:46:00.000Z</time>
      </trkpt>
      <trkpt lat="44.75892" lon="4.70184">
        <ele>163.29</ele>
        <time>2019-11-03T11:46:30.000Z</time>
      </trkpt>
      <trkpt lat="44.7588" lon="4.70172">
        <ele>161.56</ele>
        <time>2019-11-03T11:46:40.000Z</time>
      </trkpt>
      <trkpt lat="44.75871" lon="4.70162">
        <ele>160.12</ele>
        <time>2019-11-03T11:46:50.000Z</time>
      </trkpt>
      <trkpt lat="44.75859" lon="4.70152">
        <ele>158.25</ele>
        <time>2019-11-03T11:47:00.000Z</time>
      </trkpt>
      <trkpt lat="44.75846" lon="4.70142">
        <ele>156.34</ele>
        <time>2019-11-03T11:47:10.000Z</time>
      </trkpt>
      <trkpt lat="44.75841" lon="4.70139">
        <ele>155.55</ele>
        <time>2019-11-03T11:47:20.000Z</time>
      </trkpt>
      <trkpt lat="44.75832" lon="4.70128">
        <ele>153.63</ele>
        <time>2019-11-03T11:47:30.000Z</time>
      </trkpt>
      <trkpt lat="44.75824" lon="4.70116">
        <ele>151.69</ele>
        <time>2019-11-03T11:47:40.000Z</time>
      </trkpt>
      <trkpt lat="44.75815" lon="4.70107">
        <ele>149.44</ele>
        <time>2019-11-03T11:47:50.000Z</time>
      </trkpt>
      <trkpt lat="44.75809" lon="4.70099">
        <ele>147.6</ele>
        <time>2019-11-03T11:48:00.000Z</time>
      </trkpt>
      <trkpt lat="44.75805" lon="4.70094">
        <ele>146.46</ele>
        <time>2019-11-03T11:48:10.000Z</time>
      </trkpt>
      <trkpt lat="44.758" lon="4.70091">
        <ele>145.12</ele>
        <time>2019-11-03T11:48:20.000Z</time>
      </trkpt>
      <trkpt lat="44.75795" lon="4.70091">
        <ele>144.23</ele>
        <time>2019-11-03T11:48:30.000Z</time>
      </trkpt>
      <trkpt lat="44.75792" lon="4.70086">
        <ele>143.05</ele>
        <time>2019-11-03T11:48:40.000Z</time>
      </trkpt>
      <trkpt lat="44.75792" lon="4.70076">
        <ele>142.16</ele>
        <time>2019-11-03T11:48:50.000Z</time>
      </trkpt>
      <trkpt lat="44.75792" lon="4.70069">
        <ele>141.45</ele>
        <time>2019-11-03T11:49:00.000Z</time>
      </trkpt>
      <trkpt lat="44.75794" lon="4.70062">
        <ele>140.8</ele>
        <time>2019-11-03T11:49:10.000Z</time>
      </trkpt>
      <trkpt lat="44.75794" lon="4.70054">
        <ele>139.79</ele>
        <time>2019-11-03T11:49:20.000Z</time>
      </trkpt>
      <trkpt lat="44.7579" lon="4.70051">
        <ele>138.85</ele>
        <time>2019-11-03T11:49:30.000Z</time>
      </trkpt>
      <trkpt lat="44.75786" lon="4.7004">
        <ele>137.21</ele>
        <time>2019-11-03T11:49:40.000Z</time>
      </trkpt>
      <trkpt lat="44.7578" lon="4.70042">
        <ele>136.78</ele>
        <time>2019-11-03T11:49:50.000Z</time>
      </trkpt>
      <trkpt lat="44.75767" lon="4.70034">
        <ele>135.33</ele>
        <time>2019-11-03T11:50:00.000Z</time>
      </trkpt>
      <trkpt lat="44.75761" lon="4.70023">
        <ele>134.96</ele>
        <time>2019-11-03T11:50:10.000Z</time>
      </trkpt>
      <trkpt lat="44.75756" lon="4.70013">
        <ele>135.14</ele>
        <time>2019-11-03T11:50:20.000Z</time>
      </trkpt>
      <trkpt lat="44.7575" lon="4.70006">
        <ele>135.6</ele>
        <time>2019-11-03T11:50:30.000Z</time>
      </trkpt>
      <trkpt lat="44.75745" lon="4.69995">
        <ele>136.67</ele>
        <time>2019-11-03T11:50:40.000Z</time>
      </trkpt>
      <trkpt lat="44.75739" lon="4.69983">
        <ele>138.5</ele>
        <time>2019-11-03T11:50:50.000Z</time>
      </trkpt>
      <trkpt lat="44.75733" lon="4.69972">
        <ele>140.39</ele>
        <time>2019-11-03T11:51:00.000Z</time>
      </trkpt>
      <trkpt lat="44.75728" lon="4.69962">
        <ele>142.28</ele>
        <time>2019-11-03T11:51:10.000Z</time>
      </trkpt>
      <trkpt lat="44.75721" lon="4.69949">
        <ele>144.36</ele>
        <time>2019-11-03T11:51:20.000Z</time>
      </trkpt>
      <trkpt lat="44.75711" lon="4.69936">
        <ele>145.89</ele>
        <time>2019-11-03T11:51:30.000Z</time>
      </trkpt>
      <trkpt lat="44.75704" lon="4.69948">
        <ele>144.87</ele>
        <time>2019-11-03T11:51:40.000Z</time>
      </trkpt>
      <trkpt lat="44.75698" lon="4.69966">
        <ele>143.52</ele>
        <time>2019-11-03T11:51:50.000Z</time>
      </trkpt>
      <trkpt lat="44.75694" lon="4.69985">
        <ele>142.27</ele>
        <time>2019-11-03T11:52:00.000Z</time>
      </trkpt>
      <trkpt lat="44.75689" lon="4.70004">
        <ele>141.17</ele>
        <time>2019-11-03T11:52:10.000Z</time>
      </trkpt>
      <trkpt lat="44.75676" lon="4.7002">
        <ele>140.29</ele>
        <time>2019-11-03T11:52:21.000Z</time>
      </trkpt>
      <trkpt lat="44.75662" lon="4.7003">
        <ele>139.57</ele>
        <time>2019-11-03T11:52:31.000Z</time>
      </trkpt>
      <trkpt lat="44.75648" lon="4.70041">
        <ele>138.64</ele>
        <time>2019-11-03T11:52:41.000Z</time>
      </trkpt>
      <trkpt lat="44.75634" lon="4.70047">
        <ele>138.88</ele>
        <time>2019-11-03T11:52:51.000Z</time>
      </trkpt>
      <trkpt lat="44.75619" lon="4.70055">
        <ele>139.1</ele>
        <time>2019-11-03T11:53:01.000Z</time>
      </trkpt>
      <trkpt lat="44.75604" lon="4.70064">
        <ele>139.57</ele>
        <time>2019-11-03T11:53:11.000Z</time>
      </trkpt>
      <trkpt lat="44.75588" lon="4.70075">
        <ele>139.58</ele>
        <time>2019-11-03T11:53:21.000Z</time>
      </trkpt>
      <trkpt lat="44.75573" lon="4.70084">
        <ele>138.69</ele>
        <time>2019-11-03T11:53:31.000Z</time>
      </trkpt>
      <trkpt lat="44.75563" lon="4.70096">
        <ele>137.32</ele>
        <time>2019-11-03T11:53:41.000Z</time>
      </trkpt>
      <trkpt lat="44.75558" lon="4.70112">
        <ele>135.6</ele>
        <time>2019-11-03T11:53:51.000Z</time>
      </trkpt>
      <trkpt lat="44.75553" lon="4.7013">
        <ele>133.61</ele>
        <time>2019-11-03T11:54:01.000Z</time>
      </trkpt>
      <trkpt lat="44.75555" lon="4.7015">
        <ele>131.66</ele>
        <time>2019-11-03T11:54:11.000Z</time>
      </trkpt>
      <trkpt lat="44.75563" lon="4.7016">
        <ele>130.68</ele>
        <time>2019-11-03T11:54:21.000Z</time>
      </trkpt>
      <trkpt lat="44.75557" lon="4.70176">
        <ele>129.4</ele>
        <time>2019-11-03T11:54:31.000Z</time>
      </trkpt>
      <trkpt lat="44.75553" lon="4.70187">
        <ele>128.52</ele>
        <time>2019-11-03T11:54:41.000Z</time>
      </trkpt>
      <trkpt lat="44.75548" lon="4.70202">
        <ele>127.25</ele>
        <time>2019-11-03T11:54:51.000Z</time>
      </trkpt>
      <trkpt lat="44.75541" lon="4.70217">
        <ele>125.95</ele>
        <time>2019-11-03T11:55:01.000Z</time>
      </trkpt>
      <trkpt lat="44.75536" lon="4.7022">
        <ele>125.65</ele>
        <time>2019-11-03T11:55:11.000Z</time>
      </trkpt>
      <trkpt lat="44.75534" lon="4.70225">
        <ele>125.14</ele>
        <time>2019-11-03T11:55:21.000Z</time>
      </trkpt>
      <trkpt lat="44.75533" lon="4.70235">
        <ele>124.35</ele>
        <time>2019-11-03T11:55:31.000Z</time>
      </trkpt>
      <trkpt lat="44.75536" lon="4.70247">
        <ele>123.68</ele>
        <time>2019-11-03T11:55:41.000Z</time>
      </trkpt>
      <trkpt lat="44.75535" lon="4.70254">
        <ele>123.3</ele>
        <time>2019-11-03T11:55:51.000Z</time>
      </trkpt>
      <trkpt lat="44.75532" lon="4.70266">
        <ele>122.69</ele>
        <time>2019-11-03T11:56:01.000Z</time>
      </trkpt>
      <trkpt lat="44.75534" lon="4.70286">
        <ele>122.35</ele>
        <time>2019-11-03T11:56:11.000Z</time>
      </trkpt>
      <trkpt lat="44.75535" lon="4.70306">
        <ele>122.2</ele>
        <time>2019-11-03T11:56:21.000Z</time>
      </trkpt>
      <trkpt lat="44.75537" lon="4.70326">
        <ele>122.21</ele>
        <time>2019-11-03T11:56:31.000Z</time>
      </trkpt>
      <trkpt lat="44.75539" lon="4.70343">
        <ele>122.37</ele>
        <time>2019-11-03T11:56:41.000Z</time>
      </trkpt>
      <trkpt lat="44.7554" lon="4.70363">
        <ele>122.48</ele>
        <time>2019-11-03T11:56:51.000Z</time>
      </trkpt>
      <trkpt lat="44.75539" lon="4.70383">
        <ele>122.45</ele>
        <time>2019-11-03T11:57:01.000Z</time>
      </trkpt>
      <trkpt lat="44.75539" lon="4.70402">
        <ele>122.56</ele>
        <time>2019-11-03T11:57:11.000Z</time>
      </trkpt>
      <trkpt lat="44.75544" lon="4.70412">
        <ele>123.07</ele>
      </trkpt>
      <trkpt lat="44.75545" lon="4.70429">
        <ele>123.06</ele>
      </trkpt>
      <trkpt lat="44.75548" lon="4.70443">
        <ele>123.13</ele>
      </trkpt>
      <trkpt lat="44.75555" lon="4.70458">
        <ele>123.6</ele>
      </trkpt>
      <trkpt lat="44.75563" lon="4.70475">
        <ele>124.3</ele>
      </trkpt>
      <trkpt lat="44.75573" lon="4.70491">
        <ele>124.95</ele>
      </trkpt>
      <trkpt lat="44.7558" lon="4.7051">
        <ele>125.21</ele>
      </trkpt>
      <trkpt lat="44.75586" lon="4.70526">
        <ele>125.46</ele>
      </trkpt>
      <trkpt lat="44.75594" lon="4.70539">
        <ele>125.77</ele>
      </trkpt>
      <trkpt lat="44.75601" lon="4.70555">
        <ele>125.92</ele>
      </trkpt>
      <trkpt lat="44.75609" lon="4.70572">
        <ele>125.92</ele>
      </trkpt>
      <trkpt lat="44.75616" lon="4.70591">
        <ele>125.55</ele>
      </trkpt>
      <trkpt lat="44.75622" lon="4.70606">
        <ele>125.26</ele>
      </trkpt>
      <trkpt lat="44.75631" lon="4.70624">
        <ele>124.96</ele>
      </trkpt>
      <trkpt lat="44.75638" lon="4.70642">
        <ele>124.39</ele>
      </trkpt>
      <trkpt lat="44.75646" lon="4.70661">
        <ele>123.92</ele>
      </trkpt>
      <trkpt lat="44.75654" lon="4.70677">
        <ele>123.7</ele>
      </trkpt>
      <trkpt lat="44.75661" lon="4.70692">
        <ele>123.49</ele>
      </trkpt>
    </trkseg>
  </trk>
</gpx>